<?xml version="1.0" encoding="UTF-8" standalone="no" ?>
<gpx xmlns="http://www.topografix.com/GPX/1/1" xmlns:xsi="http://www.w3.org/2001/XMLSchema-instance" xsi:schemaLocation="http://www.topografix.com/GPX/1/1 http://www.topografix.com/GPX/1/1/gpx.xsd" version="1.1" creator="VisuGPX - https://www.visugpx.com">
  <metadata>
    <name>La hourquette d'Arrouyes</name>
    <desc><![CDATA[Une superbe fenêtre sur le cirque de Gavarnie et le massif du Mont Perdu en remontant le sauvage vallon de Cestrède. 
Rencontre avec les marmottes et les isards. 
Une grande partie du parcours se fait hors trace et sans cairn mais sans difficulté.
]]></desc>
  </metadata>
  <trk>
    <name><![CDATA[La hourquette d'Arrouyes]]></name>
    <cmt><![CDATA[Une superbe fenêtre sur le cirque de Gavarnie et le massif du Mont Perdu en remontant le vallon de Xxxxx sauvage. 
Rencontre avec les marmottes et les isards. 
Une grande partie du parcours se fait hors trace ni cairn.]]></cmt>
    <desc><![CDATA[Une superbe fenêtre sur le cirque de Gavarnie et le massif du Mont Perdu en remontant le vallon de Xxxxx sauvage. 
Rencontre avec les marmottes et les isards. 
Une grande partie du parcours se fait hors trace ni cairn.]]></desc>
    <trkseg>
      <trkpt lat="42.79744" lon="-0.01715">
        <ele>1436.833</ele>
        <time>2023-05-31T08:57:55Z</time>
      </trkpt>
      <trkpt lat="42.79739" lon="-0.01714">
        <ele>1435.723</ele>
        <time>2023-05-31T08:57:55Z</time>
      </trkpt>
      <trkpt lat="42.79749" lon="-0.0172">
        <ele>1435.015</ele>
        <time>2023-05-31T09:03:01Z</time>
      </trkpt>
      <trkpt lat="42.79747" lon="-0.01715">
        <ele>1434.809</ele>
        <time>2023-05-31T09:03:07Z</time>
      </trkpt>
      <trkpt lat="42.79746" lon="-0.01708">
        <ele>1434.624</ele>
        <time>2023-05-31T09:03:14Z</time>
      </trkpt>
      <trkpt lat="42.79744" lon="-0.01702">
        <ele>1432.526</ele>
        <time>2023-05-31T09:03:20Z</time>
      </trkpt>
      <trkpt lat="42.79741" lon="-0.01696">
        <ele>1431.589</ele>
        <time>2023-05-31T09:03:26Z</time>
      </trkpt>
      <trkpt lat="42.79737" lon="-0.01692">
        <ele>1430.756</ele>
        <time>2023-05-31T09:03:34Z</time>
      </trkpt>
      <trkpt lat="42.79733" lon="-0.01687">
        <ele>1430.496</ele>
        <time>2023-05-31T09:03:42Z</time>
      </trkpt>
      <trkpt lat="42.79729" lon="-0.01684">
        <ele>1430.29</ele>
        <time>2023-05-31T09:03:48Z</time>
      </trkpt>
      <trkpt lat="42.79725" lon="-0.0168">
        <ele>1430.289</ele>
        <time>2023-05-31T09:03:53Z</time>
      </trkpt>
      <trkpt lat="42.79722" lon="-0.01675">
        <ele>1430.746</ele>
        <time>2023-05-31T09:04:00Z</time>
      </trkpt>
      <trkpt lat="42.79719" lon="-0.01668">
        <ele>1430.915</ele>
        <time>2023-05-31T09:04:10Z</time>
      </trkpt>
      <trkpt lat="42.79721" lon="-0.01662">
        <ele>1432.365</ele>
        <time>2023-05-31T09:04:16Z</time>
      </trkpt>
      <trkpt lat="42.79719" lon="-0.01656">
        <ele>1435.568</ele>
        <time>2023-05-31T09:04:24Z</time>
      </trkpt>
      <trkpt lat="42.79716" lon="-0.01651">
        <ele>1437.914</ele>
        <time>2023-05-31T09:04:32Z</time>
      </trkpt>
      <trkpt lat="42.79713" lon="-0.01645">
        <ele>1439.409</ele>
        <time>2023-05-31T09:04:40Z</time>
      </trkpt>
      <trkpt lat="42.79708" lon="-0.01643">
        <ele>1440.497</ele>
        <time>2023-05-31T09:04:44Z</time>
      </trkpt>
      <trkpt lat="42.79705" lon="-0.01638">
        <ele>1440.439</ele>
        <time>2023-05-31T09:04:51Z</time>
      </trkpt>
      <trkpt lat="42.79702" lon="-0.01631">
        <ele>1440.472</ele>
        <time>2023-05-31T09:05:01Z</time>
      </trkpt>
      <trkpt lat="42.79698" lon="-0.01635">
        <ele>1441.099</ele>
        <time>2023-05-31T09:05:14Z</time>
      </trkpt>
      <trkpt lat="42.79694" lon="-0.01639">
        <ele>1441.849</ele>
        <time>2023-05-31T09:05:22Z</time>
      </trkpt>
      <trkpt lat="42.7969" lon="-0.01643">
        <ele>1444.553</ele>
        <time>2023-05-31T09:05:32Z</time>
      </trkpt>
      <trkpt lat="42.79687" lon="-0.01648">
        <ele>1447.842</ele>
        <time>2023-05-31T09:05:41Z</time>
      </trkpt>
      <trkpt lat="42.79684" lon="-0.01653">
        <ele>1450.769</ele>
        <time>2023-05-31T09:05:56Z</time>
      </trkpt>
      <trkpt lat="42.79683" lon="-0.0166">
        <ele>1452.868</ele>
        <time>2023-05-31T09:06:02Z</time>
      </trkpt>
      <trkpt lat="42.79685" lon="-0.01666">
        <ele>1453.012</ele>
        <time>2023-05-31T09:06:09Z</time>
      </trkpt>
      <trkpt lat="42.79682" lon="-0.01671">
        <ele>1453.932</ele>
        <time>2023-05-31T09:06:18Z</time>
      </trkpt>
      <trkpt lat="42.79682" lon="-0.01677">
        <ele>1456.205</ele>
        <time>2023-05-31T09:06:23Z</time>
      </trkpt>
      <trkpt lat="42.79682" lon="-0.01683">
        <ele>1457.909</ele>
        <time>2023-05-31T09:06:33Z</time>
      </trkpt>
      <trkpt lat="42.79681" lon="-0.01691">
        <ele>1458.692</ele>
        <time>2023-05-31T09:06:46Z</time>
      </trkpt>
      <trkpt lat="42.79679" lon="-0.01697">
        <ele>1459.634</ele>
        <time>2023-05-31T09:06:53Z</time>
      </trkpt>
      <trkpt lat="42.79679" lon="-0.01704">
        <ele>1460.147</ele>
        <time>2023-05-31T09:06:59Z</time>
      </trkpt>
      <trkpt lat="42.7968" lon="-0.0171">
        <ele>1460.774</ele>
        <time>2023-05-31T09:07:05Z</time>
      </trkpt>
      <trkpt lat="42.7968" lon="-0.01718">
        <ele>1461.934</ele>
        <time>2023-05-31T09:07:11Z</time>
      </trkpt>
      <trkpt lat="42.79679" lon="-0.01726">
        <ele>1463.998</ele>
        <time>2023-05-31T09:07:15Z</time>
      </trkpt>
      <trkpt lat="42.79678" lon="-0.01733">
        <ele>1465.287</ele>
        <time>2023-05-31T09:07:19Z</time>
      </trkpt>
      <trkpt lat="42.79676" lon="-0.0174">
        <ele>1465.344</ele>
        <time>2023-05-31T09:07:24Z</time>
      </trkpt>
      <trkpt lat="42.79674" lon="-0.01746">
        <ele>1465.253</ele>
        <time>2023-05-31T09:07:28Z</time>
      </trkpt>
      <trkpt lat="42.79673" lon="-0.01752">
        <ele>1465.037</ele>
        <time>2023-05-31T09:07:31Z</time>
      </trkpt>
      <trkpt lat="42.79672" lon="-0.01759">
        <ele>1465.049</ele>
        <time>2023-05-31T09:07:37Z</time>
      </trkpt>
      <trkpt lat="42.79671" lon="-0.01766">
        <ele>1465.013</ele>
        <time>2023-05-31T09:07:44Z</time>
      </trkpt>
      <trkpt lat="42.79669" lon="-0.01773">
        <ele>1466.009</ele>
        <time>2023-05-31T09:07:48Z</time>
      </trkpt>
      <trkpt lat="42.79669" lon="-0.0178">
        <ele>1467.744</ele>
        <time>2023-05-31T09:07:55Z</time>
      </trkpt>
      <trkpt lat="42.79667" lon="-0.01787">
        <ele>1468.796</ele>
        <time>2023-05-31T09:08:00Z</time>
      </trkpt>
      <trkpt lat="42.79665" lon="-0.01792">
        <ele>1470.899</ele>
        <time>2023-05-31T09:08:04Z</time>
      </trkpt>
      <trkpt lat="42.79663" lon="-0.01798">
        <ele>1472.496</ele>
        <time>2023-05-31T09:08:07Z</time>
      </trkpt>
      <trkpt lat="42.79661" lon="-0.01803">
        <ele>1472.476</ele>
        <time>2023-05-31T09:08:10Z</time>
      </trkpt>
      <trkpt lat="42.79658" lon="-0.01809">
        <ele>1472.42</ele>
        <time>2023-05-31T09:08:13Z</time>
      </trkpt>
      <trkpt lat="42.79656" lon="-0.01814">
        <ele>1471.439</ele>
        <time>2023-05-31T09:08:17Z</time>
      </trkpt>
      <trkpt lat="42.79654" lon="-0.0182">
        <ele>1469.996</ele>
        <time>2023-05-31T09:08:23Z</time>
      </trkpt>
      <trkpt lat="42.79654" lon="-0.01827">
        <ele>1469.415</ele>
        <time>2023-05-31T09:08:29Z</time>
      </trkpt>
      <trkpt lat="42.79654" lon="-0.01833">
        <ele>1469.428</ele>
        <time>2023-05-31T09:08:36Z</time>
      </trkpt>
      <trkpt lat="42.79654" lon="-0.01841">
        <ele>1469.489</ele>
        <time>2023-05-31T09:08:40Z</time>
      </trkpt>
      <trkpt lat="42.79655" lon="-0.01848">
        <ele>1470.017</ele>
        <time>2023-05-31T09:08:47Z</time>
      </trkpt>
      <trkpt lat="42.79654" lon="-0.01854">
        <ele>1470.609</ele>
        <time>2023-05-31T09:08:53Z</time>
      </trkpt>
      <trkpt lat="42.79655" lon="-0.01861">
        <ele>1470.693</ele>
        <time>2023-05-31T09:09:00Z</time>
      </trkpt>
      <trkpt lat="42.79655" lon="-0.01868">
        <ele>1471.255</ele>
        <time>2023-05-31T09:09:10Z</time>
      </trkpt>
      <trkpt lat="42.79656" lon="-0.01874">
        <ele>1471.698</ele>
        <time>2023-05-31T09:09:17Z</time>
      </trkpt>
      <trkpt lat="42.79654" lon="-0.01879">
        <ele>1472.775</ele>
        <time>2023-05-31T09:09:24Z</time>
      </trkpt>
      <trkpt lat="42.79653" lon="-0.01886">
        <ele>1473.675</ele>
        <time>2023-05-31T09:09:34Z</time>
      </trkpt>
      <trkpt lat="42.79652" lon="-0.01892">
        <ele>1474.479</ele>
        <time>2023-05-31T09:09:39Z</time>
      </trkpt>
      <trkpt lat="42.7965" lon="-0.01899">
        <ele>1475.618</ele>
        <time>2023-05-31T09:09:47Z</time>
      </trkpt>
      <trkpt lat="42.79646" lon="-0.01902">
        <ele>1476.915</ele>
        <time>2023-05-31T09:09:55Z</time>
      </trkpt>
      <trkpt lat="42.79644" lon="-0.01908">
        <ele>1477.214</ele>
        <time>2023-05-31T09:10:00Z</time>
      </trkpt>
      <trkpt lat="42.79642" lon="-0.01914">
        <ele>1477.397</ele>
        <time>2023-05-31T09:10:05Z</time>
      </trkpt>
      <trkpt lat="42.79639" lon="-0.01921">
        <ele>1477.223</ele>
        <time>2023-05-31T09:10:12Z</time>
      </trkpt>
      <trkpt lat="42.79638" lon="-0.01928">
        <ele>1477.025</ele>
        <time>2023-05-31T09:10:18Z</time>
      </trkpt>
      <trkpt lat="42.79634" lon="-0.01931">
        <ele>1477.009</ele>
        <time>2023-05-31T09:10:28Z</time>
      </trkpt>
      <trkpt lat="42.7963" lon="-0.01932">
        <ele>1476.67</ele>
        <time>2023-05-31T09:10:34Z</time>
      </trkpt>
      <trkpt lat="42.79626" lon="-0.01936">
        <ele>1476.152</ele>
        <time>2023-05-31T09:10:43Z</time>
      </trkpt>
      <trkpt lat="42.79623" lon="-0.01941">
        <ele>1476.145</ele>
        <time>2023-05-31T09:10:55Z</time>
      </trkpt>
      <trkpt lat="42.79622" lon="-0.01947">
        <ele>1476.152</ele>
        <time>2023-05-31T09:11:09Z</time>
      </trkpt>
      <trkpt lat="42.79622" lon="-0.01953">
        <ele>1476.772</ele>
        <time>2023-05-31T09:11:27Z</time>
      </trkpt>
      <trkpt lat="42.79617" lon="-0.01957">
        <ele>1478.096</ele>
        <time>2023-05-31T09:11:34Z</time>
      </trkpt>
      <trkpt lat="42.79615" lon="-0.01964">
        <ele>1478.945</ele>
        <time>2023-05-31T09:11:48Z</time>
      </trkpt>
      <trkpt lat="42.79611" lon="-0.01966">
        <ele>1479.882</ele>
        <time>2023-05-31T09:11:57Z</time>
      </trkpt>
      <trkpt lat="42.79608" lon="-0.01971">
        <ele>1481.011</ele>
        <time>2023-05-31T09:12:06Z</time>
      </trkpt>
      <trkpt lat="42.79605" lon="-0.01976">
        <ele>1481.511</ele>
        <time>2023-05-31T09:12:14Z</time>
      </trkpt>
      <trkpt lat="42.79601" lon="-0.0198">
        <ele>1482.121</ele>
        <time>2023-05-31T09:12:22Z</time>
      </trkpt>
      <trkpt lat="42.79598" lon="-0.01986">
        <ele>1482.903</ele>
        <time>2023-05-31T09:12:33Z</time>
      </trkpt>
      <trkpt lat="42.79595" lon="-0.01991">
        <ele>1483.309</ele>
        <time>2023-05-31T09:12:46Z</time>
      </trkpt>
      <trkpt lat="42.79597" lon="-0.01997">
        <ele>1483.632</ele>
        <time>2023-05-31T09:13:06Z</time>
      </trkpt>
      <trkpt lat="42.79598" lon="-0.02005">
        <ele>1484.834</ele>
        <time>2023-05-31T09:13:13Z</time>
      </trkpt>
      <trkpt lat="42.79595" lon="-0.0201">
        <ele>1492.237</ele>
        <time>2023-05-31T09:13:17Z</time>
      </trkpt>
      <trkpt lat="42.79592" lon="-0.02016">
        <ele>1498.964</ele>
        <time>2023-05-31T09:13:22Z</time>
      </trkpt>
      <trkpt lat="42.79592" lon="-0.02022">
        <ele>1499.614</ele>
        <time>2023-05-31T09:13:32Z</time>
      </trkpt>
      <trkpt lat="42.79593" lon="-0.02029">
        <ele>1500.558</ele>
        <time>2023-05-31T09:13:49Z</time>
      </trkpt>
      <trkpt lat="42.7959" lon="-0.02034">
        <ele>1501.647</ele>
        <time>2023-05-31T09:13:55Z</time>
      </trkpt>
      <trkpt lat="42.79587" lon="-0.02038">
        <ele>1503.894</ele>
        <time>2023-05-31T09:14:05Z</time>
      </trkpt>
      <trkpt lat="42.7959" lon="-0.02045">
        <ele>1505.723</ele>
        <time>2023-05-31T09:14:20Z</time>
      </trkpt>
      <trkpt lat="42.7959" lon="-0.02052">
        <ele>1508.333</ele>
        <time>2023-05-31T09:14:25Z</time>
      </trkpt>
      <trkpt lat="42.79591" lon="-0.02059">
        <ele>1514.023</ele>
        <time>2023-05-31T09:14:29Z</time>
      </trkpt>
      <trkpt lat="42.79589" lon="-0.02067">
        <ele>1516.615</ele>
        <time>2023-05-31T09:14:34Z</time>
      </trkpt>
      <trkpt lat="42.79588" lon="-0.02074">
        <ele>1516.609</ele>
        <time>2023-05-31T09:14:38Z</time>
      </trkpt>
      <trkpt lat="42.79585" lon="-0.0208">
        <ele>1516.644</ele>
        <time>2023-05-31T09:14:42Z</time>
      </trkpt>
      <trkpt lat="42.79582" lon="-0.02087">
        <ele>1515.596</ele>
        <time>2023-05-31T09:14:46Z</time>
      </trkpt>
      <trkpt lat="42.7958" lon="-0.02092">
        <ele>1513.679</ele>
        <time>2023-05-31T09:14:50Z</time>
      </trkpt>
      <trkpt lat="42.79577" lon="-0.02098">
        <ele>1512.586</ele>
        <time>2023-05-31T09:14:55Z</time>
      </trkpt>
      <trkpt lat="42.79575" lon="-0.02104">
        <ele>1511.226</ele>
        <time>2023-05-31T09:14:59Z</time>
      </trkpt>
      <trkpt lat="42.79572" lon="-0.0211">
        <ele>1511.01</ele>
        <time>2023-05-31T09:15:04Z</time>
      </trkpt>
      <trkpt lat="42.79571" lon="-0.02116">
        <ele>1511.099</ele>
        <time>2023-05-31T09:15:11Z</time>
      </trkpt>
      <trkpt lat="42.7957" lon="-0.02122">
        <ele>1511.126</ele>
        <time>2023-05-31T09:15:16Z</time>
      </trkpt>
      <trkpt lat="42.79569" lon="-0.02128">
        <ele>1511.145</ele>
        <time>2023-05-31T09:15:23Z</time>
      </trkpt>
      <trkpt lat="42.79568" lon="-0.02134">
        <ele>1511.425</ele>
        <time>2023-05-31T09:15:29Z</time>
      </trkpt>
      <trkpt lat="42.79565" lon="-0.02139">
        <ele>1511.926</ele>
        <time>2023-05-31T09:15:36Z</time>
      </trkpt>
      <trkpt lat="42.79562" lon="-0.02144">
        <ele>1512.408</ele>
        <time>2023-05-31T09:15:43Z</time>
      </trkpt>
      <trkpt lat="42.7956" lon="-0.02149">
        <ele>1512.809</ele>
        <time>2023-05-31T09:15:51Z</time>
      </trkpt>
      <trkpt lat="42.79557" lon="-0.02154">
        <ele>1513.373</ele>
        <time>2023-05-31T09:15:59Z</time>
      </trkpt>
      <trkpt lat="42.7956" lon="-0.02159">
        <ele>1513.935</ele>
        <time>2023-05-31T09:16:06Z</time>
      </trkpt>
      <trkpt lat="42.79561" lon="-0.02166">
        <ele>1514.868</ele>
        <time>2023-05-31T09:16:22Z</time>
      </trkpt>
      <trkpt lat="42.79558" lon="-0.02173">
        <ele>1516.725</ele>
        <time>2023-05-31T09:16:29Z</time>
      </trkpt>
      <trkpt lat="42.79555" lon="-0.02178">
        <ele>1518.215</ele>
        <time>2023-05-31T09:16:34Z</time>
      </trkpt>
      <trkpt lat="42.79553" lon="-0.02183">
        <ele>1518.299</ele>
        <time>2023-05-31T09:16:42Z</time>
      </trkpt>
      <trkpt lat="42.79551" lon="-0.0219">
        <ele>1518.298</ele>
        <time>2023-05-31T09:16:51Z</time>
      </trkpt>
      <trkpt lat="42.79552" lon="-0.02196">
        <ele>1518.265</ele>
        <time>2023-05-31T09:17:06Z</time>
      </trkpt>
      <trkpt lat="42.79549" lon="-0.02202">
        <ele>1518.254</ele>
        <time>2023-05-31T09:17:15Z</time>
      </trkpt>
      <trkpt lat="42.79546" lon="-0.02207">
        <ele>1518.137</ele>
        <time>2023-05-31T09:17:22Z</time>
      </trkpt>
      <trkpt lat="42.79545" lon="-0.02215">
        <ele>1518.849</ele>
        <time>2023-05-31T09:17:36Z</time>
      </trkpt>
      <trkpt lat="42.79546" lon="-0.02223">
        <ele>1520.013</ele>
        <time>2023-05-31T09:17:53Z</time>
      </trkpt>
      <trkpt lat="42.79545" lon="-0.0223">
        <ele>1521.709</ele>
        <time>2023-05-31T09:18:07Z</time>
      </trkpt>
      <trkpt lat="42.79545" lon="-0.02236">
        <ele>1525.084</ele>
        <time>2023-05-31T09:18:17Z</time>
      </trkpt>
      <trkpt lat="42.79546" lon="-0.02243">
        <ele>1529.936</ele>
        <time>2023-05-31T09:18:26Z</time>
      </trkpt>
      <trkpt lat="42.79548" lon="-0.02249">
        <ele>1533.299</ele>
        <time>2023-05-31T09:18:34Z</time>
      </trkpt>
      <trkpt lat="42.79547" lon="-0.02255">
        <ele>1536.026</ele>
        <time>2023-05-31T09:18:40Z</time>
      </trkpt>
      <trkpt lat="42.79545" lon="-0.02261">
        <ele>1538.086</ele>
        <time>2023-05-31T09:18:45Z</time>
      </trkpt>
      <trkpt lat="42.79545" lon="-0.02267">
        <ele>1539.09</ele>
        <time>2023-05-31T09:18:55Z</time>
      </trkpt>
      <trkpt lat="42.79544" lon="-0.02275">
        <ele>1539.369</ele>
        <time>2023-05-31T09:19:00Z</time>
      </trkpt>
      <trkpt lat="42.79543" lon="-0.02281">
        <ele>1540.326</ele>
        <time>2023-05-31T09:19:05Z</time>
      </trkpt>
      <trkpt lat="42.79542" lon="-0.02288">
        <ele>1541.145</ele>
        <time>2023-05-31T09:19:12Z</time>
      </trkpt>
      <trkpt lat="42.79541" lon="-0.02295">
        <ele>1541.173</ele>
        <time>2023-05-31T09:19:16Z</time>
      </trkpt>
      <trkpt lat="42.79539" lon="-0.02302">
        <ele>1541.185</ele>
        <time>2023-05-31T09:19:21Z</time>
      </trkpt>
      <trkpt lat="42.79536" lon="-0.02306">
        <ele>1540.513</ele>
        <time>2023-05-31T09:19:25Z</time>
      </trkpt>
      <trkpt lat="42.79532" lon="-0.0231">
        <ele>1539.509</ele>
        <time>2023-05-31T09:19:28Z</time>
      </trkpt>
      <trkpt lat="42.79529" lon="-0.02315">
        <ele>1538.498</ele>
        <time>2023-05-31T09:19:34Z</time>
      </trkpt>
      <trkpt lat="42.79529" lon="-0.02322">
        <ele>1536.97</ele>
        <time>2023-05-31T09:19:43Z</time>
      </trkpt>
      <trkpt lat="42.79527" lon="-0.02328">
        <ele>1536.263</ele>
        <time>2023-05-31T09:19:52Z</time>
      </trkpt>
      <trkpt lat="42.79525" lon="-0.02333">
        <ele>1535.92</ele>
        <time>2023-05-31T09:19:59Z</time>
      </trkpt>
      <trkpt lat="42.79525" lon="-0.0234">
        <ele>1535.96</ele>
        <time>2023-05-31T09:20:09Z</time>
      </trkpt>
      <trkpt lat="42.79525" lon="-0.02347">
        <ele>1536.114</ele>
        <time>2023-05-31T09:20:18Z</time>
      </trkpt>
      <trkpt lat="42.79525" lon="-0.02354">
        <ele>1538.113</ele>
        <time>2023-05-31T09:20:25Z</time>
      </trkpt>
      <trkpt lat="42.79526" lon="-0.0236">
        <ele>1542.13</ele>
        <time>2023-05-31T09:20:30Z</time>
      </trkpt>
      <trkpt lat="42.79527" lon="-0.02368">
        <ele>1545.219</ele>
        <time>2023-05-31T09:20:36Z</time>
      </trkpt>
      <trkpt lat="42.79529" lon="-0.02373">
        <ele>1546.194</ele>
        <time>2023-05-31T09:20:45Z</time>
      </trkpt>
      <trkpt lat="42.7953" lon="-0.02379">
        <ele>1546.257</ele>
        <time>2023-05-31T09:20:50Z</time>
      </trkpt>
      <trkpt lat="42.79529" lon="-0.02386">
        <ele>1547.822</ele>
        <time>2023-05-31T09:21:00Z</time>
      </trkpt>
      <trkpt lat="42.79527" lon="-0.02392">
        <ele>1549.209</ele>
        <time>2023-05-31T09:21:08Z</time>
      </trkpt>
      <trkpt lat="42.79525" lon="-0.02399">
        <ele>1549.28</ele>
        <time>2023-05-31T09:21:13Z</time>
      </trkpt>
      <trkpt lat="42.79523" lon="-0.02405">
        <ele>1549.232</ele>
        <time>2023-05-31T09:21:41Z</time>
      </trkpt>
      <trkpt lat="42.79519" lon="-0.02409">
        <ele>1548.695</ele>
        <time>2023-05-31T09:23:09Z</time>
      </trkpt>
      <trkpt lat="42.79517" lon="-0.02415">
        <ele>1547.492</ele>
        <time>2023-05-31T09:23:38Z</time>
      </trkpt>
      <trkpt lat="42.79521" lon="-0.02419">
        <ele>1547.442</ele>
        <time>2023-05-31T09:23:53Z</time>
      </trkpt>
      <trkpt lat="42.79524" lon="-0.02424">
        <ele>1547.436</ele>
        <time>2023-05-31T09:24:00Z</time>
      </trkpt>
      <trkpt lat="42.79525" lon="-0.02431">
        <ele>1547.655</ele>
        <time>2023-05-31T09:24:10Z</time>
      </trkpt>
      <trkpt lat="42.79524" lon="-0.02438">
        <ele>1550.052</ele>
        <time>2023-05-31T09:24:21Z</time>
      </trkpt>
      <trkpt lat="42.79522" lon="-0.02445">
        <ele>1551.571</ele>
        <time>2023-05-31T09:24:27Z</time>
      </trkpt>
      <trkpt lat="42.79522" lon="-0.02451">
        <ele>1552.121</ele>
        <time>2023-05-31T09:24:35Z</time>
      </trkpt>
      <trkpt lat="42.79522" lon="-0.02458">
        <ele>1553.041</ele>
        <time>2023-05-31T09:24:44Z</time>
      </trkpt>
      <trkpt lat="42.79523" lon="-0.02464">
        <ele>1553.405</ele>
        <time>2023-05-31T09:24:52Z</time>
      </trkpt>
      <trkpt lat="42.79522" lon="-0.0247">
        <ele>1555.009</ele>
        <time>2023-05-31T09:24:57Z</time>
      </trkpt>
      <trkpt lat="42.79524" lon="-0.02476">
        <ele>1556.783</ele>
        <time>2023-05-31T09:25:07Z</time>
      </trkpt>
      <trkpt lat="42.79526" lon="-0.02482">
        <ele>1557.465</ele>
        <time>2023-05-31T09:25:12Z</time>
      </trkpt>
      <trkpt lat="42.79526" lon="-0.02488">
        <ele>1558.978</ele>
        <time>2023-05-31T09:25:38Z</time>
      </trkpt>
      <trkpt lat="42.79525" lon="-0.02495">
        <ele>1560.225</ele>
        <time>2023-05-31T09:25:48Z</time>
      </trkpt>
      <trkpt lat="42.79523" lon="-0.02501">
        <ele>1565.625</ele>
        <time>2023-05-31T09:25:55Z</time>
      </trkpt>
      <trkpt lat="42.79523" lon="-0.02507">
        <ele>1572.089</ele>
        <time>2023-05-31T09:26:05Z</time>
      </trkpt>
      <trkpt lat="42.79522" lon="-0.02514">
        <ele>1573.698</ele>
        <time>2023-05-31T09:26:11Z</time>
      </trkpt>
      <trkpt lat="42.79521" lon="-0.02521">
        <ele>1573.715</ele>
        <time>2023-05-31T09:26:20Z</time>
      </trkpt>
      <trkpt lat="42.7952" lon="-0.02528">
        <ele>1573.914</ele>
        <time>2023-05-31T09:26:25Z</time>
      </trkpt>
      <trkpt lat="42.79516" lon="-0.02535">
        <ele>1573.721</ele>
        <time>2023-05-31T09:26:32Z</time>
      </trkpt>
      <trkpt lat="42.79518" lon="-0.02541">
        <ele>1573.741</ele>
        <time>2023-05-31T09:26:46Z</time>
      </trkpt>
      <trkpt lat="42.79521" lon="-0.02547">
        <ele>1574.005</ele>
        <time>2023-05-31T09:27:10Z</time>
      </trkpt>
      <trkpt lat="42.79523" lon="-0.02554">
        <ele>1576.609</ele>
        <time>2023-05-31T09:27:23Z</time>
      </trkpt>
      <trkpt lat="42.79521" lon="-0.0256">
        <ele>1581.543</ele>
        <time>2023-05-31T09:27:30Z</time>
      </trkpt>
      <trkpt lat="42.79523" lon="-0.02567">
        <ele>1582.595</ele>
        <time>2023-05-31T09:27:35Z</time>
      </trkpt>
      <trkpt lat="42.79523" lon="-0.02573">
        <ele>1583.288</ele>
        <time>2023-05-31T09:27:43Z</time>
      </trkpt>
      <trkpt lat="42.79525" lon="-0.02579">
        <ele>1583.615</ele>
        <time>2023-05-31T09:27:54Z</time>
      </trkpt>
      <trkpt lat="42.79524" lon="-0.02586">
        <ele>1583.815</ele>
        <time>2023-05-31T09:28:10Z</time>
      </trkpt>
      <trkpt lat="42.79523" lon="-0.02592">
        <ele>1583.899</ele>
        <time>2023-05-31T09:28:18Z</time>
      </trkpt>
      <trkpt lat="42.79525" lon="-0.026">
        <ele>1585.468</ele>
        <time>2023-05-31T09:28:27Z</time>
      </trkpt>
      <trkpt lat="42.79524" lon="-0.02606">
        <ele>1587.735</ele>
        <time>2023-05-31T09:28:35Z</time>
      </trkpt>
      <trkpt lat="42.79524" lon="-0.02613">
        <ele>1587.824</ele>
        <time>2023-05-31T09:28:45Z</time>
      </trkpt>
      <trkpt lat="42.79522" lon="-0.02619">
        <ele>1588.153</ele>
        <time>2023-05-31T09:29:01Z</time>
      </trkpt>
      <trkpt lat="42.79523" lon="-0.02626">
        <ele>1588.504</ele>
        <time>2023-05-31T09:29:12Z</time>
      </trkpt>
      <trkpt lat="42.79523" lon="-0.02632">
        <ele>1590.814</ele>
        <time>2023-05-31T09:29:18Z</time>
      </trkpt>
      <trkpt lat="42.79523" lon="-0.02639">
        <ele>1592.809</ele>
        <time>2023-05-31T09:29:25Z</time>
      </trkpt>
      <trkpt lat="42.79522" lon="-0.02646">
        <ele>1593.876</ele>
        <time>2023-05-31T09:29:32Z</time>
      </trkpt>
      <trkpt lat="42.79525" lon="-0.02651">
        <ele>1594.738</ele>
        <time>2023-05-31T09:29:40Z</time>
      </trkpt>
      <trkpt lat="42.79527" lon="-0.02656">
        <ele>1595.061</ele>
        <time>2023-05-31T09:29:49Z</time>
      </trkpt>
      <trkpt lat="42.79525" lon="-0.02662">
        <ele>1596.348</ele>
        <time>2023-05-31T09:29:57Z</time>
      </trkpt>
      <trkpt lat="42.79521" lon="-0.02665">
        <ele>1598.188</ele>
        <time>2023-05-31T09:30:17Z</time>
      </trkpt>
      <trkpt lat="42.79516" lon="-0.02664">
        <ele>1598.132</ele>
        <time>2023-05-31T09:30:38Z</time>
      </trkpt>
      <trkpt lat="42.79512" lon="-0.02665">
        <ele>1598.131</ele>
        <time>2023-05-31T09:30:46Z</time>
      </trkpt>
      <trkpt lat="42.79507" lon="-0.02665">
        <ele>1599.078</ele>
        <time>2023-05-31T09:31:05Z</time>
      </trkpt>
      <trkpt lat="42.79505" lon="-0.02672">
        <ele>1599.087</ele>
        <time>2023-05-31T09:31:46Z</time>
      </trkpt>
      <trkpt lat="42.79503" lon="-0.02679">
        <ele>1601.964</ele>
        <time>2023-05-31T09:31:49Z</time>
      </trkpt>
      <trkpt lat="42.795" lon="-0.02685">
        <ele>1606.106</ele>
        <time>2023-05-31T09:32:01Z</time>
      </trkpt>
      <trkpt lat="42.79498" lon="-0.02691">
        <ele>1608.016</ele>
        <time>2023-05-31T09:32:21Z</time>
      </trkpt>
      <trkpt lat="42.79497" lon="-0.02697">
        <ele>1610.609</ele>
        <time>2023-05-31T09:32:32Z</time>
      </trkpt>
      <trkpt lat="42.79494" lon="-0.02703">
        <ele>1613.197</ele>
        <time>2023-05-31T09:32:47Z</time>
      </trkpt>
      <trkpt lat="42.79492" lon="-0.02709">
        <ele>1614.549</ele>
        <time>2023-05-31T09:32:56Z</time>
      </trkpt>
      <trkpt lat="42.79487" lon="-0.02713">
        <ele>1615.672</ele>
        <time>2023-05-31T09:33:02Z</time>
      </trkpt>
      <trkpt lat="42.79488" lon="-0.0272">
        <ele>1616.049</ele>
        <time>2023-05-31T09:33:09Z</time>
      </trkpt>
      <trkpt lat="42.79487" lon="-0.02726">
        <ele>1616.999</ele>
        <time>2023-05-31T09:33:18Z</time>
      </trkpt>
      <trkpt lat="42.79485" lon="-0.02732">
        <ele>1617.763</ele>
        <time>2023-05-31T09:33:30Z</time>
      </trkpt>
      <trkpt lat="42.79481" lon="-0.02736">
        <ele>1617.612</ele>
        <time>2023-05-31T09:33:39Z</time>
      </trkpt>
      <trkpt lat="42.7948" lon="-0.02742">
        <ele>1617.649</ele>
        <time>2023-05-31T09:34:01Z</time>
      </trkpt>
      <trkpt lat="42.79476" lon="-0.02746">
        <ele>1617.948</ele>
        <time>2023-05-31T09:34:10Z</time>
      </trkpt>
      <trkpt lat="42.79472" lon="-0.02748">
        <ele>1619.594</ele>
        <time>2023-05-31T09:34:33Z</time>
      </trkpt>
      <trkpt lat="42.79469" lon="-0.02753">
        <ele>1621.757</ele>
        <time>2023-05-31T09:34:47Z</time>
      </trkpt>
      <trkpt lat="42.79464" lon="-0.02754">
        <ele>1625.522</ele>
        <time>2023-05-31T09:35:08Z</time>
      </trkpt>
      <trkpt lat="42.79459" lon="-0.02755">
        <ele>1629.309</ele>
        <time>2023-05-31T09:35:28Z</time>
      </trkpt>
      <trkpt lat="42.7946" lon="-0.02762">
        <ele>1631.68</ele>
        <time>2023-05-31T09:35:45Z</time>
      </trkpt>
      <trkpt lat="42.79455" lon="-0.02765">
        <ele>1635.882</ele>
        <time>2023-05-31T09:35:56Z</time>
      </trkpt>
      <trkpt lat="42.79454" lon="-0.02771">
        <ele>1640.255</ele>
        <time>2023-05-31T09:36:04Z</time>
      </trkpt>
      <trkpt lat="42.79453" lon="-0.02777">
        <ele>1642.272</ele>
        <time>2023-05-31T09:36:21Z</time>
      </trkpt>
      <trkpt lat="42.79451" lon="-0.02784">
        <ele>1643.412</ele>
        <time>2023-05-31T09:36:33Z</time>
      </trkpt>
      <trkpt lat="42.79447" lon="-0.02788">
        <ele>1644.686</ele>
        <time>2023-05-31T09:36:49Z</time>
      </trkpt>
      <trkpt lat="42.79444" lon="-0.02794">
        <ele>1645.235</ele>
        <time>2023-05-31T09:37:05Z</time>
      </trkpt>
      <trkpt lat="42.79447" lon="-0.02799">
        <ele>1646.532</ele>
        <time>2023-05-31T09:37:30Z</time>
      </trkpt>
      <trkpt lat="42.79444" lon="-0.02805">
        <ele>1648.981</ele>
        <time>2023-05-31T09:37:38Z</time>
      </trkpt>
      <trkpt lat="42.7944" lon="-0.02806">
        <ele>1650.888</ele>
        <time>2023-05-31T09:37:56Z</time>
      </trkpt>
      <trkpt lat="42.79435" lon="-0.0281">
        <ele>1652.224</ele>
        <time>2023-05-31T09:38:40Z</time>
      </trkpt>
      <trkpt lat="42.79432" lon="-0.02816">
        <ele>1653.226</ele>
        <time>2023-05-31T09:38:50Z</time>
      </trkpt>
      <trkpt lat="42.79432" lon="-0.02822">
        <ele>1655.309</ele>
        <time>2023-05-31T09:39:01Z</time>
      </trkpt>
      <trkpt lat="42.79431" lon="-0.02828">
        <ele>1657.879</ele>
        <time>2023-05-31T09:39:09Z</time>
      </trkpt>
      <trkpt lat="42.79427" lon="-0.02833">
        <ele>1658.321</ele>
        <time>2023-05-31T09:39:27Z</time>
      </trkpt>
      <trkpt lat="42.79424" lon="-0.02838">
        <ele>1658.914</ele>
        <time>2023-05-31T09:39:46Z</time>
      </trkpt>
      <trkpt lat="42.79422" lon="-0.02844">
        <ele>1660.761</ele>
        <time>2023-05-31T09:40:05Z</time>
      </trkpt>
      <trkpt lat="42.79417" lon="-0.02843">
        <ele>1663.941</ele>
        <time>2023-05-31T09:40:12Z</time>
      </trkpt>
      <trkpt lat="42.79415" lon="-0.02848">
        <ele>1668.475</ele>
        <time>2023-05-31T09:40:27Z</time>
      </trkpt>
      <trkpt lat="42.79415" lon="-0.02855">
        <ele>1671.354</ele>
        <time>2023-05-31T09:40:40Z</time>
      </trkpt>
      <trkpt lat="42.79411" lon="-0.02858">
        <ele>1672.481</ele>
        <time>2023-05-31T09:40:52Z</time>
      </trkpt>
      <trkpt lat="42.79406" lon="-0.02859">
        <ele>1673.51</ele>
        <time>2023-05-31T09:41:06Z</time>
      </trkpt>
      <trkpt lat="42.79401" lon="-0.02855">
        <ele>1674.074</ele>
        <time>2023-05-31T09:41:19Z</time>
      </trkpt>
      <trkpt lat="42.79397" lon="-0.02858">
        <ele>1675.156</ele>
        <time>2023-05-31T09:41:32Z</time>
      </trkpt>
      <trkpt lat="42.79394" lon="-0.02863">
        <ele>1677.221</ele>
        <time>2023-05-31T09:41:55Z</time>
      </trkpt>
      <trkpt lat="42.7939" lon="-0.02867">
        <ele>1678.109</ele>
        <time>2023-05-31T09:42:06Z</time>
      </trkpt>
      <trkpt lat="42.79386" lon="-0.0287">
        <ele>1678.788</ele>
        <time>2023-05-31T09:42:15Z</time>
      </trkpt>
      <trkpt lat="42.79382" lon="-0.02875">
        <ele>1679.36</ele>
        <time>2023-05-31T09:42:28Z</time>
      </trkpt>
      <trkpt lat="42.7938" lon="-0.0288">
        <ele>1679.963</ele>
        <time>2023-05-31T09:42:39Z</time>
      </trkpt>
      <trkpt lat="42.79375" lon="-0.02881">
        <ele>1680.38</ele>
        <time>2023-05-31T09:42:55Z</time>
      </trkpt>
      <trkpt lat="42.7937" lon="-0.02884">
        <ele>1681.24</ele>
        <time>2023-05-31T09:43:00Z</time>
      </trkpt>
      <trkpt lat="42.79365" lon="-0.02887">
        <ele>1682.154</ele>
        <time>2023-05-31T09:43:07Z</time>
      </trkpt>
      <trkpt lat="42.79361" lon="-0.02891">
        <ele>1682.953</ele>
        <time>2023-05-31T09:43:18Z</time>
      </trkpt>
      <trkpt lat="42.79357" lon="-0.02893">
        <ele>1683.27</ele>
        <time>2023-05-31T09:43:32Z</time>
      </trkpt>
      <trkpt lat="42.79353" lon="-0.02898">
        <ele>1683.619</ele>
        <time>2023-05-31T09:43:44Z</time>
      </trkpt>
      <trkpt lat="42.7935" lon="-0.02902">
        <ele>1685.592</ele>
        <time>2023-05-31T09:44:04Z</time>
      </trkpt>
      <trkpt lat="42.79346" lon="-0.02906">
        <ele>1688.673</ele>
        <time>2023-05-31T09:44:14Z</time>
      </trkpt>
      <trkpt lat="42.79341" lon="-0.02905">
        <ele>1690.72</ele>
        <time>2023-05-31T09:44:28Z</time>
      </trkpt>
      <trkpt lat="42.79337" lon="-0.02908">
        <ele>1692.609</ele>
        <time>2023-05-31T09:44:35Z</time>
      </trkpt>
      <trkpt lat="42.79333" lon="-0.02912">
        <ele>1694.68</ele>
        <time>2023-05-31T09:44:48Z</time>
      </trkpt>
      <trkpt lat="42.79328" lon="-0.02914">
        <ele>1696.052</ele>
        <time>2023-05-31T09:45:00Z</time>
      </trkpt>
      <trkpt lat="42.79323" lon="-0.02917">
        <ele>1696.675</ele>
        <time>2023-05-31T09:45:11Z</time>
      </trkpt>
      <trkpt lat="42.7932" lon="-0.02922">
        <ele>1697.612</ele>
        <time>2023-05-31T09:45:20Z</time>
      </trkpt>
      <trkpt lat="42.79315" lon="-0.02924">
        <ele>1698.342</ele>
        <time>2023-05-31T09:45:26Z</time>
      </trkpt>
      <trkpt lat="42.79311" lon="-0.02927">
        <ele>1698.726</ele>
        <time>2023-05-31T09:45:35Z</time>
      </trkpt>
      <trkpt lat="42.79307" lon="-0.02931">
        <ele>1699.355</ele>
        <time>2023-05-31T09:45:45Z</time>
      </trkpt>
      <trkpt lat="42.79302" lon="-0.02934">
        <ele>1700.232</ele>
        <time>2023-05-31T09:45:58Z</time>
      </trkpt>
      <trkpt lat="42.79298" lon="-0.02934">
        <ele>1701.441</ele>
        <time>2023-05-31T09:46:08Z</time>
      </trkpt>
      <trkpt lat="42.79293" lon="-0.02934">
        <ele>1702.161</ele>
        <time>2023-05-31T09:46:24Z</time>
      </trkpt>
      <trkpt lat="42.79289" lon="-0.02937">
        <ele>1702.421</ele>
        <time>2023-05-31T09:46:32Z</time>
      </trkpt>
      <trkpt lat="42.79284" lon="-0.0294">
        <ele>1703.513</ele>
        <time>2023-05-31T09:46:38Z</time>
      </trkpt>
      <trkpt lat="42.7928" lon="-0.02941">
        <ele>1704.709</ele>
        <time>2023-05-31T09:46:46Z</time>
      </trkpt>
      <trkpt lat="42.79275" lon="-0.02944">
        <ele>1705.457</ele>
        <time>2023-05-31T09:47:03Z</time>
      </trkpt>
      <trkpt lat="42.79271" lon="-0.02949">
        <ele>1706.199</ele>
        <time>2023-05-31T09:47:16Z</time>
      </trkpt>
      <trkpt lat="42.79268" lon="-0.02954">
        <ele>1706.312</ele>
        <time>2023-05-31T09:47:26Z</time>
      </trkpt>
      <trkpt lat="42.79264" lon="-0.02957">
        <ele>1707.479</ele>
        <time>2023-05-31T09:47:45Z</time>
      </trkpt>
      <trkpt lat="42.79259" lon="-0.02958">
        <ele>1708.489</ele>
        <time>2023-05-31T09:47:57Z</time>
      </trkpt>
      <trkpt lat="42.79254" lon="-0.0296">
        <ele>1709.743</ele>
        <time>2023-05-31T09:48:11Z</time>
      </trkpt>
      <trkpt lat="42.7925" lon="-0.02963">
        <ele>1711.022</ele>
        <time>2023-05-31T09:48:18Z</time>
      </trkpt>
      <trkpt lat="42.79248" lon="-0.02969">
        <ele>1711.739</ele>
        <time>2023-05-31T09:48:43Z</time>
      </trkpt>
      <trkpt lat="42.79245" lon="-0.02974">
        <ele>1713.768</ele>
        <time>2023-05-31T09:48:48Z</time>
      </trkpt>
      <trkpt lat="42.7924" lon="-0.02978">
        <ele>1717.064</ele>
        <time>2023-05-31T09:48:54Z</time>
      </trkpt>
      <trkpt lat="42.79237" lon="-0.02982">
        <ele>1718.906</ele>
        <time>2023-05-31T09:49:01Z</time>
      </trkpt>
      <trkpt lat="42.79233" lon="-0.02987">
        <ele>1719.416</ele>
        <time>2023-05-31T09:49:09Z</time>
      </trkpt>
      <trkpt lat="42.7923" lon="-0.02993">
        <ele>1719.909</ele>
        <time>2023-05-31T09:49:18Z</time>
      </trkpt>
      <trkpt lat="42.79227" lon="-0.02998">
        <ele>1720.657</ele>
        <time>2023-05-31T09:49:25Z</time>
      </trkpt>
      <trkpt lat="42.79224" lon="-0.03002">
        <ele>1722.039</ele>
        <time>2023-05-31T09:49:32Z</time>
      </trkpt>
      <trkpt lat="42.7922" lon="-0.03006">
        <ele>1722.832</ele>
        <time>2023-05-31T09:49:41Z</time>
      </trkpt>
      <trkpt lat="42.79217" lon="-0.03011">
        <ele>1723.499</ele>
        <time>2023-05-31T09:49:50Z</time>
      </trkpt>
      <trkpt lat="42.79213" lon="-0.03015">
        <ele>1724.049</ele>
        <time>2023-05-31T09:49:59Z</time>
      </trkpt>
      <trkpt lat="42.79211" lon="-0.03021">
        <ele>1724.773</ele>
        <time>2023-05-31T09:50:11Z</time>
      </trkpt>
      <trkpt lat="42.79209" lon="-0.03026">
        <ele>1725.792</ele>
        <time>2023-05-31T09:50:27Z</time>
      </trkpt>
      <trkpt lat="42.79206" lon="-0.03032">
        <ele>1726.689</ele>
        <time>2023-05-31T09:50:33Z</time>
      </trkpt>
      <trkpt lat="42.79202" lon="-0.03035">
        <ele>1727.118</ele>
        <time>2023-05-31T09:50:40Z</time>
      </trkpt>
      <trkpt lat="42.79198" lon="-0.03038">
        <ele>1727.531</ele>
        <time>2023-05-31T09:50:47Z</time>
      </trkpt>
      <trkpt lat="42.79193" lon="-0.03041">
        <ele>1728.061</ele>
        <time>2023-05-31T09:50:56Z</time>
      </trkpt>
      <trkpt lat="42.7919" lon="-0.03046">
        <ele>1728.507</ele>
        <time>2023-05-31T09:51:04Z</time>
      </trkpt>
      <trkpt lat="42.79186" lon="-0.03049">
        <ele>1729.409</ele>
        <time>2023-05-31T09:51:12Z</time>
      </trkpt>
      <trkpt lat="42.79181" lon="-0.03052">
        <ele>1731.544</ele>
        <time>2023-05-31T09:51:18Z</time>
      </trkpt>
      <trkpt lat="42.79178" lon="-0.03057">
        <ele>1733.036</ele>
        <time>2023-05-31T09:51:26Z</time>
      </trkpt>
      <trkpt lat="42.79175" lon="-0.03061">
        <ele>1733.419</ele>
        <time>2023-05-31T09:51:33Z</time>
      </trkpt>
      <trkpt lat="42.79171" lon="-0.03066">
        <ele>1734.076</ele>
        <time>2023-05-31T09:51:37Z</time>
      </trkpt>
      <trkpt lat="42.79166" lon="-0.03068">
        <ele>1734.076</ele>
        <time>2023-05-31T09:51:42Z</time>
      </trkpt>
      <trkpt lat="42.79161" lon="-0.03071">
        <ele>1734.95</ele>
        <time>2023-05-31T09:51:54Z</time>
      </trkpt>
      <trkpt lat="42.79157" lon="-0.03073">
        <ele>1735.559</ele>
        <time>2023-05-31T09:52:04Z</time>
      </trkpt>
      <trkpt lat="42.79154" lon="-0.03079">
        <ele>1735.676</ele>
        <time>2023-05-31T09:52:12Z</time>
      </trkpt>
      <trkpt lat="42.79151" lon="-0.03084">
        <ele>1735.665</ele>
        <time>2023-05-31T09:52:18Z</time>
      </trkpt>
      <trkpt lat="42.79147" lon="-0.03089">
        <ele>1736.446</ele>
        <time>2023-05-31T09:52:25Z</time>
      </trkpt>
      <trkpt lat="42.79144" lon="-0.03094">
        <ele>1737.188</ele>
        <time>2023-05-31T09:52:30Z</time>
      </trkpt>
      <trkpt lat="42.79139" lon="-0.03097">
        <ele>1737.216</ele>
        <time>2023-05-31T09:52:36Z</time>
      </trkpt>
      <trkpt lat="42.79135" lon="-0.031">
        <ele>1737.209</ele>
        <time>2023-05-31T09:52:41Z</time>
      </trkpt>
      <trkpt lat="42.7913" lon="-0.03101">
        <ele>1737.275</ele>
        <time>2023-05-31T09:52:49Z</time>
      </trkpt>
      <trkpt lat="42.79125" lon="-0.03104">
        <ele>1736.517</ele>
        <time>2023-05-31T09:52:55Z</time>
      </trkpt>
      <trkpt lat="42.7912" lon="-0.03105">
        <ele>1735.55</ele>
        <time>2023-05-31T09:53:04Z</time>
      </trkpt>
      <trkpt lat="42.79115" lon="-0.03107">
        <ele>1735.277</ele>
        <time>2023-05-31T09:53:12Z</time>
      </trkpt>
      <trkpt lat="42.79111" lon="-0.03111">
        <ele>1734.647</ele>
        <time>2023-05-31T09:53:17Z</time>
      </trkpt>
      <trkpt lat="42.79107" lon="-0.03115">
        <ele>1734.671</ele>
        <time>2023-05-31T09:53:26Z</time>
      </trkpt>
      <trkpt lat="42.79103" lon="-0.03118">
        <ele>1734.64</ele>
        <time>2023-05-31T09:53:33Z</time>
      </trkpt>
      <trkpt lat="42.79098" lon="-0.03118">
        <ele>1735.627</ele>
        <time>2023-05-31T09:53:40Z</time>
      </trkpt>
      <trkpt lat="42.79094" lon="-0.03121">
        <ele>1736.486</ele>
        <time>2023-05-31T09:53:46Z</time>
      </trkpt>
      <trkpt lat="42.7909" lon="-0.03124">
        <ele>1737.147</ele>
        <time>2023-05-31T09:53:54Z</time>
      </trkpt>
      <trkpt lat="42.79085" lon="-0.03126">
        <ele>1738.229</ele>
        <time>2023-05-31T09:54:02Z</time>
      </trkpt>
      <trkpt lat="42.79085" lon="-0.0312">
        <ele>1740.321</ele>
        <time>2023-05-31T09:54:33Z</time>
      </trkpt>
      <trkpt lat="42.79081" lon="-0.03122">
        <ele>1742.209</ele>
        <time>2023-05-31T09:54:39Z</time>
      </trkpt>
      <trkpt lat="42.79076" lon="-0.03126">
        <ele>1745.445</ele>
        <time>2023-05-31T09:54:45Z</time>
      </trkpt>
      <trkpt lat="42.79072" lon="-0.03128">
        <ele>1747.267</ele>
        <time>2023-05-31T09:54:53Z</time>
      </trkpt>
      <trkpt lat="42.79067" lon="-0.03132">
        <ele>1747.97</ele>
        <time>2023-05-31T09:55:00Z</time>
      </trkpt>
      <trkpt lat="42.79063" lon="-0.03131">
        <ele>1748.367</ele>
        <time>2023-05-31T09:55:10Z</time>
      </trkpt>
      <trkpt lat="42.7906" lon="-0.03125">
        <ele>1747.977</ele>
        <time>2023-05-31T09:55:20Z</time>
      </trkpt>
      <trkpt lat="42.7906" lon="-0.03118">
        <ele>1747.271</ele>
        <time>2023-05-31T09:55:30Z</time>
      </trkpt>
      <trkpt lat="42.79059" lon="-0.03112">
        <ele>1747.25</ele>
        <time>2023-05-31T09:55:40Z</time>
      </trkpt>
      <trkpt lat="42.79055" lon="-0.03108">
        <ele>1747.727</ele>
        <time>2023-05-31T09:55:47Z</time>
      </trkpt>
      <trkpt lat="42.79051" lon="-0.03104">
        <ele>1748.166</ele>
        <time>2023-05-31T09:55:59Z</time>
      </trkpt>
      <trkpt lat="42.79048" lon="-0.03099">
        <ele>1748.752</ele>
        <time>2023-05-31T09:56:09Z</time>
      </trkpt>
      <trkpt lat="42.79049" lon="-0.03092">
        <ele>1749.753</ele>
        <time>2023-05-31T09:57:24Z</time>
      </trkpt>
      <trkpt lat="42.79054" lon="-0.0309">
        <ele>1750.808</ele>
        <time>2023-05-31T09:57:37Z</time>
      </trkpt>
      <trkpt lat="42.79058" lon="-0.03088">
        <ele>1752.009</ele>
        <time>2023-05-31T09:57:41Z</time>
      </trkpt>
      <trkpt lat="42.79063" lon="-0.03086">
        <ele>1752.376</ele>
        <time>2023-05-31T09:57:45Z</time>
      </trkpt>
      <trkpt lat="42.79063" lon="-0.03079">
        <ele>1753.378</ele>
        <time>2023-05-31T09:58:04Z</time>
      </trkpt>
      <trkpt lat="42.7906" lon="-0.03075">
        <ele>1754.371</ele>
        <time>2023-05-31T09:58:14Z</time>
      </trkpt>
      <trkpt lat="42.79064" lon="-0.03072">
        <ele>1755.278</ele>
        <time>2023-05-31T09:58:21Z</time>
      </trkpt>
      <trkpt lat="42.79069" lon="-0.0307">
        <ele>1755.968</ele>
        <time>2023-05-31T09:58:32Z</time>
      </trkpt>
      <trkpt lat="42.7907" lon="-0.03062">
        <ele>1755.932</ele>
        <time>2023-05-31T09:58:38Z</time>
      </trkpt>
      <trkpt lat="42.79071" lon="-0.03055">
        <ele>1755.921</ele>
        <time>2023-05-31T09:58:46Z</time>
      </trkpt>
      <trkpt lat="42.79075" lon="-0.0305">
        <ele>1754.458</ele>
        <time>2023-05-31T09:58:54Z</time>
      </trkpt>
      <trkpt lat="42.79076" lon="-0.03044">
        <ele>1751.017</ele>
        <time>2023-05-31T09:59:01Z</time>
      </trkpt>
      <trkpt lat="42.79079" lon="-0.03038">
        <ele>1749.187</ele>
        <time>2023-05-31T09:59:08Z</time>
      </trkpt>
      <trkpt lat="42.79083" lon="-0.03035">
        <ele>1749.142</ele>
        <time>2023-05-31T09:59:17Z</time>
      </trkpt>
      <trkpt lat="42.79086" lon="-0.0303">
        <ele>1749.126</ele>
        <time>2023-05-31T09:59:22Z</time>
      </trkpt>
      <trkpt lat="42.7909" lon="-0.03026">
        <ele>1749.709</ele>
        <time>2023-05-31T09:59:26Z</time>
      </trkpt>
      <trkpt lat="42.79095" lon="-0.03022">
        <ele>1750.469</ele>
        <time>2023-05-31T09:59:32Z</time>
      </trkpt>
      <trkpt lat="42.79099" lon="-0.03018">
        <ele>1750.621</ele>
        <time>2023-05-31T09:59:37Z</time>
      </trkpt>
      <trkpt lat="42.79103" lon="-0.03014">
        <ele>1751.754</ele>
        <time>2023-05-31T09:59:51Z</time>
      </trkpt>
      <trkpt lat="42.79107" lon="-0.03011">
        <ele>1754.351</ele>
        <time>2023-05-31T10:00:00Z</time>
      </trkpt>
      <trkpt lat="42.7911" lon="-0.03005">
        <ele>1756.611</ele>
        <time>2023-05-31T10:00:08Z</time>
      </trkpt>
      <trkpt lat="42.79112" lon="-0.02998">
        <ele>1757.715</ele>
        <time>2023-05-31T10:00:15Z</time>
      </trkpt>
      <trkpt lat="42.79115" lon="-0.02993">
        <ele>1758.774</ele>
        <time>2023-05-31T10:00:19Z</time>
      </trkpt>
      <trkpt lat="42.79119" lon="-0.0299">
        <ele>1759.371</ele>
        <time>2023-05-31T10:00:24Z</time>
      </trkpt>
      <trkpt lat="42.79122" lon="-0.02985">
        <ele>1759.72</ele>
        <time>2023-05-31T10:00:28Z</time>
      </trkpt>
      <trkpt lat="42.79127" lon="-0.0298">
        <ele>1759.856</ele>
        <time>2023-05-31T10:00:36Z</time>
      </trkpt>
      <trkpt lat="42.79131" lon="-0.02974">
        <ele>1760.759</ele>
        <time>2023-05-31T10:00:45Z</time>
      </trkpt>
      <trkpt lat="42.79134" lon="-0.02969">
        <ele>1761.414</ele>
        <time>2023-05-31T10:00:50Z</time>
      </trkpt>
      <trkpt lat="42.79138" lon="-0.02964">
        <ele>1761.909</ele>
        <time>2023-05-31T10:00:58Z</time>
      </trkpt>
      <trkpt lat="42.79141" lon="-0.02958">
        <ele>1763.226</ele>
        <time>2023-05-31T10:01:04Z</time>
      </trkpt>
      <trkpt lat="42.79145" lon="-0.02952">
        <ele>1763.568</ele>
        <time>2023-05-31T10:01:09Z</time>
      </trkpt>
      <trkpt lat="42.79147" lon="-0.02947">
        <ele>1763.581</ele>
        <time>2023-05-31T10:01:16Z</time>
      </trkpt>
      <trkpt lat="42.7915" lon="-0.02942">
        <ele>1765.128</ele>
        <time>2023-05-31T10:01:26Z</time>
      </trkpt>
      <trkpt lat="42.79154" lon="-0.02938">
        <ele>1766.628</ele>
        <time>2023-05-31T10:01:32Z</time>
      </trkpt>
      <trkpt lat="42.79156" lon="-0.02932">
        <ele>1766.892</ele>
        <time>2023-05-31T10:01:41Z</time>
      </trkpt>
      <trkpt lat="42.79159" lon="-0.02927">
        <ele>1767.031</ele>
        <time>2023-05-31T10:01:50Z</time>
      </trkpt>
      <trkpt lat="42.79163" lon="-0.02923">
        <ele>1768.168</ele>
        <time>2023-05-31T10:01:55Z</time>
      </trkpt>
      <trkpt lat="42.79166" lon="-0.02919">
        <ele>1770.067</ele>
        <time>2023-05-31T10:02:08Z</time>
      </trkpt>
      <trkpt lat="42.7917" lon="-0.02913">
        <ele>1770.885</ele>
        <time>2023-05-31T10:02:16Z</time>
      </trkpt>
      <trkpt lat="42.79174" lon="-0.02908">
        <ele>1771.189</ele>
        <time>2023-05-31T10:02:22Z</time>
      </trkpt>
      <trkpt lat="42.79178" lon="-0.02905">
        <ele>1771.317</ele>
        <time>2023-05-31T10:02:28Z</time>
      </trkpt>
      <trkpt lat="42.79181" lon="-0.02899">
        <ele>1771.309</ele>
        <time>2023-05-31T10:02:34Z</time>
      </trkpt>
      <trkpt lat="42.79183" lon="-0.02893">
        <ele>1770.989</ele>
        <time>2023-05-31T10:02:40Z</time>
      </trkpt>
      <trkpt lat="42.79187" lon="-0.02889">
        <ele>1770.361</ele>
        <time>2023-05-31T10:02:47Z</time>
      </trkpt>
      <trkpt lat="42.79191" lon="-0.02884">
        <ele>1769.644</ele>
        <time>2023-05-31T10:02:52Z</time>
      </trkpt>
      <trkpt lat="42.79193" lon="-0.02878">
        <ele>1767.911</ele>
        <time>2023-05-31T10:02:59Z</time>
      </trkpt>
      <trkpt lat="42.79197" lon="-0.02874">
        <ele>1766.121</ele>
        <time>2023-05-31T10:03:09Z</time>
      </trkpt>
      <trkpt lat="42.79199" lon="-0.02868">
        <ele>1765.685</ele>
        <time>2023-05-31T10:03:21Z</time>
      </trkpt>
      <trkpt lat="42.79202" lon="-0.02863">
        <ele>1765.284</ele>
        <time>2023-05-31T10:03:28Z</time>
      </trkpt>
      <trkpt lat="42.79204" lon="-0.02856">
        <ele>1765.261</ele>
        <time>2023-05-31T10:03:34Z</time>
      </trkpt>
      <trkpt lat="42.79207" lon="-0.02852">
        <ele>1765.21</ele>
        <time>2023-05-31T10:03:44Z</time>
      </trkpt>
      <trkpt lat="42.79208" lon="-0.02845">
        <ele>1765.675</ele>
        <time>2023-05-31T10:03:49Z</time>
      </trkpt>
      <trkpt lat="42.79213" lon="-0.02841">
        <ele>1765.928</ele>
        <time>2023-05-31T10:03:57Z</time>
      </trkpt>
      <trkpt lat="42.79213" lon="-0.02835">
        <ele>1766.22</ele>
        <time>2023-05-31T10:04:02Z</time>
      </trkpt>
      <trkpt lat="42.79216" lon="-0.02829">
        <ele>1766.509</ele>
        <time>2023-05-31T10:04:09Z</time>
      </trkpt>
      <trkpt lat="42.7922" lon="-0.02824">
        <ele>1766.588</ele>
        <time>2023-05-31T10:04:20Z</time>
      </trkpt>
      <trkpt lat="42.79222" lon="-0.02818">
        <ele>1766.59</ele>
        <time>2023-05-31T10:04:27Z</time>
      </trkpt>
      <trkpt lat="42.79223" lon="-0.02812">
        <ele>1766.133</ele>
        <time>2023-05-31T10:04:37Z</time>
      </trkpt>
      <trkpt lat="42.79225" lon="-0.02806">
        <ele>1765.41</ele>
        <time>2023-05-31T10:04:47Z</time>
      </trkpt>
      <trkpt lat="42.79227" lon="-0.02799">
        <ele>1765.37</ele>
        <time>2023-05-31T10:04:58Z</time>
      </trkpt>
      <trkpt lat="42.7923" lon="-0.02793">
        <ele>1764.864</ele>
        <time>2023-05-31T10:05:03Z</time>
      </trkpt>
      <trkpt lat="42.7923" lon="-0.02787">
        <ele>1764.863</ele>
        <time>2023-05-31T10:05:11Z</time>
      </trkpt>
      <trkpt lat="42.79226" lon="-0.02784">
        <ele>1764.87</ele>
        <time>2023-05-31T10:05:44Z</time>
      </trkpt>
      <trkpt lat="42.79224" lon="-0.02778">
        <ele>1765.559</ele>
        <time>2023-05-31T10:06:09Z</time>
      </trkpt>
      <trkpt lat="42.79225" lon="-0.02772">
        <ele>1771.369</ele>
        <time>2023-05-31T10:06:29Z</time>
      </trkpt>
      <trkpt lat="42.79223" lon="-0.02778">
        <ele>1777.604</ele>
        <time>2023-05-31T10:06:42Z</time>
      </trkpt>
      <trkpt lat="42.79219" lon="-0.02775">
        <ele>1779.724</ele>
        <time>2023-05-31T10:06:55Z</time>
      </trkpt>
      <trkpt lat="42.79216" lon="-0.0277">
        <ele>1781.509</ele>
        <time>2023-05-31T10:07:08Z</time>
      </trkpt>
      <trkpt lat="42.79211" lon="-0.02766">
        <ele>1784.047</ele>
        <time>2023-05-31T10:07:20Z</time>
      </trkpt>
      <trkpt lat="42.79207" lon="-0.02763">
        <ele>1786.779</ele>
        <time>2023-05-31T10:07:37Z</time>
      </trkpt>
      <trkpt lat="42.79202" lon="-0.02763">
        <ele>1788.832</ele>
        <time>2023-05-31T10:07:59Z</time>
      </trkpt>
      <trkpt lat="42.79198" lon="-0.02761">
        <ele>1790.759</ele>
        <time>2023-05-31T10:08:12Z</time>
      </trkpt>
      <trkpt lat="42.79193" lon="-0.02764">
        <ele>1792.849</ele>
        <time>2023-05-31T10:08:49Z</time>
      </trkpt>
      <trkpt lat="42.7919" lon="-0.02758">
        <ele>1794.513</ele>
        <time>2023-05-31T10:08:57Z</time>
      </trkpt>
      <trkpt lat="42.79192" lon="-0.02752">
        <ele>1797.072</ele>
        <time>2023-05-31T10:09:37Z</time>
      </trkpt>
      <trkpt lat="42.79193" lon="-0.02758">
        <ele>1797.759</ele>
        <time>2023-05-31T10:14:17Z</time>
      </trkpt>
      <trkpt lat="42.79189" lon="-0.02757">
        <ele>1798.658</ele>
        <time>2023-05-31T10:15:03Z</time>
      </trkpt>
      <trkpt lat="42.79185" lon="-0.0276">
        <ele>1798.785</ele>
        <time>2023-05-31T10:15:12Z</time>
      </trkpt>
      <trkpt lat="42.7918" lon="-0.02759">
        <ele>1799.589</ele>
        <time>2023-05-31T10:15:26Z</time>
      </trkpt>
      <trkpt lat="42.79176" lon="-0.02758">
        <ele>1799.917</ele>
        <time>2023-05-31T10:15:40Z</time>
      </trkpt>
      <trkpt lat="42.79169" lon="-0.02762">
        <ele>1799.909</ele>
        <time>2023-05-31T10:15:47Z</time>
      </trkpt>
      <trkpt lat="42.79165" lon="-0.02763">
        <ele>1800.769</ele>
        <time>2023-05-31T10:15:58Z</time>
      </trkpt>
      <trkpt lat="42.7916" lon="-0.02766">
        <ele>1803.461</ele>
        <time>2023-05-31T10:16:11Z</time>
      </trkpt>
      <trkpt lat="42.79156" lon="-0.02762">
        <ele>1806.394</ele>
        <time>2023-05-31T10:16:22Z</time>
      </trkpt>
      <trkpt lat="42.79151" lon="-0.02761">
        <ele>1806.821</ele>
        <time>2023-05-31T10:16:37Z</time>
      </trkpt>
      <trkpt lat="42.79147" lon="-0.02765">
        <ele>1810.051</ele>
        <time>2023-05-31T10:16:48Z</time>
      </trkpt>
      <trkpt lat="42.79143" lon="-0.02768">
        <ele>1813.685</ele>
        <time>2023-05-31T10:17:00Z</time>
      </trkpt>
      <trkpt lat="42.79139" lon="-0.02768">
        <ele>1814.864</ele>
        <time>2023-05-31T10:17:13Z</time>
      </trkpt>
      <trkpt lat="42.79135" lon="-0.02766">
        <ele>1816.811</ele>
        <time>2023-05-31T10:17:25Z</time>
      </trkpt>
      <trkpt lat="42.7913" lon="-0.02767">
        <ele>1818.31</ele>
        <time>2023-05-31T10:17:33Z</time>
      </trkpt>
      <trkpt lat="42.79125" lon="-0.02768">
        <ele>1818.865</ele>
        <time>2023-05-31T10:17:42Z</time>
      </trkpt>
      <trkpt lat="42.79121" lon="-0.02768">
        <ele>1820.668</ele>
        <time>2023-05-31T10:17:53Z</time>
      </trkpt>
      <trkpt lat="42.79116" lon="-0.02765">
        <ele>1822.714</ele>
        <time>2023-05-31T10:18:05Z</time>
      </trkpt>
      <trkpt lat="42.79112" lon="-0.02762">
        <ele>1823.609</ele>
        <time>2023-05-31T10:18:14Z</time>
      </trkpt>
      <trkpt lat="42.79108" lon="-0.02759">
        <ele>1825.247</ele>
        <time>2023-05-31T10:18:23Z</time>
      </trkpt>
      <trkpt lat="42.79104" lon="-0.02757">
        <ele>1827.749</ele>
        <time>2023-05-31T10:18:34Z</time>
      </trkpt>
      <trkpt lat="42.79099" lon="-0.02757">
        <ele>1829.372</ele>
        <time>2023-05-31T10:18:45Z</time>
      </trkpt>
      <trkpt lat="42.79095" lon="-0.02756">
        <ele>1830.979</ele>
        <time>2023-05-31T10:18:52Z</time>
      </trkpt>
      <trkpt lat="42.79091" lon="-0.0275">
        <ele>1833.369</ele>
        <time>2023-05-31T10:19:01Z</time>
      </trkpt>
      <trkpt lat="42.79086" lon="-0.0275">
        <ele>1835.323</ele>
        <time>2023-05-31T10:19:16Z</time>
      </trkpt>
      <trkpt lat="42.79082" lon="-0.02751">
        <ele>1836.462</ele>
        <time>2023-05-31T10:19:25Z</time>
      </trkpt>
      <trkpt lat="42.79077" lon="-0.02748">
        <ele>1837.099</ele>
        <time>2023-05-31T10:19:35Z</time>
      </trkpt>
      <trkpt lat="42.79072" lon="-0.02747">
        <ele>1837.658</ele>
        <time>2023-05-31T10:19:47Z</time>
      </trkpt>
      <trkpt lat="42.79068" lon="-0.02745">
        <ele>1838.678</ele>
        <time>2023-05-31T10:19:55Z</time>
      </trkpt>
      <trkpt lat="42.79063" lon="-0.02742">
        <ele>1841.033</ele>
        <time>2023-05-31T10:20:04Z</time>
      </trkpt>
      <trkpt lat="42.7906" lon="-0.02738">
        <ele>1843.526</ele>
        <time>2023-05-31T10:20:13Z</time>
      </trkpt>
      <trkpt lat="42.79055" lon="-0.0274">
        <ele>1844.809</ele>
        <time>2023-05-31T10:20:22Z</time>
      </trkpt>
      <trkpt lat="42.79051" lon="-0.02736">
        <ele>1846.758</ele>
        <time>2023-05-31T10:20:30Z</time>
      </trkpt>
      <trkpt lat="42.79048" lon="-0.02731">
        <ele>1848.95</ele>
        <time>2023-05-31T10:20:37Z</time>
      </trkpt>
      <trkpt lat="42.79043" lon="-0.02731">
        <ele>1850.243</ele>
        <time>2023-05-31T10:20:49Z</time>
      </trkpt>
      <trkpt lat="42.7904" lon="-0.02725">
        <ele>1851.55</ele>
        <time>2023-05-31T10:20:56Z</time>
      </trkpt>
      <trkpt lat="42.79038" lon="-0.0272">
        <ele>1853.48</ele>
        <time>2023-05-31T10:21:03Z</time>
      </trkpt>
      <trkpt lat="42.79034" lon="-0.02717">
        <ele>1854.784</ele>
        <time>2023-05-31T10:21:14Z</time>
      </trkpt>
      <trkpt lat="42.7903" lon="-0.02714">
        <ele>1854.913</ele>
        <time>2023-05-31T10:21:23Z</time>
      </trkpt>
      <trkpt lat="42.79026" lon="-0.0271">
        <ele>1856.55</ele>
        <time>2023-05-31T10:21:30Z</time>
      </trkpt>
      <trkpt lat="42.79021" lon="-0.02708">
        <ele>1858.059</ele>
        <time>2023-05-31T10:21:39Z</time>
      </trkpt>
      <trkpt lat="42.79019" lon="-0.02713">
        <ele>1859.738</ele>
        <time>2023-05-31T10:21:47Z</time>
      </trkpt>
      <trkpt lat="42.79015" lon="-0.0271">
        <ele>1861.77</ele>
        <time>2023-05-31T10:21:58Z</time>
      </trkpt>
      <trkpt lat="42.79011" lon="-0.02706">
        <ele>1863.017</ele>
        <time>2023-05-31T10:22:06Z</time>
      </trkpt>
      <trkpt lat="42.79009" lon="-0.02701">
        <ele>1865.309</ele>
        <time>2023-05-31T10:22:12Z</time>
      </trkpt>
      <trkpt lat="42.79005" lon="-0.02698">
        <ele>1866.854</ele>
        <time>2023-05-31T10:22:20Z</time>
      </trkpt>
      <trkpt lat="42.79001" lon="-0.02701">
        <ele>1867.116</ele>
        <time>2023-05-31T10:22:30Z</time>
      </trkpt>
      <trkpt lat="42.79" lon="-0.02708">
        <ele>1868.039</ele>
        <time>2023-05-31T10:22:41Z</time>
      </trkpt>
      <trkpt lat="42.78995" lon="-0.02708">
        <ele>1869.786</ele>
        <time>2023-05-31T10:22:52Z</time>
      </trkpt>
      <trkpt lat="42.78991" lon="-0.02705">
        <ele>1872.746</ele>
        <time>2023-05-31T10:23:00Z</time>
      </trkpt>
      <trkpt lat="42.78988" lon="-0.0271">
        <ele>1874.92</ele>
        <time>2023-05-31T10:23:10Z</time>
      </trkpt>
      <trkpt lat="42.78986" lon="-0.02717">
        <ele>1875.579</ele>
        <time>2023-05-31T10:23:18Z</time>
      </trkpt>
      <trkpt lat="42.78982" lon="-0.02722">
        <ele>1876.786</ele>
        <time>2023-05-31T10:23:27Z</time>
      </trkpt>
      <trkpt lat="42.78977" lon="-0.02723">
        <ele>1878.015</ele>
        <time>2023-05-31T10:23:38Z</time>
      </trkpt>
      <trkpt lat="42.78973" lon="-0.02727">
        <ele>1880.024</ele>
        <time>2023-05-31T10:23:48Z</time>
      </trkpt>
      <trkpt lat="42.78968" lon="-0.02723">
        <ele>1881.604</ele>
        <time>2023-05-31T10:24:12Z</time>
      </trkpt>
      <trkpt lat="42.78968" lon="-0.0273">
        <ele>1881.614</ele>
        <time>2023-05-31T10:30:39Z</time>
      </trkpt>
      <trkpt lat="42.78963" lon="-0.02732">
        <ele>1881.609</ele>
        <time>2023-05-31T10:30:49Z</time>
      </trkpt>
      <trkpt lat="42.7896" lon="-0.02727">
        <ele>1881.633</ele>
        <time>2023-05-31T10:31:00Z</time>
      </trkpt>
      <trkpt lat="42.78955" lon="-0.02727">
        <ele>1881.685</ele>
        <time>2023-05-31T10:31:11Z</time>
      </trkpt>
      <trkpt lat="42.7895" lon="-0.02727">
        <ele>1881.828</ele>
        <time>2023-05-31T10:31:21Z</time>
      </trkpt>
      <trkpt lat="42.78945" lon="-0.02726">
        <ele>1881.845</ele>
        <time>2023-05-31T10:31:33Z</time>
      </trkpt>
      <trkpt lat="42.78941" lon="-0.02722">
        <ele>1883.075</ele>
        <time>2023-05-31T10:31:42Z</time>
      </trkpt>
      <trkpt lat="42.78937" lon="-0.02719">
        <ele>1885.339</ele>
        <time>2023-05-31T10:31:53Z</time>
      </trkpt>
      <trkpt lat="42.78933" lon="-0.02716">
        <ele>1886.888</ele>
        <time>2023-05-31T10:32:00Z</time>
      </trkpt>
      <trkpt lat="42.78928" lon="-0.02717">
        <ele>1887.465</ele>
        <time>2023-05-31T10:32:11Z</time>
      </trkpt>
      <trkpt lat="42.78924" lon="-0.02714">
        <ele>1888.754</ele>
        <time>2023-05-31T10:32:19Z</time>
      </trkpt>
      <trkpt lat="42.78919" lon="-0.02713">
        <ele>1891.068</ele>
        <time>2023-05-31T10:32:27Z</time>
      </trkpt>
      <trkpt lat="42.78915" lon="-0.02711">
        <ele>1893.242</ele>
        <time>2023-05-31T10:32:36Z</time>
      </trkpt>
      <trkpt lat="42.7891" lon="-0.02709">
        <ele>1895.626</ele>
        <time>2023-05-31T10:32:46Z</time>
      </trkpt>
      <trkpt lat="42.78905" lon="-0.02708">
        <ele>1898.409</ele>
        <time>2023-05-31T10:32:57Z</time>
      </trkpt>
      <trkpt lat="42.789" lon="-0.02707">
        <ele>1899.467</ele>
        <time>2023-05-31T10:33:04Z</time>
      </trkpt>
      <trkpt lat="42.78895" lon="-0.02707">
        <ele>1900.159</ele>
        <time>2023-05-31T10:33:12Z</time>
      </trkpt>
      <trkpt lat="42.7889" lon="-0.02707">
        <ele>1901.412</ele>
        <time>2023-05-31T10:33:21Z</time>
      </trkpt>
      <trkpt lat="42.78885" lon="-0.02707">
        <ele>1902.489</ele>
        <time>2023-05-31T10:33:28Z</time>
      </trkpt>
      <trkpt lat="42.7888" lon="-0.02707">
        <ele>1903.449</ele>
        <time>2023-05-31T10:33:36Z</time>
      </trkpt>
      <trkpt lat="42.78876" lon="-0.02705">
        <ele>1905.113</ele>
        <time>2023-05-31T10:33:43Z</time>
      </trkpt>
      <trkpt lat="42.78871" lon="-0.02704">
        <ele>1906.622</ele>
        <time>2023-05-31T10:33:52Z</time>
      </trkpt>
      <trkpt lat="42.78867" lon="-0.02707">
        <ele>1907.949</ele>
        <time>2023-05-31T10:33:59Z</time>
      </trkpt>
      <trkpt lat="42.78863" lon="-0.02711">
        <ele>1909.528</ele>
        <time>2023-05-31T10:34:05Z</time>
      </trkpt>
      <trkpt lat="42.78859" lon="-0.02708">
        <ele>1911.048</ele>
        <time>2023-05-31T10:34:13Z</time>
      </trkpt>
      <trkpt lat="42.78854" lon="-0.02705">
        <ele>1912.461</ele>
        <time>2023-05-31T10:34:24Z</time>
      </trkpt>
      <trkpt lat="42.7885" lon="-0.02703">
        <ele>1913.217</ele>
        <time>2023-05-31T10:34:35Z</time>
      </trkpt>
      <trkpt lat="42.78848" lon="-0.02697">
        <ele>1914.909</ele>
        <time>2023-05-31T10:34:43Z</time>
      </trkpt>
      <trkpt lat="42.78844" lon="-0.02694">
        <ele>1916.845</ele>
        <time>2023-05-31T10:34:53Z</time>
      </trkpt>
      <trkpt lat="42.78839" lon="-0.02695">
        <ele>1917.777</ele>
        <time>2023-05-31T10:35:03Z</time>
      </trkpt>
      <trkpt lat="42.78834" lon="-0.02695">
        <ele>1918.93</ele>
        <time>2023-05-31T10:35:11Z</time>
      </trkpt>
      <trkpt lat="42.78829" lon="-0.02698">
        <ele>1920.847</ele>
        <time>2023-05-31T10:35:19Z</time>
      </trkpt>
      <trkpt lat="42.78825" lon="-0.02696">
        <ele>1922.737</ele>
        <time>2023-05-31T10:35:28Z</time>
      </trkpt>
      <trkpt lat="42.78821" lon="-0.02693">
        <ele>1924.591</ele>
        <time>2023-05-31T10:35:36Z</time>
      </trkpt>
      <trkpt lat="42.78818" lon="-0.02687">
        <ele>1925.88</ele>
        <time>2023-05-31T10:35:44Z</time>
      </trkpt>
      <trkpt lat="42.78814" lon="-0.02687">
        <ele>1926.467</ele>
        <time>2023-05-31T10:36:01Z</time>
      </trkpt>
      <trkpt lat="42.78809" lon="-0.02685">
        <ele>1927.116</ele>
        <time>2023-05-31T10:36:11Z</time>
      </trkpt>
      <trkpt lat="42.78805" lon="-0.02683">
        <ele>1928.222</ele>
        <time>2023-05-31T10:36:18Z</time>
      </trkpt>
      <trkpt lat="42.788" lon="-0.02681">
        <ele>1929.362</ele>
        <time>2023-05-31T10:36:28Z</time>
      </trkpt>
      <trkpt lat="42.78796" lon="-0.02679">
        <ele>1930.908</ele>
        <time>2023-05-31T10:36:40Z</time>
      </trkpt>
      <trkpt lat="42.78792" lon="-0.02676">
        <ele>1932.509</ele>
        <time>2023-05-31T10:36:51Z</time>
      </trkpt>
      <trkpt lat="42.78787" lon="-0.0268">
        <ele>1935.043</ele>
        <time>2023-05-31T10:37:04Z</time>
      </trkpt>
      <trkpt lat="42.78784" lon="-0.02685">
        <ele>1937.845</ele>
        <time>2023-05-31T10:37:12Z</time>
      </trkpt>
      <trkpt lat="42.78781" lon="-0.0269">
        <ele>1940.718</ele>
        <time>2023-05-31T10:37:20Z</time>
      </trkpt>
      <trkpt lat="42.78778" lon="-0.02695">
        <ele>1943.635</ele>
        <time>2023-05-31T10:37:28Z</time>
      </trkpt>
      <trkpt lat="42.78775" lon="-0.02701">
        <ele>1944.415</ele>
        <time>2023-05-31T10:37:36Z</time>
      </trkpt>
      <trkpt lat="42.78771" lon="-0.02705">
        <ele>1945.149</ele>
        <time>2023-05-31T10:37:44Z</time>
      </trkpt>
      <trkpt lat="42.78768" lon="-0.02711">
        <ele>1946.048</ele>
        <time>2023-05-31T10:37:51Z</time>
      </trkpt>
      <trkpt lat="42.78764" lon="-0.02716">
        <ele>1947.015</ele>
        <time>2023-05-31T10:37:58Z</time>
      </trkpt>
      <trkpt lat="42.78761" lon="-0.02722">
        <ele>1947.954</ele>
        <time>2023-05-31T10:38:06Z</time>
      </trkpt>
      <trkpt lat="42.78757" lon="-0.02725">
        <ele>1948.154</ele>
        <time>2023-05-31T10:38:13Z</time>
      </trkpt>
      <trkpt lat="42.78752" lon="-0.02725">
        <ele>1948.656</ele>
        <time>2023-05-31T10:38:22Z</time>
      </trkpt>
      <trkpt lat="42.78747" lon="-0.02728">
        <ele>1949.811</ele>
        <time>2023-05-31T10:38:30Z</time>
      </trkpt>
      <trkpt lat="42.78743" lon="-0.02731">
        <ele>1951.009</ele>
        <time>2023-05-31T10:38:37Z</time>
      </trkpt>
      <trkpt lat="42.78739" lon="-0.02734">
        <ele>1952.076</ele>
        <time>2023-05-31T10:38:45Z</time>
      </trkpt>
      <trkpt lat="42.78734" lon="-0.02737">
        <ele>1953.418</ele>
        <time>2023-05-31T10:38:54Z</time>
      </trkpt>
      <trkpt lat="42.7873" lon="-0.02741">
        <ele>1954.971</ele>
        <time>2023-05-31T10:39:06Z</time>
      </trkpt>
      <trkpt lat="42.78728" lon="-0.02747">
        <ele>1956.488</ele>
        <time>2023-05-31T10:39:16Z</time>
      </trkpt>
      <trkpt lat="42.78724" lon="-0.02743">
        <ele>1958.518</ele>
        <time>2023-05-31T10:39:25Z</time>
      </trkpt>
      <trkpt lat="42.78719" lon="-0.02745">
        <ele>1960.272</ele>
        <time>2023-05-31T10:39:34Z</time>
      </trkpt>
      <trkpt lat="42.78714" lon="-0.02746">
        <ele>1961.181</ele>
        <time>2023-05-31T10:39:46Z</time>
      </trkpt>
      <trkpt lat="42.7871" lon="-0.02748">
        <ele>1962.038</ele>
        <time>2023-05-31T10:40:06Z</time>
      </trkpt>
      <trkpt lat="42.78706" lon="-0.02752">
        <ele>1963.637</ele>
        <time>2023-05-31T10:40:15Z</time>
      </trkpt>
      <trkpt lat="42.78702" lon="-0.02748">
        <ele>1965.959</ele>
        <time>2023-05-31T10:40:23Z</time>
      </trkpt>
      <trkpt lat="42.78697" lon="-0.02747">
        <ele>1967.403</ele>
        <time>2023-05-31T10:40:32Z</time>
      </trkpt>
      <trkpt lat="42.78693" lon="-0.02749">
        <ele>1968.023</ele>
        <time>2023-05-31T10:40:41Z</time>
      </trkpt>
      <trkpt lat="42.78688" lon="-0.02751">
        <ele>1969.709</ele>
        <time>2023-05-31T10:40:50Z</time>
      </trkpt>
      <trkpt lat="42.78683" lon="-0.02752">
        <ele>1971.436</ele>
        <time>2023-05-31T10:40:59Z</time>
      </trkpt>
      <trkpt lat="42.78681" lon="-0.02758">
        <ele>1972.548</ele>
        <time>2023-05-31T10:41:06Z</time>
      </trkpt>
      <trkpt lat="42.78678" lon="-0.02764">
        <ele>1973.491</ele>
        <time>2023-05-31T10:41:22Z</time>
      </trkpt>
      <trkpt lat="42.78674" lon="-0.02769">
        <ele>1974.128</ele>
        <time>2023-05-31T10:41:29Z</time>
      </trkpt>
      <trkpt lat="42.7867" lon="-0.02766">
        <ele>1975.258</ele>
        <time>2023-05-31T10:41:38Z</time>
      </trkpt>
      <trkpt lat="42.78665" lon="-0.02767">
        <ele>1976.212</ele>
        <time>2023-05-31T10:41:46Z</time>
      </trkpt>
      <trkpt lat="42.7866" lon="-0.0277">
        <ele>1977.011</ele>
        <time>2023-05-31T10:41:55Z</time>
      </trkpt>
      <trkpt lat="42.78656" lon="-0.02771">
        <ele>1977.998</ele>
        <time>2023-05-31T10:42:01Z</time>
      </trkpt>
      <trkpt lat="42.78651" lon="-0.02771">
        <ele>1979.187</ele>
        <time>2023-05-31T10:42:09Z</time>
      </trkpt>
      <trkpt lat="42.78647" lon="-0.02774">
        <ele>1980.138</ele>
        <time>2023-05-31T10:42:16Z</time>
      </trkpt>
      <trkpt lat="42.78641" lon="-0.02772">
        <ele>1980.77</ele>
        <time>2023-05-31T10:42:26Z</time>
      </trkpt>
      <trkpt lat="42.78636" lon="-0.02773">
        <ele>1981.517</ele>
        <time>2023-05-31T10:42:37Z</time>
      </trkpt>
      <trkpt lat="42.78631" lon="-0.02776">
        <ele>1982.309</ele>
        <time>2023-05-31T10:42:46Z</time>
      </trkpt>
      <trkpt lat="42.78627" lon="-0.0278">
        <ele>1984.444</ele>
        <time>2023-05-31T10:42:56Z</time>
      </trkpt>
      <trkpt lat="42.78623" lon="-0.02779">
        <ele>1986.626</ele>
        <time>2023-05-31T10:43:07Z</time>
      </trkpt>
      <trkpt lat="42.78619" lon="-0.02782">
        <ele>1988.889</ele>
        <time>2023-05-31T10:43:14Z</time>
      </trkpt>
      <trkpt lat="42.78615" lon="-0.02787">
        <ele>1991.036</ele>
        <time>2023-05-31T10:43:23Z</time>
      </trkpt>
      <trkpt lat="42.78611" lon="-0.0279">
        <ele>1992.086</ele>
        <time>2023-05-31T10:43:37Z</time>
      </trkpt>
      <trkpt lat="42.78608" lon="-0.02786">
        <ele>1993.65</ele>
        <time>2023-05-31T10:43:47Z</time>
      </trkpt>
      <trkpt lat="42.78603" lon="-0.02788">
        <ele>1995.989</ele>
        <time>2023-05-31T10:43:56Z</time>
      </trkpt>
      <trkpt lat="42.78602" lon="-0.02782">
        <ele>1997.326</ele>
        <time>2023-05-31T10:44:04Z</time>
      </trkpt>
      <trkpt lat="42.78601" lon="-0.02775">
        <ele>1998.215</ele>
        <time>2023-05-31T10:44:12Z</time>
      </trkpt>
      <trkpt lat="42.78597" lon="-0.02773">
        <ele>1998.945</ele>
        <time>2023-05-31T10:48:07Z</time>
      </trkpt>
      <trkpt lat="42.78592" lon="-0.02773">
        <ele>1999.547</ele>
        <time>2023-05-31T10:57:44Z</time>
      </trkpt>
      <trkpt lat="42.78588" lon="-0.02771">
        <ele>2001.911</ele>
        <time>2023-05-31T10:57:52Z</time>
      </trkpt>
      <trkpt lat="42.78583" lon="-0.02774">
        <ele>2003.809</ele>
        <time>2023-05-31T10:58:00Z</time>
      </trkpt>
      <trkpt lat="42.7858" lon="-0.02769">
        <ele>2004.435</ele>
        <time>2023-05-31T10:58:09Z</time>
      </trkpt>
      <trkpt lat="42.78575" lon="-0.02767">
        <ele>2005.727</ele>
        <time>2023-05-31T10:58:18Z</time>
      </trkpt>
      <trkpt lat="42.7857" lon="-0.02765">
        <ele>2007.25</ele>
        <time>2023-05-31T10:58:28Z</time>
      </trkpt>
      <trkpt lat="42.78565" lon="-0.02763">
        <ele>2009.277</ele>
        <time>2023-05-31T10:58:37Z</time>
      </trkpt>
      <trkpt lat="42.78563" lon="-0.02757">
        <ele>2011.047</ele>
        <time>2023-05-31T10:58:44Z</time>
      </trkpt>
      <trkpt lat="42.78558" lon="-0.02756">
        <ele>2012.281</ele>
        <time>2023-05-31T10:58:54Z</time>
      </trkpt>
      <trkpt lat="42.78553" lon="-0.02753">
        <ele>2013.01</ele>
        <time>2023-05-31T10:59:02Z</time>
      </trkpt>
      <trkpt lat="42.78552" lon="-0.02747">
        <ele>2013.337</ele>
        <time>2023-05-31T10:59:13Z</time>
      </trkpt>
      <trkpt lat="42.78551" lon="-0.02741">
        <ele>2014.296</ele>
        <time>2023-05-31T10:59:21Z</time>
      </trkpt>
      <trkpt lat="42.78554" lon="-0.02735">
        <ele>2016.325</ele>
        <time>2023-05-31T10:59:30Z</time>
      </trkpt>
      <trkpt lat="42.78555" lon="-0.02729">
        <ele>2018.926</ele>
        <time>2023-05-31T10:59:39Z</time>
      </trkpt>
      <trkpt lat="42.78553" lon="-0.02723">
        <ele>2020.308</ele>
        <time>2023-05-31T10:59:50Z</time>
      </trkpt>
      <trkpt lat="42.78551" lon="-0.02717">
        <ele>2020.609</ele>
        <time>2023-05-31T10:59:58Z</time>
      </trkpt>
      <trkpt lat="42.7855" lon="-0.02711">
        <ele>2021.943</ele>
        <time>2023-05-31T11:00:06Z</time>
      </trkpt>
      <trkpt lat="42.78547" lon="-0.02706">
        <ele>2023.965</ele>
        <time>2023-05-31T11:00:15Z</time>
      </trkpt>
      <trkpt lat="42.78542" lon="-0.02705">
        <ele>2025.078</ele>
        <time>2023-05-31T11:00:24Z</time>
      </trkpt>
      <trkpt lat="42.78538" lon="-0.02703">
        <ele>2025.745</ele>
        <time>2023-05-31T11:00:34Z</time>
      </trkpt>
      <trkpt lat="42.78534" lon="-0.02704">
        <ele>2026.725</ele>
        <time>2023-05-31T11:00:42Z</time>
      </trkpt>
      <trkpt lat="42.78529" lon="-0.02704">
        <ele>2028.069</ele>
        <time>2023-05-31T11:00:51Z</time>
      </trkpt>
      <trkpt lat="42.78524" lon="-0.02705">
        <ele>2029.978</ele>
        <time>2023-05-31T11:00:59Z</time>
      </trkpt>
      <trkpt lat="42.78518" lon="-0.02705">
        <ele>2032.115</ele>
        <time>2023-05-31T11:01:13Z</time>
      </trkpt>
      <trkpt lat="42.78513" lon="-0.02705">
        <ele>2033.484</ele>
        <time>2023-05-31T11:01:21Z</time>
      </trkpt>
      <trkpt lat="42.78509" lon="-0.02704">
        <ele>2034.622</ele>
        <time>2023-05-31T11:01:30Z</time>
      </trkpt>
      <trkpt lat="42.78504" lon="-0.02705">
        <ele>2035.962</ele>
        <time>2023-05-31T11:01:37Z</time>
      </trkpt>
      <trkpt lat="42.78498" lon="-0.02706">
        <ele>2036.708</ele>
        <time>2023-05-31T11:01:44Z</time>
      </trkpt>
      <trkpt lat="42.78493" lon="-0.02706">
        <ele>2037.009</ele>
        <time>2023-05-31T11:01:50Z</time>
      </trkpt>
      <trkpt lat="42.78488" lon="-0.02706">
        <ele>2038.363</ele>
        <time>2023-05-31T11:01:58Z</time>
      </trkpt>
      <trkpt lat="42.78483" lon="-0.02706">
        <ele>2040.165</ele>
        <time>2023-05-31T11:02:05Z</time>
      </trkpt>
      <trkpt lat="42.78478" lon="-0.02706">
        <ele>2040.738</ele>
        <time>2023-05-31T11:02:11Z</time>
      </trkpt>
      <trkpt lat="42.78474" lon="-0.02702">
        <ele>2040.725</ele>
        <time>2023-05-31T11:02:16Z</time>
      </trkpt>
      <trkpt lat="42.78469" lon="-0.02705">
        <ele>2040.765</ele>
        <time>2023-05-31T11:02:23Z</time>
      </trkpt>
      <trkpt lat="42.78464" lon="-0.02704">
        <ele>2041.119</ele>
        <time>2023-05-31T11:02:31Z</time>
      </trkpt>
      <trkpt lat="42.7846" lon="-0.02706">
        <ele>2041.668</ele>
        <time>2023-05-31T11:02:41Z</time>
      </trkpt>
      <trkpt lat="42.78456" lon="-0.02702">
        <ele>2042.595</ele>
        <time>2023-05-31T11:02:53Z</time>
      </trkpt>
      <trkpt lat="42.78453" lon="-0.02696">
        <ele>2043.694</ele>
        <time>2023-05-31T11:03:01Z</time>
      </trkpt>
      <trkpt lat="42.78452" lon="-0.02689">
        <ele>2044.568</ele>
        <time>2023-05-31T11:03:08Z</time>
      </trkpt>
      <trkpt lat="42.78453" lon="-0.02682">
        <ele>2045.742</ele>
        <time>2023-05-31T11:03:17Z</time>
      </trkpt>
      <trkpt lat="42.78455" lon="-0.02676">
        <ele>2047.026</ele>
        <time>2023-05-31T11:03:30Z</time>
      </trkpt>
      <trkpt lat="42.78456" lon="-0.0267">
        <ele>2047.909</ele>
        <time>2023-05-31T11:03:38Z</time>
      </trkpt>
      <trkpt lat="42.78459" lon="-0.02665">
        <ele>2049.377</ele>
        <time>2023-05-31T11:03:47Z</time>
      </trkpt>
      <trkpt lat="42.78462" lon="-0.0266">
        <ele>2051.569</ele>
        <time>2023-05-31T11:03:53Z</time>
      </trkpt>
      <trkpt lat="42.78466" lon="-0.02655">
        <ele>2053.532</ele>
        <time>2023-05-31T11:04:04Z</time>
      </trkpt>
      <trkpt lat="42.78467" lon="-0.02649">
        <ele>2054.749</ele>
        <time>2023-05-31T11:04:13Z</time>
      </trkpt>
      <trkpt lat="42.78469" lon="-0.02643">
        <ele>2055.389</ele>
        <time>2023-05-31T11:04:22Z</time>
      </trkpt>
      <trkpt lat="42.78474" lon="-0.02638">
        <ele>2057.253</ele>
        <time>2023-05-31T11:04:30Z</time>
      </trkpt>
      <trkpt lat="42.78477" lon="-0.02634">
        <ele>2058.772</ele>
        <time>2023-05-31T11:04:39Z</time>
      </trkpt>
      <trkpt lat="42.78479" lon="-0.02627">
        <ele>2058.819</ele>
        <time>2023-05-31T11:04:48Z</time>
      </trkpt>
      <trkpt lat="42.78474" lon="-0.02626">
        <ele>2059.248</ele>
        <time>2023-05-31T11:05:00Z</time>
      </trkpt>
      <trkpt lat="42.7847" lon="-0.02626">
        <ele>2059.958</ele>
        <time>2023-05-31T11:05:08Z</time>
      </trkpt>
      <trkpt lat="42.78465" lon="-0.02626">
        <ele>2061.852</ele>
        <time>2023-05-31T11:05:15Z</time>
      </trkpt>
      <trkpt lat="42.7846" lon="-0.02625">
        <ele>2063.817</ele>
        <time>2023-05-31T11:05:31Z</time>
      </trkpt>
      <trkpt lat="42.78455" lon="-0.02624">
        <ele>2064.709</ele>
        <time>2023-05-31T11:05:41Z</time>
      </trkpt>
      <trkpt lat="42.7845" lon="-0.02623">
        <ele>2066.966</ele>
        <time>2023-05-31T11:05:51Z</time>
      </trkpt>
      <trkpt lat="42.78451" lon="-0.02616">
        <ele>2069.678</ele>
        <time>2023-05-31T11:06:01Z</time>
      </trkpt>
      <trkpt lat="42.78454" lon="-0.02611">
        <ele>2070.611</ele>
        <time>2023-05-31T11:06:10Z</time>
      </trkpt>
      <trkpt lat="42.78456" lon="-0.02605">
        <ele>2071.868</ele>
        <time>2023-05-31T11:06:23Z</time>
      </trkpt>
      <trkpt lat="42.78454" lon="-0.02599">
        <ele>2073.268</ele>
        <time>2023-05-31T11:06:46Z</time>
      </trkpt>
      <trkpt lat="42.78459" lon="-0.02595">
        <ele>2075.832</ele>
        <time>2023-05-31T11:06:55Z</time>
      </trkpt>
      <trkpt lat="42.7846" lon="-0.02588">
        <ele>2079.151</ele>
        <time>2023-05-31T11:07:11Z</time>
      </trkpt>
      <trkpt lat="42.78457" lon="-0.02583">
        <ele>2080.558</ele>
        <time>2023-05-31T11:07:30Z</time>
      </trkpt>
      <trkpt lat="42.78453" lon="-0.02586">
        <ele>2081.567</ele>
        <time>2023-05-31T11:07:39Z</time>
      </trkpt>
      <trkpt lat="42.78449" lon="-0.02582">
        <ele>2083.773</ele>
        <time>2023-05-31T11:07:52Z</time>
      </trkpt>
      <trkpt lat="42.78444" lon="-0.02582">
        <ele>2086.085</ele>
        <time>2023-05-31T11:08:01Z</time>
      </trkpt>
      <trkpt lat="42.78445" lon="-0.02576">
        <ele>2087.813</ele>
        <time>2023-05-31T11:08:11Z</time>
      </trkpt>
      <trkpt lat="42.7844" lon="-0.02576">
        <ele>2089.309</ele>
        <time>2023-05-31T11:08:27Z</time>
      </trkpt>
      <trkpt lat="42.78441" lon="-0.02569">
        <ele>2090.488</ele>
        <time>2023-05-31T11:08:37Z</time>
      </trkpt>
      <trkpt lat="42.78436" lon="-0.02568">
        <ele>2092.43</ele>
        <time>2023-05-31T11:09:00Z</time>
      </trkpt>
      <trkpt lat="42.78432" lon="-0.02571">
        <ele>2094.963</ele>
        <time>2023-05-31T11:09:07Z</time>
      </trkpt>
      <trkpt lat="42.78429" lon="-0.02566">
        <ele>2097.22</ele>
        <time>2023-05-31T11:09:21Z</time>
      </trkpt>
      <trkpt lat="42.78425" lon="-0.02569">
        <ele>2098.88</ele>
        <time>2023-05-31T11:09:31Z</time>
      </trkpt>
      <trkpt lat="42.78424" lon="-0.02563">
        <ele>2101.024</ele>
        <time>2023-05-31T11:09:39Z</time>
      </trkpt>
      <trkpt lat="42.78425" lon="-0.02556">
        <ele>2103.133</ele>
        <time>2023-05-31T11:09:48Z</time>
      </trkpt>
      <trkpt lat="42.7842" lon="-0.02556">
        <ele>2103.87</ele>
        <time>2023-05-31T11:10:07Z</time>
      </trkpt>
      <trkpt lat="42.78417" lon="-0.02552">
        <ele>2103.999</ele>
        <time>2023-05-31T11:10:17Z</time>
      </trkpt>
      <trkpt lat="42.78412" lon="-0.02549">
        <ele>2106.718</ele>
        <time>2023-05-31T11:10:25Z</time>
      </trkpt>
      <trkpt lat="42.78416" lon="-0.02545">
        <ele>2110.198</ele>
        <time>2023-05-31T11:10:31Z</time>
      </trkpt>
      <trkpt lat="42.78417" lon="-0.02538">
        <ele>2111.017</ele>
        <time>2023-05-31T11:10:48Z</time>
      </trkpt>
      <trkpt lat="42.78417" lon="-0.02532">
        <ele>2111.709</ele>
        <time>2023-05-31T11:11:03Z</time>
      </trkpt>
      <trkpt lat="42.78415" lon="-0.02526">
        <ele>2113.472</ele>
        <time>2023-05-31T11:11:23Z</time>
      </trkpt>
      <trkpt lat="42.7841" lon="-0.02524">
        <ele>2116.564</ele>
        <time>2023-05-31T11:11:38Z</time>
      </trkpt>
      <trkpt lat="42.78406" lon="-0.02521">
        <ele>2120.247</ele>
        <time>2023-05-31T11:11:50Z</time>
      </trkpt>
      <trkpt lat="42.78401" lon="-0.0252">
        <ele>2124.014</ele>
        <time>2023-05-31T11:12:02Z</time>
      </trkpt>
      <trkpt lat="42.78396" lon="-0.02519">
        <ele>2125.964</ele>
        <time>2023-05-31T11:12:17Z</time>
      </trkpt>
      <trkpt lat="42.78393" lon="-0.02513">
        <ele>2127.438</ele>
        <time>2023-05-31T11:12:24Z</time>
      </trkpt>
      <trkpt lat="42.78389" lon="-0.02514">
        <ele>2129.937</ele>
        <time>2023-05-31T11:12:38Z</time>
      </trkpt>
      <trkpt lat="42.78384" lon="-0.0251">
        <ele>2131.124</ele>
        <time>2023-05-31T11:12:53Z</time>
      </trkpt>
      <trkpt lat="42.7838" lon="-0.02507">
        <ele>2133.393</ele>
        <time>2023-05-31T11:13:05Z</time>
      </trkpt>
      <trkpt lat="42.78376" lon="-0.02503">
        <ele>2136.062</ele>
        <time>2023-05-31T11:13:17Z</time>
      </trkpt>
      <trkpt lat="42.78376" lon="-0.02496">
        <ele>2137.783</ele>
        <time>2023-05-31T11:13:28Z</time>
      </trkpt>
      <trkpt lat="42.78378" lon="-0.0249">
        <ele>2140.111</ele>
        <time>2023-05-31T11:13:45Z</time>
      </trkpt>
      <trkpt lat="42.78382" lon="-0.02485">
        <ele>2142.109</ele>
        <time>2023-05-31T11:13:54Z</time>
      </trkpt>
      <trkpt lat="42.78384" lon="-0.02479">
        <ele>2144.867</ele>
        <time>2023-05-31T11:14:10Z</time>
      </trkpt>
      <trkpt lat="42.78387" lon="-0.02474">
        <ele>2147.879</ele>
        <time>2023-05-31T11:14:18Z</time>
      </trkpt>
      <trkpt lat="42.7839" lon="-0.02468">
        <ele>2149.962</ele>
        <time>2023-05-31T11:14:33Z</time>
      </trkpt>
      <trkpt lat="42.7839" lon="-0.02461">
        <ele>2151.829</ele>
        <time>2023-05-31T11:14:49Z</time>
      </trkpt>
      <trkpt lat="42.78392" lon="-0.02456">
        <ele>2152.949</ele>
        <time>2023-05-31T11:15:02Z</time>
      </trkpt>
      <trkpt lat="42.78396" lon="-0.02452">
        <ele>2154.313</ele>
        <time>2023-05-31T11:15:09Z</time>
      </trkpt>
      <trkpt lat="42.78399" lon="-0.02447">
        <ele>2157.662</ele>
        <time>2023-05-31T11:15:23Z</time>
      </trkpt>
      <trkpt lat="42.78402" lon="-0.02441">
        <ele>2159.999</ele>
        <time>2023-05-31T11:15:37Z</time>
      </trkpt>
      <trkpt lat="42.78405" lon="-0.02436">
        <ele>2161.338</ele>
        <time>2023-05-31T11:15:54Z</time>
      </trkpt>
      <trkpt lat="42.7841" lon="-0.02435">
        <ele>2163.542</ele>
        <time>2023-05-31T11:16:01Z</time>
      </trkpt>
      <trkpt lat="42.78413" lon="-0.02431">
        <ele>2165.722</ele>
        <time>2023-05-31T11:16:10Z</time>
      </trkpt>
      <trkpt lat="42.78418" lon="-0.02431">
        <ele>2167.414</ele>
        <time>2023-05-31T11:16:16Z</time>
      </trkpt>
      <trkpt lat="42.78413" lon="-0.02428">
        <ele>2167.909</ele>
        <time>2023-05-31T11:17:04Z</time>
      </trkpt>
      <trkpt lat="42.78409" lon="-0.02424">
        <ele>2168.755</ele>
        <time>2023-05-31T11:23:47Z</time>
      </trkpt>
      <trkpt lat="42.78404" lon="-0.02423">
        <ele>2171.847</ele>
        <time>2023-05-31T11:23:53Z</time>
      </trkpt>
      <trkpt lat="42.78399" lon="-0.02423">
        <ele>2174.65</ele>
        <time>2023-05-31T11:24:00Z</time>
      </trkpt>
      <trkpt lat="42.78393" lon="-0.02422">
        <ele>2175.257</ele>
        <time>2023-05-31T11:24:09Z</time>
      </trkpt>
      <trkpt lat="42.78389" lon="-0.02422">
        <ele>2176.347</ele>
        <time>2023-05-31T11:24:19Z</time>
      </trkpt>
      <trkpt lat="42.78384" lon="-0.02423">
        <ele>2177.511</ele>
        <time>2023-05-31T11:24:27Z</time>
      </trkpt>
      <trkpt lat="42.78379" lon="-0.02423">
        <ele>2178.42</ele>
        <time>2023-05-31T11:24:38Z</time>
      </trkpt>
      <trkpt lat="42.78375" lon="-0.02421">
        <ele>2179.067</ele>
        <time>2023-05-31T11:24:49Z</time>
      </trkpt>
      <trkpt lat="42.78369" lon="-0.02423">
        <ele>2180.566</ele>
        <time>2023-05-31T11:25:01Z</time>
      </trkpt>
      <trkpt lat="42.78364" lon="-0.02423">
        <ele>2182.056</ele>
        <time>2023-05-31T11:25:11Z</time>
      </trkpt>
      <trkpt lat="42.7836" lon="-0.02425">
        <ele>2183.759</ele>
        <time>2023-05-31T11:25:21Z</time>
      </trkpt>
      <trkpt lat="42.78356" lon="-0.02426">
        <ele>2186.114</ele>
        <time>2023-05-31T11:25:33Z</time>
      </trkpt>
      <trkpt lat="42.78351" lon="-0.02429">
        <ele>2188.509</ele>
        <time>2023-05-31T11:25:40Z</time>
      </trkpt>
      <trkpt lat="42.78347" lon="-0.02431">
        <ele>2190.536</ele>
        <time>2023-05-31T11:25:52Z</time>
      </trkpt>
      <trkpt lat="42.78342" lon="-0.02432">
        <ele>2191.028</ele>
        <time>2023-05-31T11:26:05Z</time>
      </trkpt>
      <trkpt lat="42.78337" lon="-0.02432">
        <ele>2192.171</ele>
        <time>2023-05-31T11:26:16Z</time>
      </trkpt>
      <trkpt lat="42.78334" lon="-0.02436">
        <ele>2194.018</ele>
        <time>2023-05-31T11:26:27Z</time>
      </trkpt>
      <trkpt lat="42.7833" lon="-0.0244">
        <ele>2196.648</ele>
        <time>2023-05-31T11:26:36Z</time>
      </trkpt>
      <trkpt lat="42.78325" lon="-0.02441">
        <ele>2199.792</ele>
        <time>2023-05-31T11:26:47Z</time>
      </trkpt>
      <trkpt lat="42.7832" lon="-0.02443">
        <ele>2201.971</ele>
        <time>2023-05-31T11:26:59Z</time>
      </trkpt>
      <trkpt lat="42.78316" lon="-0.02447">
        <ele>2203.158</ele>
        <time>2023-05-31T11:27:15Z</time>
      </trkpt>
      <trkpt lat="42.78312" lon="-0.02452">
        <ele>2204.757</ele>
        <time>2023-05-31T11:27:26Z</time>
      </trkpt>
      <trkpt lat="42.78309" lon="-0.02455">
        <ele>2207.417</ele>
        <time>2023-05-31T11:27:39Z</time>
      </trkpt>
      <trkpt lat="42.78304" lon="-0.02458">
        <ele>2209.687</ele>
        <time>2023-05-31T11:27:51Z</time>
      </trkpt>
      <trkpt lat="42.783" lon="-0.02459">
        <ele>2211.415</ele>
        <time>2023-05-31T11:28:16Z</time>
      </trkpt>
      <trkpt lat="42.78296" lon="-0.02462">
        <ele>2213.709</ele>
        <time>2023-05-31T11:43:16Z</time>
      </trkpt>
      <trkpt lat="42.78291" lon="-0.02464">
        <ele>2214.762</ele>
        <time>2023-05-31T11:44:07Z</time>
      </trkpt>
      <trkpt lat="42.78288" lon="-0.02459">
        <ele>2214.734</ele>
        <time>2023-05-31T11:44:58Z</time>
      </trkpt>
      <trkpt lat="42.78293" lon="-0.02461">
        <ele>2214.797</ele>
        <time>2023-05-31T11:46:38Z</time>
      </trkpt>
      <trkpt lat="42.78296" lon="-0.02466">
        <ele>2214.764</ele>
        <time>2023-05-31T11:53:21Z</time>
      </trkpt>
      <trkpt lat="42.78294" lon="-0.02461">
        <ele>2214.784</ele>
        <time>2023-05-31T11:54:43Z</time>
      </trkpt>
      <trkpt lat="42.78297" lon="-0.02457">
        <ele>2215.458</ele>
        <time>2023-05-31T11:55:55Z</time>
      </trkpt>
      <trkpt lat="42.78302" lon="-0.02459">
        <ele>2216.237</ele>
        <time>2023-05-31T11:57:18Z</time>
      </trkpt>
      <trkpt lat="42.78305" lon="-0.02454">
        <ele>2216.224</ele>
        <time>2023-05-31T11:58:59Z</time>
      </trkpt>
      <trkpt lat="42.78309" lon="-0.02453">
        <ele>2216.223</ele>
        <time>2023-05-31T11:59:16Z</time>
      </trkpt>
      <trkpt lat="42.78312" lon="-0.02447">
        <ele>2215.444</ele>
        <time>2023-05-31T11:59:32Z</time>
      </trkpt>
      <trkpt lat="42.78315" lon="-0.02442">
        <ele>2214.405</ele>
        <time>2023-05-31T11:59:51Z</time>
      </trkpt>
      <trkpt lat="42.78319" lon="-0.02438">
        <ele>2213.215</ele>
        <time>2023-05-31T12:00:04Z</time>
      </trkpt>
      <trkpt lat="42.78323" lon="-0.02438">
        <ele>2211.809</ele>
        <time>2023-05-31T12:00:14Z</time>
      </trkpt>
      <trkpt lat="42.78328" lon="-0.02437">
        <ele>2209.765</ele>
        <time>2023-05-31T12:00:25Z</time>
      </trkpt>
      <trkpt lat="42.78332" lon="-0.02434">
        <ele>2207.777</ele>
        <time>2023-05-31T12:00:36Z</time>
      </trkpt>
      <trkpt lat="42.78337" lon="-0.0243">
        <ele>2205.79</ele>
        <time>2023-05-31T12:00:46Z</time>
      </trkpt>
      <trkpt lat="42.78341" lon="-0.02431">
        <ele>2203.257</ele>
        <time>2023-05-31T12:00:55Z</time>
      </trkpt>
      <trkpt lat="42.78346" lon="-0.0243">
        <ele>2201.457</ele>
        <time>2023-05-31T12:01:04Z</time>
      </trkpt>
      <trkpt lat="42.7835" lon="-0.02428">
        <ele>2200.341</ele>
        <time>2023-05-31T12:01:12Z</time>
      </trkpt>
      <trkpt lat="42.78355" lon="-0.02427">
        <ele>2199.05</ele>
        <time>2023-05-31T12:01:24Z</time>
      </trkpt>
      <trkpt lat="42.7836" lon="-0.02427">
        <ele>2196.897</ele>
        <time>2023-05-31T12:01:34Z</time>
      </trkpt>
      <trkpt lat="42.78364" lon="-0.02426">
        <ele>2194.946</ele>
        <time>2023-05-31T12:01:42Z</time>
      </trkpt>
      <trkpt lat="42.78369" lon="-0.02424">
        <ele>2192.272</ele>
        <time>2023-05-31T12:01:51Z</time>
      </trkpt>
      <trkpt lat="42.78374" lon="-0.02424">
        <ele>2190.213</ele>
        <time>2023-05-31T12:01:58Z</time>
      </trkpt>
      <trkpt lat="42.78378" lon="-0.02424">
        <ele>2189.114</ele>
        <time>2023-05-31T12:02:08Z</time>
      </trkpt>
      <trkpt lat="42.78384" lon="-0.02422">
        <ele>2187.709</ele>
        <time>2023-05-31T12:02:23Z</time>
      </trkpt>
      <trkpt lat="42.78388" lon="-0.02421">
        <ele>2185.098</ele>
        <time>2023-05-31T12:02:30Z</time>
      </trkpt>
      <trkpt lat="42.78393" lon="-0.02421">
        <ele>2181.54</ele>
        <time>2023-05-31T12:02:38Z</time>
      </trkpt>
      <trkpt lat="42.78398" lon="-0.02421">
        <ele>2179.423</ele>
        <time>2023-05-31T12:02:46Z</time>
      </trkpt>
      <trkpt lat="42.78403" lon="-0.02423">
        <ele>2177.42</ele>
        <time>2023-05-31T12:02:54Z</time>
      </trkpt>
      <trkpt lat="42.78407" lon="-0.02427">
        <ele>2176.36</ele>
        <time>2023-05-31T12:03:23Z</time>
      </trkpt>
      <trkpt lat="42.78404" lon="-0.02433">
        <ele>2175.874</ele>
        <time>2023-05-31T12:03:38Z</time>
      </trkpt>
      <trkpt lat="42.78403" lon="-0.02439">
        <ele>2174.023</ele>
        <time>2023-05-31T12:03:59Z</time>
      </trkpt>
      <trkpt lat="42.78401" lon="-0.02444">
        <ele>2170.63</ele>
        <time>2023-05-31T12:04:08Z</time>
      </trkpt>
      <trkpt lat="42.78397" lon="-0.02448">
        <ele>2167.829</ele>
        <time>2023-05-31T12:04:20Z</time>
      </trkpt>
      <trkpt lat="42.78396" lon="-0.02454">
        <ele>2165.815</ele>
        <time>2023-05-31T12:04:32Z</time>
      </trkpt>
      <trkpt lat="42.78394" lon="-0.0246">
        <ele>2163.965</ele>
        <time>2023-05-31T12:04:47Z</time>
      </trkpt>
      <trkpt lat="42.78394" lon="-0.02466">
        <ele>2162.111</ele>
        <time>2023-05-31T12:04:57Z</time>
      </trkpt>
      <trkpt lat="42.78391" lon="-0.0247">
        <ele>2160.109</ele>
        <time>2023-05-31T12:05:07Z</time>
      </trkpt>
      <trkpt lat="42.78388" lon="-0.02475">
        <ele>2158.172</ele>
        <time>2023-05-31T12:05:16Z</time>
      </trkpt>
      <trkpt lat="42.78385" lon="-0.02482">
        <ele>2156.224</ele>
        <time>2023-05-31T12:05:28Z</time>
      </trkpt>
      <trkpt lat="42.78385" lon="-0.02488">
        <ele>2155.027</ele>
        <time>2023-05-31T12:05:37Z</time>
      </trkpt>
      <trkpt lat="42.7838" lon="-0.02491">
        <ele>2152.954</ele>
        <time>2023-05-31T12:05:46Z</time>
      </trkpt>
      <trkpt lat="42.7838" lon="-0.02497">
        <ele>2150.174</ele>
        <time>2023-05-31T12:05:56Z</time>
      </trkpt>
      <trkpt lat="42.78379" lon="-0.02503">
        <ele>2148.188</ele>
        <time>2023-05-31T12:06:06Z</time>
      </trkpt>
      <trkpt lat="42.78383" lon="-0.02505">
        <ele>2146.677</ele>
        <time>2023-05-31T12:06:20Z</time>
      </trkpt>
      <trkpt lat="42.78387" lon="-0.02509">
        <ele>2145.834</ele>
        <time>2023-05-31T12:06:28Z</time>
      </trkpt>
      <trkpt lat="42.78392" lon="-0.02512">
        <ele>2142.723</ele>
        <time>2023-05-31T12:06:37Z</time>
      </trkpt>
      <trkpt lat="42.78397" lon="-0.02514">
        <ele>2139.341</ele>
        <time>2023-05-31T12:06:45Z</time>
      </trkpt>
      <trkpt lat="42.78402" lon="-0.02514">
        <ele>2137.781</ele>
        <time>2023-05-31T12:07:02Z</time>
      </trkpt>
      <trkpt lat="42.78406" lon="-0.02515">
        <ele>2135.809</ele>
        <time>2023-05-31T12:07:13Z</time>
      </trkpt>
      <trkpt lat="42.7841" lon="-0.02519">
        <ele>2134.209</ele>
        <time>2023-05-31T12:07:27Z</time>
      </trkpt>
      <trkpt lat="42.78414" lon="-0.02522">
        <ele>2131.865</ele>
        <time>2023-05-31T12:07:37Z</time>
      </trkpt>
      <trkpt lat="42.78419" lon="-0.02523">
        <ele>2128.827</ele>
        <time>2023-05-31T12:07:52Z</time>
      </trkpt>
      <trkpt lat="42.78422" lon="-0.02528">
        <ele>2126.61</ele>
        <time>2023-05-31T12:08:06Z</time>
      </trkpt>
      <trkpt lat="42.78427" lon="-0.02531">
        <ele>2124.767</ele>
        <time>2023-05-31T12:08:16Z</time>
      </trkpt>
      <trkpt lat="42.78431" lon="-0.02535">
        <ele>2121.227</ele>
        <time>2023-05-31T12:08:26Z</time>
      </trkpt>
      <trkpt lat="42.7843" lon="-0.02541">
        <ele>2118.031</ele>
        <time>2023-05-31T12:08:36Z</time>
      </trkpt>
      <trkpt lat="42.78434" lon="-0.02545">
        <ele>2115.92</ele>
        <time>2023-05-31T12:08:51Z</time>
      </trkpt>
      <trkpt lat="42.78438" lon="-0.02548">
        <ele>2114.187</ele>
        <time>2023-05-31T12:09:02Z</time>
      </trkpt>
      <trkpt lat="42.78436" lon="-0.02554">
        <ele>2111.546</ele>
        <time>2023-05-31T12:09:14Z</time>
      </trkpt>
      <trkpt lat="42.78433" lon="-0.02558">
        <ele>2108.285</ele>
        <time>2023-05-31T12:09:26Z</time>
      </trkpt>
      <trkpt lat="42.78437" lon="-0.02559">
        <ele>2105.789</ele>
        <time>2023-05-31T12:09:36Z</time>
      </trkpt>
      <trkpt lat="42.78436" lon="-0.02565">
        <ele>2104.117</ele>
        <time>2023-05-31T12:09:51Z</time>
      </trkpt>
      <trkpt lat="42.7844" lon="-0.02569">
        <ele>2103.609</ele>
        <time>2023-05-31T12:10:00Z</time>
      </trkpt>
      <trkpt lat="42.78442" lon="-0.02574">
        <ele>2102.679</ele>
        <time>2023-05-31T12:10:41Z</time>
      </trkpt>
      <trkpt lat="42.78447" lon="-0.02573">
        <ele>2100.731</ele>
        <time>2023-05-31T12:10:54Z</time>
      </trkpt>
      <trkpt lat="42.78449" lon="-0.02578">
        <ele>2097.134</ele>
        <time>2023-05-31T12:11:04Z</time>
      </trkpt>
      <trkpt lat="42.78452" lon="-0.02584">
        <ele>2093.511</ele>
        <time>2023-05-31T12:11:15Z</time>
      </trkpt>
      <trkpt lat="42.78457" lon="-0.02583">
        <ele>2092.351</ele>
        <time>2023-05-31T12:11:33Z</time>
      </trkpt>
      <trkpt lat="42.78459" lon="-0.02589">
        <ele>2091.055</ele>
        <time>2023-05-31T12:11:41Z</time>
      </trkpt>
      <trkpt lat="42.78456" lon="-0.02594">
        <ele>2087.934</ele>
        <time>2023-05-31T12:11:49Z</time>
      </trkpt>
      <trkpt lat="42.78455" lon="-0.02601">
        <ele>2084.881</ele>
        <time>2023-05-31T12:12:05Z</time>
      </trkpt>
      <trkpt lat="42.78453" lon="-0.02606">
        <ele>2082.13</ele>
        <time>2023-05-31T12:12:13Z</time>
      </trkpt>
      <trkpt lat="42.78456" lon="-0.02611">
        <ele>2079.937</ele>
        <time>2023-05-31T12:12:25Z</time>
      </trkpt>
      <trkpt lat="42.78452" lon="-0.02613">
        <ele>2078.949</ele>
        <time>2023-05-31T12:12:30Z</time>
      </trkpt>
      <trkpt lat="42.78449" lon="-0.02618">
        <ele>2077.913</ele>
        <time>2023-05-31T12:12:40Z</time>
      </trkpt>
      <trkpt lat="42.78449" lon="-0.02624">
        <ele>2076.109</ele>
        <time>2023-05-31T12:13:02Z</time>
      </trkpt>
      <trkpt lat="42.78448" lon="-0.02631">
        <ele>2074.824</ele>
        <time>2023-05-31T12:13:15Z</time>
      </trkpt>
      <trkpt lat="42.78448" lon="-0.02638">
        <ele>2073.726</ele>
        <time>2023-05-31T12:13:27Z</time>
      </trkpt>
      <trkpt lat="42.78451" lon="-0.02643">
        <ele>2071.729</ele>
        <time>2023-05-31T12:13:46Z</time>
      </trkpt>
      <trkpt lat="42.78452" lon="-0.0265">
        <ele>2069.446</ele>
        <time>2023-05-31T12:13:59Z</time>
      </trkpt>
      <trkpt lat="42.78453" lon="-0.02656">
        <ele>2067.166</ele>
        <time>2023-05-31T12:14:08Z</time>
      </trkpt>
      <trkpt lat="42.78451" lon="-0.02663">
        <ele>2064.78</ele>
        <time>2023-05-31T12:14:17Z</time>
      </trkpt>
      <trkpt lat="42.78453" lon="-0.0267">
        <ele>2062.359</ele>
        <time>2023-05-31T12:14:33Z</time>
      </trkpt>
      <trkpt lat="42.7845" lon="-0.02675">
        <ele>2060.576</ele>
        <time>2023-05-31T12:14:40Z</time>
      </trkpt>
      <trkpt lat="42.78451" lon="-0.02682">
        <ele>2058.465</ele>
        <time>2023-05-31T12:14:48Z</time>
      </trkpt>
      <trkpt lat="42.78453" lon="-0.02688">
        <ele>2056.373</ele>
        <time>2023-05-31T12:14:56Z</time>
      </trkpt>
      <trkpt lat="42.78453" lon="-0.02694">
        <ele>2054.885</ele>
        <time>2023-05-31T12:15:05Z</time>
      </trkpt>
      <trkpt lat="42.78456" lon="-0.027">
        <ele>2052.513</ele>
        <time>2023-05-31T12:15:14Z</time>
      </trkpt>
      <trkpt lat="42.78459" lon="-0.02704">
        <ele>2049.709</ele>
        <time>2023-05-31T12:15:21Z</time>
      </trkpt>
      <trkpt lat="42.78457" lon="-0.0271">
        <ele>2047.028</ele>
        <time>2023-05-31T12:15:28Z</time>
      </trkpt>
      <trkpt lat="42.78459" lon="-0.02715">
        <ele>2044.89</ele>
        <time>2023-05-31T12:15:34Z</time>
      </trkpt>
      <trkpt lat="42.78463" lon="-0.0272">
        <ele>2043.753</ele>
        <time>2023-05-31T12:15:41Z</time>
      </trkpt>
      <trkpt lat="42.78466" lon="-0.02726">
        <ele>2042.48</ele>
        <time>2023-05-31T12:15:47Z</time>
      </trkpt>
      <trkpt lat="42.78468" lon="-0.02731">
        <ele>2041.39</ele>
        <time>2023-05-31T12:15:54Z</time>
      </trkpt>
      <trkpt lat="42.78465" lon="-0.02737">
        <ele>2040.454</ele>
        <time>2023-05-31T12:15:59Z</time>
      </trkpt>
      <trkpt lat="42.78464" lon="-0.02744">
        <ele>2039.613</ele>
        <time>2023-05-31T12:16:18Z</time>
      </trkpt>
      <trkpt lat="42.78468" lon="-0.02748">
        <ele>2038.79</ele>
        <time>2023-05-31T12:16:28Z</time>
      </trkpt>
      <trkpt lat="42.78473" lon="-0.02751">
        <ele>2037.619</ele>
        <time>2023-05-31T12:16:34Z</time>
      </trkpt>
      <trkpt lat="42.78477" lon="-0.02755">
        <ele>2036.823</ele>
        <time>2023-05-31T12:16:39Z</time>
      </trkpt>
      <trkpt lat="42.7848" lon="-0.02759">
        <ele>2036.083</ele>
        <time>2023-05-31T12:16:44Z</time>
      </trkpt>
      <trkpt lat="42.78485" lon="-0.02763">
        <ele>2035.511</ele>
        <time>2023-05-31T12:16:49Z</time>
      </trkpt>
      <trkpt lat="42.78488" lon="-0.02768">
        <ele>2034.109</ele>
        <time>2023-05-31T12:16:54Z</time>
      </trkpt>
      <trkpt lat="42.7849" lon="-0.02774">
        <ele>2032.973</ele>
        <time>2023-05-31T12:17:02Z</time>
      </trkpt>
      <trkpt lat="42.78493" lon="-0.02779">
        <ele>2032.815</ele>
        <time>2023-05-31T12:17:08Z</time>
      </trkpt>
      <trkpt lat="42.78496" lon="-0.02786">
        <ele>2032.298</ele>
        <time>2023-05-31T12:17:13Z</time>
      </trkpt>
      <trkpt lat="42.78497" lon="-0.02792">
        <ele>2031.545</ele>
        <time>2023-05-31T12:17:18Z</time>
      </trkpt>
      <trkpt lat="42.78498" lon="-0.02799">
        <ele>2031.385</ele>
        <time>2023-05-31T12:17:30Z</time>
      </trkpt>
      <trkpt lat="42.78498" lon="-0.02806">
        <ele>2030.989</ele>
        <time>2023-05-31T12:17:35Z</time>
      </trkpt>
      <trkpt lat="42.78498" lon="-0.02812">
        <ele>2029.348</ele>
        <time>2023-05-31T12:17:40Z</time>
      </trkpt>
      <trkpt lat="42.785" lon="-0.02818">
        <ele>2027.985</ele>
        <time>2023-05-31T12:17:45Z</time>
      </trkpt>
      <trkpt lat="42.78501" lon="-0.02824">
        <ele>2027.874</ele>
        <time>2023-05-31T12:17:53Z</time>
      </trkpt>
      <trkpt lat="42.78504" lon="-0.02829">
        <ele>2027.839</ele>
        <time>2023-05-31T12:17:58Z</time>
      </trkpt>
      <trkpt lat="42.78507" lon="-0.02834">
        <ele>2027.901</ele>
        <time>2023-05-31T12:18:05Z</time>
      </trkpt>
      <trkpt lat="42.7851" lon="-0.0284">
        <ele>2027.921</ele>
        <time>2023-05-31T12:18:13Z</time>
      </trkpt>
      <trkpt lat="42.78513" lon="-0.02845">
        <ele>2028.109</ele>
        <time>2023-05-31T12:18:29Z</time>
      </trkpt>
      <trkpt lat="42.78514" lon="-0.02851">
        <ele>2028.524</ele>
        <time>2023-05-31T12:19:30Z</time>
      </trkpt>
      <trkpt lat="42.78514" lon="-0.02858">
        <ele>2028.716</ele>
        <time>2023-05-31T12:19:40Z</time>
      </trkpt>
      <trkpt lat="42.78517" lon="-0.02863">
        <ele>2028.729</ele>
        <time>2023-05-31T12:19:53Z</time>
      </trkpt>
      <trkpt lat="42.78521" lon="-0.02867">
        <ele>2028.456</ele>
        <time>2023-05-31T12:20:04Z</time>
      </trkpt>
      <trkpt lat="42.78523" lon="-0.02874">
        <ele>2026.896</ele>
        <time>2023-05-31T12:20:12Z</time>
      </trkpt>
      <trkpt lat="42.78526" lon="-0.0288">
        <ele>2024.58</ele>
        <time>2023-05-31T12:20:19Z</time>
      </trkpt>
      <trkpt lat="42.78529" lon="-0.02884">
        <ele>2023.179</ele>
        <time>2023-05-31T12:20:25Z</time>
      </trkpt>
      <trkpt lat="42.78533" lon="-0.02887">
        <ele>2021.866</ele>
        <time>2023-05-31T12:20:32Z</time>
      </trkpt>
      <trkpt lat="42.78538" lon="-0.02891">
        <ele>2021.085</ele>
        <time>2023-05-31T12:20:42Z</time>
      </trkpt>
      <trkpt lat="42.78542" lon="-0.02894">
        <ele>2020.388</ele>
        <time>2023-05-31T12:20:51Z</time>
      </trkpt>
      <trkpt lat="42.78542" lon="-0.029">
        <ele>2019.124</ele>
        <time>2023-05-31T12:20:57Z</time>
      </trkpt>
      <trkpt lat="42.78545" lon="-0.02905">
        <ele>2017.726</ele>
        <time>2023-05-31T12:21:06Z</time>
      </trkpt>
      <trkpt lat="42.78548" lon="-0.02909">
        <ele>2017.109</ele>
        <time>2023-05-31T12:21:13Z</time>
      </trkpt>
      <trkpt lat="42.78553" lon="-0.0291">
        <ele>2016.099</ele>
        <time>2023-05-31T12:21:21Z</time>
      </trkpt>
      <trkpt lat="42.78554" lon="-0.02917">
        <ele>2014.691</ele>
        <time>2023-05-31T12:21:29Z</time>
      </trkpt>
      <trkpt lat="42.78556" lon="-0.02923">
        <ele>2013.764</ele>
        <time>2023-05-31T12:21:36Z</time>
      </trkpt>
      <trkpt lat="42.78559" lon="-0.02928">
        <ele>2012.731</ele>
        <time>2023-05-31T12:21:40Z</time>
      </trkpt>
      <trkpt lat="42.78562" lon="-0.02933">
        <ele>2012.081</ele>
        <time>2023-05-31T12:21:46Z</time>
      </trkpt>
      <trkpt lat="42.78564" lon="-0.02939">
        <ele>2011.565</ele>
        <time>2023-05-31T12:21:50Z</time>
      </trkpt>
      <trkpt lat="42.78565" lon="-0.02945">
        <ele>2010.924</ele>
        <time>2023-05-31T12:21:56Z</time>
      </trkpt>
      <trkpt lat="42.78567" lon="-0.02952">
        <ele>2010.491</ele>
        <time>2023-05-31T12:22:03Z</time>
      </trkpt>
      <trkpt lat="42.78569" lon="-0.02958">
        <ele>2009.62</ele>
        <time>2023-05-31T12:22:08Z</time>
      </trkpt>
      <trkpt lat="42.78572" lon="-0.02963">
        <ele>2008.933</ele>
        <time>2023-05-31T12:22:15Z</time>
      </trkpt>
      <trkpt lat="42.78572" lon="-0.0297">
        <ele>2008.123</ele>
        <time>2023-05-31T12:22:21Z</time>
      </trkpt>
      <trkpt lat="42.78574" lon="-0.02977">
        <ele>2007.215</ele>
        <time>2023-05-31T12:22:26Z</time>
      </trkpt>
      <trkpt lat="42.78573" lon="-0.02984">
        <ele>2006.809</ele>
        <time>2023-05-31T12:22:34Z</time>
      </trkpt>
      <trkpt lat="42.78575" lon="-0.0299">
        <ele>2006.314</ele>
        <time>2023-05-31T12:22:41Z</time>
      </trkpt>
      <trkpt lat="42.78577" lon="-0.02995">
        <ele>2005.156</ele>
        <time>2023-05-31T12:22:52Z</time>
      </trkpt>
      <trkpt lat="42.78578" lon="-0.03002">
        <ele>2004.139</ele>
        <time>2023-05-31T12:23:03Z</time>
      </trkpt>
      <trkpt lat="42.78578" lon="-0.03008">
        <ele>2003.436</ele>
        <time>2023-05-31T12:23:10Z</time>
      </trkpt>
      <trkpt lat="42.78579" lon="-0.03014">
        <ele>2002.376</ele>
        <time>2023-05-31T12:23:33Z</time>
      </trkpt>
      <trkpt lat="42.78578" lon="-0.0302">
        <ele>2001.05</ele>
        <time>2023-05-31T12:23:40Z</time>
      </trkpt>
      <trkpt lat="42.78576" lon="-0.03026">
        <ele>1999.169</ele>
        <time>2023-05-31T12:23:47Z</time>
      </trkpt>
      <trkpt lat="42.78576" lon="-0.03033">
        <ele>1997.696</ele>
        <time>2023-05-31T12:23:55Z</time>
      </trkpt>
      <trkpt lat="42.78576" lon="-0.0304">
        <ele>1996.775</ele>
        <time>2023-05-31T12:24:01Z</time>
      </trkpt>
      <trkpt lat="42.78576" lon="-0.03046">
        <ele>1995.613</ele>
        <time>2023-05-31T12:24:07Z</time>
      </trkpt>
      <trkpt lat="42.78577" lon="-0.03052">
        <ele>1994.243</ele>
        <time>2023-05-31T12:24:14Z</time>
      </trkpt>
      <trkpt lat="42.78576" lon="-0.03058">
        <ele>1993.307</ele>
        <time>2023-05-31T12:24:19Z</time>
      </trkpt>
      <trkpt lat="42.78577" lon="-0.03064">
        <ele>1993.109</ele>
        <time>2023-05-31T12:24:31Z</time>
      </trkpt>
      <trkpt lat="42.78577" lon="-0.03071">
        <ele>1991.822</ele>
        <time>2023-05-31T12:24:40Z</time>
      </trkpt>
      <trkpt lat="42.78578" lon="-0.03077">
        <ele>1990.374</ele>
        <time>2023-05-31T12:24:47Z</time>
      </trkpt>
      <trkpt lat="42.78577" lon="-0.03083">
        <ele>1989.267</ele>
        <time>2023-05-31T12:24:55Z</time>
      </trkpt>
      <trkpt lat="42.78577" lon="-0.0309">
        <ele>1987.844</ele>
        <time>2023-05-31T12:25:04Z</time>
      </trkpt>
      <trkpt lat="42.78576" lon="-0.03097">
        <ele>1985.884</ele>
        <time>2023-05-31T12:25:14Z</time>
      </trkpt>
      <trkpt lat="42.78578" lon="-0.03103">
        <ele>1983.958</ele>
        <time>2023-05-31T12:25:25Z</time>
      </trkpt>
      <trkpt lat="42.78579" lon="-0.03109">
        <ele>1981.067</ele>
        <time>2023-05-31T12:25:34Z</time>
      </trkpt>
      <trkpt lat="42.78581" lon="-0.03116">
        <ele>1978.114</ele>
        <time>2023-05-31T12:25:40Z</time>
      </trkpt>
      <trkpt lat="42.78582" lon="-0.03122">
        <ele>1977.443</ele>
        <time>2023-05-31T12:25:45Z</time>
      </trkpt>
      <trkpt lat="42.78583" lon="-0.03128">
        <ele>1977.391</ele>
        <time>2023-05-31T12:25:51Z</time>
      </trkpt>
      <trkpt lat="42.78583" lon="-0.03135">
        <ele>1977.081</ele>
        <time>2023-05-31T12:25:56Z</time>
      </trkpt>
      <trkpt lat="42.78585" lon="-0.03141">
        <ele>1976.519</ele>
        <time>2023-05-31T12:26:01Z</time>
      </trkpt>
      <trkpt lat="42.78588" lon="-0.03145">
        <ele>1976.509</ele>
        <time>2023-05-31T12:26:06Z</time>
      </trkpt>
      <trkpt lat="42.78591" lon="-0.03151">
        <ele>1976.24</ele>
        <time>2023-05-31T12:26:12Z</time>
      </trkpt>
      <trkpt lat="42.78594" lon="-0.03157">
        <ele>1975.982</ele>
        <time>2023-05-31T12:26:19Z</time>
      </trkpt>
      <trkpt lat="42.78596" lon="-0.03163">
        <ele>1975.445</ele>
        <time>2023-05-31T12:26:24Z</time>
      </trkpt>
      <trkpt lat="42.78599" lon="-0.03168">
        <ele>1974.822</ele>
        <time>2023-05-31T12:26:30Z</time>
      </trkpt>
      <trkpt lat="42.786" lon="-0.03175">
        <ele>1973.792</ele>
        <time>2023-05-31T12:26:36Z</time>
      </trkpt>
      <trkpt lat="42.78602" lon="-0.03181">
        <ele>1972.746</ele>
        <time>2023-05-31T12:26:44Z</time>
      </trkpt>
      <trkpt lat="42.78604" lon="-0.03188">
        <ele>1971.635</ele>
        <time>2023-05-31T12:26:50Z</time>
      </trkpt>
      <trkpt lat="42.78605" lon="-0.03194">
        <ele>1970.062</ele>
        <time>2023-05-31T12:26:57Z</time>
      </trkpt>
      <trkpt lat="42.78608" lon="-0.032">
        <ele>1968.381</ele>
        <time>2023-05-31T12:27:21Z</time>
      </trkpt>
      <trkpt lat="42.7861" lon="-0.03205">
        <ele>1966.825</ele>
        <time>2023-05-31T12:27:29Z</time>
      </trkpt>
      <trkpt lat="42.78613" lon="-0.03211">
        <ele>1965.426</ele>
        <time>2023-05-31T12:27:36Z</time>
      </trkpt>
      <trkpt lat="42.78616" lon="-0.03216">
        <ele>1964.308</ele>
        <time>2023-05-31T12:27:44Z</time>
      </trkpt>
      <trkpt lat="42.7862" lon="-0.0322">
        <ele>1963.309</ele>
        <time>2023-05-31T12:27:51Z</time>
      </trkpt>
      <trkpt lat="42.78624" lon="-0.03224">
        <ele>1961.883</ele>
        <time>2023-05-31T12:28:00Z</time>
      </trkpt>
      <trkpt lat="42.78626" lon="-0.0323">
        <ele>1961.025</ele>
        <time>2023-05-31T12:28:07Z</time>
      </trkpt>
      <trkpt lat="42.78629" lon="-0.03236">
        <ele>1960.478</ele>
        <time>2023-05-31T12:28:16Z</time>
      </trkpt>
      <trkpt lat="42.7863" lon="-0.03242">
        <ele>1958.955</ele>
        <time>2023-05-31T12:28:23Z</time>
      </trkpt>
      <trkpt lat="42.78632" lon="-0.03248">
        <ele>1957.385</ele>
        <time>2023-05-31T12:28:30Z</time>
      </trkpt>
      <trkpt lat="42.78631" lon="-0.03254">
        <ele>1956.079</ele>
        <time>2023-05-31T12:28:38Z</time>
      </trkpt>
      <trkpt lat="42.7863" lon="-0.03261">
        <ele>1955.098</ele>
        <time>2023-05-31T12:28:47Z</time>
      </trkpt>
      <trkpt lat="42.78631" lon="-0.03268">
        <ele>1953.675</ele>
        <time>2023-05-31T12:28:56Z</time>
      </trkpt>
      <trkpt lat="42.7863" lon="-0.03274">
        <ele>1951.874</ele>
        <time>2023-05-31T12:29:09Z</time>
      </trkpt>
      <trkpt lat="42.78629" lon="-0.03281">
        <ele>1950.289</ele>
        <time>2023-05-31T12:29:17Z</time>
      </trkpt>
      <trkpt lat="42.78629" lon="-0.03288">
        <ele>1948.506</ele>
        <time>2023-05-31T12:29:25Z</time>
      </trkpt>
      <trkpt lat="42.78626" lon="-0.03293">
        <ele>1946.426</ele>
        <time>2023-05-31T12:29:33Z</time>
      </trkpt>
      <trkpt lat="42.78627" lon="-0.033">
        <ele>1944.109</ele>
        <time>2023-05-31T12:29:42Z</time>
      </trkpt>
      <trkpt lat="42.7863" lon="-0.03306">
        <ele>1942.319</ele>
        <time>2023-05-31T12:29:50Z</time>
      </trkpt>
      <trkpt lat="42.78631" lon="-0.03313">
        <ele>1941.281</ele>
        <time>2023-05-31T12:29:56Z</time>
      </trkpt>
      <trkpt lat="42.78633" lon="-0.03318">
        <ele>1940.914</ele>
        <time>2023-05-31T12:30:01Z</time>
      </trkpt>
      <trkpt lat="42.78634" lon="-0.03326">
        <ele>1940.441</ele>
        <time>2023-05-31T12:30:07Z</time>
      </trkpt>
      <trkpt lat="42.78634" lon="-0.03333">
        <ele>1939.911</ele>
        <time>2023-05-31T12:30:13Z</time>
      </trkpt>
      <trkpt lat="42.78636" lon="-0.03339">
        <ele>1939.785</ele>
        <time>2023-05-31T12:30:19Z</time>
      </trkpt>
      <trkpt lat="42.78637" lon="-0.03346">
        <ele>1939.624</ele>
        <time>2023-05-31T12:30:25Z</time>
      </trkpt>
      <trkpt lat="42.78641" lon="-0.03349">
        <ele>1939.611</ele>
        <time>2023-05-31T12:30:32Z</time>
      </trkpt>
      <trkpt lat="42.78642" lon="-0.03355">
        <ele>1939.62</ele>
        <time>2023-05-31T12:31:01Z</time>
      </trkpt>
      <trkpt lat="42.78638" lon="-0.03351">
        <ele>1939.681</ele>
        <time>2023-05-31T13:09:22Z</time>
      </trkpt>
      <trkpt lat="42.78634" lon="-0.03348">
        <ele>1939.061</ele>
        <time>2023-05-31T13:10:45Z</time>
      </trkpt>
      <trkpt lat="42.78635" lon="-0.03341">
        <ele>1939.117</ele>
        <time>2023-05-31T13:11:37Z</time>
      </trkpt>
      <trkpt lat="42.78639" lon="-0.03337">
        <ele>1938.709</ele>
        <time>2023-05-31T13:11:44Z</time>
      </trkpt>
      <trkpt lat="42.78641" lon="-0.03331">
        <ele>1938.529</ele>
        <time>2023-05-31T13:11:51Z</time>
      </trkpt>
      <trkpt lat="42.78644" lon="-0.03327">
        <ele>1937.921</ele>
        <time>2023-05-31T13:11:57Z</time>
      </trkpt>
      <trkpt lat="42.78646" lon="-0.03321">
        <ele>1937.674</ele>
        <time>2023-05-31T13:12:03Z</time>
      </trkpt>
      <trkpt lat="42.78649" lon="-0.03316">
        <ele>1937.681</ele>
        <time>2023-05-31T13:12:10Z</time>
      </trkpt>
      <trkpt lat="42.78652" lon="-0.03311">
        <ele>1937.451</ele>
        <time>2023-05-31T13:12:16Z</time>
      </trkpt>
      <trkpt lat="42.78654" lon="-0.03304">
        <ele>1937.355</ele>
        <time>2023-05-31T13:12:21Z</time>
      </trkpt>
      <trkpt lat="42.78657" lon="-0.03299">
        <ele>1937.374</ele>
        <time>2023-05-31T13:12:26Z</time>
      </trkpt>
      <trkpt lat="42.7866" lon="-0.03294">
        <ele>1937.251</ele>
        <time>2023-05-31T13:12:30Z</time>
      </trkpt>
      <trkpt lat="42.78662" lon="-0.03287">
        <ele>1936.84</ele>
        <time>2023-05-31T13:12:35Z</time>
      </trkpt>
      <trkpt lat="42.78666" lon="-0.03282">
        <ele>1936.253</ele>
        <time>2023-05-31T13:12:40Z</time>
      </trkpt>
      <trkpt lat="42.78668" lon="-0.03276">
        <ele>1935.604</ele>
        <time>2023-05-31T13:12:48Z</time>
      </trkpt>
      <trkpt lat="42.78672" lon="-0.03272">
        <ele>1935.314</ele>
        <time>2023-05-31T13:12:54Z</time>
      </trkpt>
      <trkpt lat="42.78677" lon="-0.0327">
        <ele>1935.209</ele>
        <time>2023-05-31T13:12:59Z</time>
      </trkpt>
      <trkpt lat="42.7868" lon="-0.03265">
        <ele>1935.086</ele>
        <time>2023-05-31T13:13:04Z</time>
      </trkpt>
      <trkpt lat="42.78682" lon="-0.03259">
        <ele>1935.038</ele>
        <time>2023-05-31T13:13:10Z</time>
      </trkpt>
      <trkpt lat="42.78684" lon="-0.03253">
        <ele>1934.791</ele>
        <time>2023-05-31T13:13:15Z</time>
      </trkpt>
      <trkpt lat="42.78687" lon="-0.03247">
        <ele>1934.468</ele>
        <time>2023-05-31T13:13:20Z</time>
      </trkpt>
      <trkpt lat="42.7869" lon="-0.03242">
        <ele>1934.298</ele>
        <time>2023-05-31T13:13:26Z</time>
      </trkpt>
      <trkpt lat="42.78691" lon="-0.03236">
        <ele>1934.252</ele>
        <time>2023-05-31T13:13:32Z</time>
      </trkpt>
      <trkpt lat="42.78693" lon="-0.03229">
        <ele>1933.971</ele>
        <time>2023-05-31T13:13:38Z</time>
      </trkpt>
      <trkpt lat="42.78695" lon="-0.03223">
        <ele>1933.198</ele>
        <time>2023-05-31T13:13:43Z</time>
      </trkpt>
      <trkpt lat="42.78697" lon="-0.03217">
        <ele>1932.267</ele>
        <time>2023-05-31T13:13:49Z</time>
      </trkpt>
      <trkpt lat="42.78698" lon="-0.03211">
        <ele>1931.718</ele>
        <time>2023-05-31T13:13:54Z</time>
      </trkpt>
      <trkpt lat="42.787" lon="-0.03204">
        <ele>1931.398</ele>
        <time>2023-05-31T13:13:59Z</time>
      </trkpt>
      <trkpt lat="42.78704" lon="-0.03199">
        <ele>1930.817</ele>
        <time>2023-05-31T13:14:04Z</time>
      </trkpt>
      <trkpt lat="42.78708" lon="-0.03195">
        <ele>1930.109</ele>
        <time>2023-05-31T13:14:09Z</time>
      </trkpt>
      <trkpt lat="42.78711" lon="-0.0319">
        <ele>1929.572</ele>
        <time>2023-05-31T13:14:13Z</time>
      </trkpt>
      <trkpt lat="42.78711" lon="-0.03184">
        <ele>1929.054</ele>
        <time>2023-05-31T13:14:27Z</time>
      </trkpt>
      <trkpt lat="42.78715" lon="-0.0318">
        <ele>1928.467</ele>
        <time>2023-05-31T13:14:32Z</time>
      </trkpt>
      <trkpt lat="42.78717" lon="-0.03173">
        <ele>1928.294</ele>
        <time>2023-05-31T13:14:37Z</time>
      </trkpt>
      <trkpt lat="42.78719" lon="-0.03167">
        <ele>1928.084</ele>
        <time>2023-05-31T13:14:42Z</time>
      </trkpt>
      <trkpt lat="42.78722" lon="-0.03161">
        <ele>1928.078</ele>
        <time>2023-05-31T13:14:46Z</time>
      </trkpt>
      <trkpt lat="42.78722" lon="-0.03154">
        <ele>1927.877</ele>
        <time>2023-05-31T13:14:50Z</time>
      </trkpt>
      <trkpt lat="42.78723" lon="-0.03147">
        <ele>1927.454</ele>
        <time>2023-05-31T13:14:58Z</time>
      </trkpt>
      <trkpt lat="42.78723" lon="-0.03141">
        <ele>1926.713</ele>
        <time>2023-05-31T13:15:04Z</time>
      </trkpt>
      <trkpt lat="42.78725" lon="-0.03135">
        <ele>1926.171</ele>
        <time>2023-05-31T13:15:09Z</time>
      </trkpt>
      <trkpt lat="42.78727" lon="-0.03129">
        <ele>1925.541</ele>
        <time>2023-05-31T13:15:18Z</time>
      </trkpt>
      <trkpt lat="42.7873" lon="-0.03123">
        <ele>1924.915</ele>
        <time>2023-05-31T13:15:24Z</time>
      </trkpt>
      <trkpt lat="42.78732" lon="-0.03117">
        <ele>1924.409</ele>
        <time>2023-05-31T13:15:29Z</time>
      </trkpt>
      <trkpt lat="42.78735" lon="-0.03112">
        <ele>1924.198</ele>
        <time>2023-05-31T13:15:34Z</time>
      </trkpt>
      <trkpt lat="42.78737" lon="-0.03106">
        <ele>1923.47</ele>
        <time>2023-05-31T13:15:39Z</time>
      </trkpt>
      <trkpt lat="42.7874" lon="-0.03101">
        <ele>1922.393</ele>
        <time>2023-05-31T13:15:44Z</time>
      </trkpt>
      <trkpt lat="42.78742" lon="-0.03095">
        <ele>1921.59</ele>
        <time>2023-05-31T13:15:51Z</time>
      </trkpt>
      <trkpt lat="42.78746" lon="-0.03091">
        <ele>1920.93</ele>
        <time>2023-05-31T13:15:56Z</time>
      </trkpt>
      <trkpt lat="42.78748" lon="-0.03086">
        <ele>1920.494</ele>
        <time>2023-05-31T13:16:02Z</time>
      </trkpt>
      <trkpt lat="42.78751" lon="-0.0308">
        <ele>1920.473</ele>
        <time>2023-05-31T13:16:07Z</time>
      </trkpt>
      <trkpt lat="42.78755" lon="-0.03075">
        <ele>1920.39</ele>
        <time>2023-05-31T13:16:13Z</time>
      </trkpt>
      <trkpt lat="42.78759" lon="-0.03072">
        <ele>1920.399</ele>
        <time>2023-05-31T13:16:18Z</time>
      </trkpt>
      <trkpt lat="42.78763" lon="-0.03068">
        <ele>1919.981</ele>
        <time>2023-05-31T13:16:23Z</time>
      </trkpt>
      <trkpt lat="42.78766" lon="-0.03062">
        <ele>1918.961</ele>
        <time>2023-05-31T13:16:28Z</time>
      </trkpt>
      <trkpt lat="42.78767" lon="-0.03056">
        <ele>1918.117</ele>
        <time>2023-05-31T13:16:35Z</time>
      </trkpt>
      <trkpt lat="42.7877" lon="-0.03049">
        <ele>1917.809</ele>
        <time>2023-05-31T13:16:41Z</time>
      </trkpt>
      <trkpt lat="42.78773" lon="-0.03044">
        <ele>1917.799</ele>
        <time>2023-05-31T13:16:47Z</time>
      </trkpt>
      <trkpt lat="42.78775" lon="-0.03038">
        <ele>1917.411</ele>
        <time>2023-05-31T13:16:53Z</time>
      </trkpt>
      <trkpt lat="42.78777" lon="-0.03031">
        <ele>1917.074</ele>
        <time>2023-05-31T13:16:59Z</time>
      </trkpt>
      <trkpt lat="42.78777" lon="-0.03025">
        <ele>1916.151</ele>
        <time>2023-05-31T13:17:05Z</time>
      </trkpt>
      <trkpt lat="42.78778" lon="-0.03019">
        <ele>1915.381</ele>
        <time>2023-05-31T13:17:13Z</time>
      </trkpt>
      <trkpt lat="42.78779" lon="-0.03012">
        <ele>1914.945</ele>
        <time>2023-05-31T13:17:22Z</time>
      </trkpt>
      <trkpt lat="42.78781" lon="-0.03005">
        <ele>1914.634</ele>
        <time>2023-05-31T13:17:28Z</time>
      </trkpt>
      <trkpt lat="42.78784" lon="-0.03">
        <ele>1914.381</ele>
        <time>2023-05-31T13:17:37Z</time>
      </trkpt>
      <trkpt lat="42.78786" lon="-0.02995">
        <ele>1914.07</ele>
        <time>2023-05-31T13:17:46Z</time>
      </trkpt>
      <trkpt lat="42.78791" lon="-0.02992">
        <ele>1914.062</ele>
        <time>2023-05-31T13:17:57Z</time>
      </trkpt>
      <trkpt lat="42.78794" lon="-0.02987">
        <ele>1913.483</ele>
        <time>2023-05-31T13:18:04Z</time>
      </trkpt>
      <trkpt lat="42.78798" lon="-0.02983">
        <ele>1912.011</ele>
        <time>2023-05-31T13:18:11Z</time>
      </trkpt>
      <trkpt lat="42.788" lon="-0.02977">
        <ele>1910.809</ele>
        <time>2023-05-31T13:18:25Z</time>
      </trkpt>
      <trkpt lat="42.78801" lon="-0.0297">
        <ele>1910.147</ele>
        <time>2023-05-31T13:18:32Z</time>
      </trkpt>
      <trkpt lat="42.78802" lon="-0.02964">
        <ele>1908.569</ele>
        <time>2023-05-31T13:18:38Z</time>
      </trkpt>
      <trkpt lat="42.78807" lon="-0.02959">
        <ele>1907.152</ele>
        <time>2023-05-31T13:18:48Z</time>
      </trkpt>
      <trkpt lat="42.78811" lon="-0.02956">
        <ele>1906.729</ele>
        <time>2023-05-31T13:18:55Z</time>
      </trkpt>
      <trkpt lat="42.78814" lon="-0.02951">
        <ele>1906.449</ele>
        <time>2023-05-31T13:19:00Z</time>
      </trkpt>
      <trkpt lat="42.78816" lon="-0.02946">
        <ele>1905.183</ele>
        <time>2023-05-31T13:19:09Z</time>
      </trkpt>
      <trkpt lat="42.7882" lon="-0.02943">
        <ele>1903.942</ele>
        <time>2023-05-31T13:19:32Z</time>
      </trkpt>
      <trkpt lat="42.78823" lon="-0.02936">
        <ele>1903.799</ele>
        <time>2023-05-31T13:19:39Z</time>
      </trkpt>
      <trkpt lat="42.78827" lon="-0.02932">
        <ele>1902.688</ele>
        <time>2023-05-31T13:19:46Z</time>
      </trkpt>
      <trkpt lat="42.78829" lon="-0.02927">
        <ele>1901.665</ele>
        <time>2023-05-31T13:19:51Z</time>
      </trkpt>
      <trkpt lat="42.78832" lon="-0.02921">
        <ele>1901.568</ele>
        <time>2023-05-31T13:19:57Z</time>
      </trkpt>
      <trkpt lat="42.78835" lon="-0.02916">
        <ele>1901.014</ele>
        <time>2023-05-31T13:20:05Z</time>
      </trkpt>
      <trkpt lat="42.78839" lon="-0.02911">
        <ele>1900.509</ele>
        <time>2023-05-31T13:20:12Z</time>
      </trkpt>
      <trkpt lat="42.78841" lon="-0.02905">
        <ele>1900.227</ele>
        <time>2023-05-31T13:20:21Z</time>
      </trkpt>
      <trkpt lat="42.78843" lon="-0.02898">
        <ele>1899.159</ele>
        <time>2023-05-31T13:20:31Z</time>
      </trkpt>
      <trkpt lat="42.78844" lon="-0.02892">
        <ele>1898.942</ele>
        <time>2023-05-31T13:20:37Z</time>
      </trkpt>
      <trkpt lat="42.78848" lon="-0.0289">
        <ele>1898.949</ele>
        <time>2023-05-31T13:20:42Z</time>
      </trkpt>
      <trkpt lat="42.78853" lon="-0.02888">
        <ele>1898.269</ele>
        <time>2023-05-31T13:20:48Z</time>
      </trkpt>
      <trkpt lat="42.78857" lon="-0.0289">
        <ele>1898.553</ele>
        <time>2023-05-31T13:20:53Z</time>
      </trkpt>
      <trkpt lat="42.78861" lon="-0.02886">
        <ele>1899.032</ele>
        <time>2023-05-31T13:20:59Z</time>
      </trkpt>
      <trkpt lat="42.78864" lon="-0.0288">
        <ele>1899.749</ele>
        <time>2023-05-31T13:21:04Z</time>
      </trkpt>
      <trkpt lat="42.78868" lon="-0.02877">
        <ele>1900.238</ele>
        <time>2023-05-31T13:21:09Z</time>
      </trkpt>
      <trkpt lat="42.7887" lon="-0.02871">
        <ele>1900.043</ele>
        <time>2023-05-31T13:21:16Z</time>
      </trkpt>
      <trkpt lat="42.78874" lon="-0.02865">
        <ele>1900.264</ele>
        <time>2023-05-31T13:21:22Z</time>
      </trkpt>
      <trkpt lat="42.78876" lon="-0.02859">
        <ele>1900.21</ele>
        <time>2023-05-31T13:21:29Z</time>
      </trkpt>
      <trkpt lat="42.7888" lon="-0.02856">
        <ele>1900.209</ele>
        <time>2023-05-31T13:21:34Z</time>
      </trkpt>
      <trkpt lat="42.78884" lon="-0.0285">
        <ele>1900.015</ele>
        <time>2023-05-31T13:21:40Z</time>
      </trkpt>
      <trkpt lat="42.78886" lon="-0.02843">
        <ele>1899.857</ele>
        <time>2023-05-31T13:21:46Z</time>
      </trkpt>
      <trkpt lat="42.7889" lon="-0.02839">
        <ele>1900.01</ele>
        <time>2023-05-31T13:21:52Z</time>
      </trkpt>
      <trkpt lat="42.78894" lon="-0.02836">
        <ele>1900.147</ele>
        <time>2023-05-31T13:21:59Z</time>
      </trkpt>
      <trkpt lat="42.78898" lon="-0.02831">
        <ele>1900.247</ele>
        <time>2023-05-31T13:22:09Z</time>
      </trkpt>
      <trkpt lat="42.78902" lon="-0.02826">
        <ele>1900.261</ele>
        <time>2023-05-31T13:22:15Z</time>
      </trkpt>
      <trkpt lat="42.78906" lon="-0.02821">
        <ele>1900.22</ele>
        <time>2023-05-31T13:22:21Z</time>
      </trkpt>
      <trkpt lat="42.7891" lon="-0.02818">
        <ele>1900.217</ele>
        <time>2023-05-31T13:22:28Z</time>
      </trkpt>
      <trkpt lat="42.78914" lon="-0.02814">
        <ele>1899.726</ele>
        <time>2023-05-31T13:22:34Z</time>
      </trkpt>
      <trkpt lat="42.78919" lon="-0.02809">
        <ele>1898.185</ele>
        <time>2023-05-31T13:22:40Z</time>
      </trkpt>
      <trkpt lat="42.78923" lon="-0.02808">
        <ele>1896.689</ele>
        <time>2023-05-31T13:22:47Z</time>
      </trkpt>
      <trkpt lat="42.78929" lon="-0.02806">
        <ele>1895.217</ele>
        <time>2023-05-31T13:22:53Z</time>
      </trkpt>
      <trkpt lat="42.78931" lon="-0.028">
        <ele>1893.509</ele>
        <time>2023-05-31T13:22:59Z</time>
      </trkpt>
      <trkpt lat="42.78934" lon="-0.02794">
        <ele>1892.769</ele>
        <time>2023-05-31T13:23:05Z</time>
      </trkpt>
      <trkpt lat="42.78937" lon="-0.02788">
        <ele>1892.471</ele>
        <time>2023-05-31T13:23:10Z</time>
      </trkpt>
      <trkpt lat="42.78942" lon="-0.02787">
        <ele>1891.994</ele>
        <time>2023-05-31T13:23:18Z</time>
      </trkpt>
      <trkpt lat="42.78947" lon="-0.02787">
        <ele>1891.231</ele>
        <time>2023-05-31T13:23:25Z</time>
      </trkpt>
      <trkpt lat="42.78952" lon="-0.02786">
        <ele>1890.731</ele>
        <time>2023-05-31T13:23:31Z</time>
      </trkpt>
      <trkpt lat="42.78956" lon="-0.02783">
        <ele>1888.935</ele>
        <time>2023-05-31T13:23:37Z</time>
      </trkpt>
      <trkpt lat="42.78961" lon="-0.02781">
        <ele>1887.164</ele>
        <time>2023-05-31T13:23:43Z</time>
      </trkpt>
      <trkpt lat="42.78965" lon="-0.02778">
        <ele>1885.981</ele>
        <time>2023-05-31T13:23:49Z</time>
      </trkpt>
      <trkpt lat="42.7897" lon="-0.02779">
        <ele>1884.47</ele>
        <time>2023-05-31T13:23:55Z</time>
      </trkpt>
      <trkpt lat="42.78974" lon="-0.02776">
        <ele>1883.156</ele>
        <time>2023-05-31T13:24:00Z</time>
      </trkpt>
      <trkpt lat="42.78978" lon="-0.02774">
        <ele>1881.659</ele>
        <time>2023-05-31T13:24:05Z</time>
      </trkpt>
      <trkpt lat="42.78983" lon="-0.02775">
        <ele>1880.614</ele>
        <time>2023-05-31T13:24:19Z</time>
      </trkpt>
      <trkpt lat="42.78987" lon="-0.02772">
        <ele>1879.809</ele>
        <time>2023-05-31T13:24:24Z</time>
      </trkpt>
      <trkpt lat="42.78992" lon="-0.0277">
        <ele>1878.396</ele>
        <time>2023-05-31T13:24:30Z</time>
      </trkpt>
      <trkpt lat="42.78996" lon="-0.02769">
        <ele>1876.868</ele>
        <time>2023-05-31T13:24:37Z</time>
      </trkpt>
      <trkpt lat="42.79001" lon="-0.02767">
        <ele>1874.941</ele>
        <time>2023-05-31T13:24:44Z</time>
      </trkpt>
      <trkpt lat="42.79006" lon="-0.02766">
        <ele>1872.968</ele>
        <time>2023-05-31T13:24:50Z</time>
      </trkpt>
      <trkpt lat="42.79011" lon="-0.02766">
        <ele>1871.098</ele>
        <time>2023-05-31T13:24:56Z</time>
      </trkpt>
      <trkpt lat="42.79016" lon="-0.02768">
        <ele>1869.352</ele>
        <time>2023-05-31T13:25:03Z</time>
      </trkpt>
      <trkpt lat="42.79021" lon="-0.02769">
        <ele>1867.751</ele>
        <time>2023-05-31T13:25:09Z</time>
      </trkpt>
      <trkpt lat="42.79026" lon="-0.02768">
        <ele>1866.078</ele>
        <time>2023-05-31T13:25:15Z</time>
      </trkpt>
      <trkpt lat="42.7903" lon="-0.02766">
        <ele>1864.227</ele>
        <time>2023-05-31T13:25:21Z</time>
      </trkpt>
      <trkpt lat="42.79034" lon="-0.02763">
        <ele>1862.769</ele>
        <time>2023-05-31T13:25:29Z</time>
      </trkpt>
      <trkpt lat="42.79039" lon="-0.02759">
        <ele>1861.704</ele>
        <time>2023-05-31T13:25:37Z</time>
      </trkpt>
      <trkpt lat="42.79044" lon="-0.02759">
        <ele>1859.724</ele>
        <time>2023-05-31T13:25:44Z</time>
      </trkpt>
      <trkpt lat="42.79048" lon="-0.02761">
        <ele>1857.109</ele>
        <time>2023-05-31T13:25:51Z</time>
      </trkpt>
      <trkpt lat="42.79053" lon="-0.02763">
        <ele>1855.227</ele>
        <time>2023-05-31T13:25:58Z</time>
      </trkpt>
      <trkpt lat="42.79057" lon="-0.02764">
        <ele>1853.719</ele>
        <time>2023-05-31T13:26:05Z</time>
      </trkpt>
      <trkpt lat="42.79062" lon="-0.02763">
        <ele>1851.832</ele>
        <time>2023-05-31T13:26:12Z</time>
      </trkpt>
      <trkpt lat="42.79066" lon="-0.02762">
        <ele>1850.119</ele>
        <time>2023-05-31T13:26:18Z</time>
      </trkpt>
      <trkpt lat="42.79071" lon="-0.02762">
        <ele>1849.349</ele>
        <time>2023-05-31T13:26:25Z</time>
      </trkpt>
      <trkpt lat="42.79077" lon="-0.02762">
        <ele>1847.593</ele>
        <time>2023-05-31T13:26:34Z</time>
      </trkpt>
      <trkpt lat="42.79081" lon="-0.02759">
        <ele>1845.772</ele>
        <time>2023-05-31T13:26:41Z</time>
      </trkpt>
      <trkpt lat="42.79085" lon="-0.02756">
        <ele>1843.949</ele>
        <time>2023-05-31T13:29:32Z</time>
      </trkpt>
      <trkpt lat="42.79089" lon="-0.02753">
        <ele>1841.528</ele>
        <time>2023-05-31T13:29:38Z</time>
      </trkpt>
      <trkpt lat="42.79094" lon="-0.02753">
        <ele>1839.738</ele>
        <time>2023-05-31T13:29:46Z</time>
      </trkpt>
      <trkpt lat="42.79098" lon="-0.02753">
        <ele>1838.67</ele>
        <time>2023-05-31T13:29:56Z</time>
      </trkpt>
      <trkpt lat="42.79102" lon="-0.02757">
        <ele>1837.817</ele>
        <time>2023-05-31T13:30:05Z</time>
      </trkpt>
      <trkpt lat="42.79107" lon="-0.02757">
        <ele>1836.609</ele>
        <time>2023-05-31T13:30:28Z</time>
      </trkpt>
      <trkpt lat="42.79112" lon="-0.02757">
        <ele>1835.064</ele>
        <time>2023-05-31T13:30:39Z</time>
      </trkpt>
      <trkpt lat="42.79115" lon="-0.02753">
        <ele>1833.286</ele>
        <time>2023-05-31T13:30:46Z</time>
      </trkpt>
      <trkpt lat="42.7912" lon="-0.02754">
        <ele>1831.719</ele>
        <time>2023-05-31T13:30:54Z</time>
      </trkpt>
      <trkpt lat="42.79124" lon="-0.02758">
        <ele>1830.386</ele>
        <time>2023-05-31T13:31:02Z</time>
      </trkpt>
      <trkpt lat="42.79129" lon="-0.0276">
        <ele>1828.756</ele>
        <time>2023-05-31T13:31:11Z</time>
      </trkpt>
      <trkpt lat="42.79133" lon="-0.02763">
        <ele>1827.03</ele>
        <time>2023-05-31T13:31:21Z</time>
      </trkpt>
      <trkpt lat="42.79138" lon="-0.02764">
        <ele>1825.379</ele>
        <time>2023-05-31T13:31:36Z</time>
      </trkpt>
      <trkpt lat="42.79139" lon="-0.02771">
        <ele>1823.886</ele>
        <time>2023-05-31T13:31:44Z</time>
      </trkpt>
      <trkpt lat="42.79141" lon="-0.02777">
        <ele>1822.255</ele>
        <time>2023-05-31T13:31:53Z</time>
      </trkpt>
      <trkpt lat="42.79146" lon="-0.02778">
        <ele>1820.433</ele>
        <time>2023-05-31T13:32:10Z</time>
      </trkpt>
      <trkpt lat="42.7915" lon="-0.02781">
        <ele>1818.923</ele>
        <time>2023-05-31T13:32:22Z</time>
      </trkpt>
      <trkpt lat="42.7915" lon="-0.02788">
        <ele>1817.215</ele>
        <time>2023-05-31T13:32:29Z</time>
      </trkpt>
      <trkpt lat="42.79153" lon="-0.02794">
        <ele>1814.909</ele>
        <time>2023-05-31T13:32:43Z</time>
      </trkpt>
      <trkpt lat="42.79155" lon="-0.02799">
        <ele>1812.114</ele>
        <time>2023-05-31T13:32:49Z</time>
      </trkpt>
      <trkpt lat="42.79158" lon="-0.02805">
        <ele>1809.956</ele>
        <time>2023-05-31T13:32:55Z</time>
      </trkpt>
      <trkpt lat="42.79158" lon="-0.02812">
        <ele>1808.959</ele>
        <time>2023-05-31T13:33:02Z</time>
      </trkpt>
      <trkpt lat="42.7916" lon="-0.02818">
        <ele>1808.286</ele>
        <time>2023-05-31T13:33:13Z</time>
      </trkpt>
      <trkpt lat="42.79159" lon="-0.02825">
        <ele>1807.356</ele>
        <time>2023-05-31T13:33:21Z</time>
      </trkpt>
      <trkpt lat="42.79163" lon="-0.02828">
        <ele>1805.09</ele>
        <time>2023-05-31T13:33:35Z</time>
      </trkpt>
      <trkpt lat="42.79168" lon="-0.02829">
        <ele>1802.419</ele>
        <time>2023-05-31T13:33:42Z</time>
      </trkpt>
      <trkpt lat="42.79173" lon="-0.02828">
        <ele>1800.116</ele>
        <time>2023-05-31T13:33:48Z</time>
      </trkpt>
      <trkpt lat="42.79177" lon="-0.0283">
        <ele>1797.815</ele>
        <time>2023-05-31T13:33:57Z</time>
      </trkpt>
      <trkpt lat="42.7918" lon="-0.02836">
        <ele>1795.851</ele>
        <time>2023-05-31T13:34:11Z</time>
      </trkpt>
      <trkpt lat="42.79182" lon="-0.02841">
        <ele>1793.901</ele>
        <time>2023-05-31T13:34:37Z</time>
      </trkpt>
      <trkpt lat="42.79184" lon="-0.02847">
        <ele>1791.911</ele>
        <time>2023-05-31T13:34:42Z</time>
      </trkpt>
      <trkpt lat="42.79185" lon="-0.02853">
        <ele>1790.109</ele>
        <time>2023-05-31T13:35:27Z</time>
      </trkpt>
      <trkpt lat="42.79184" lon="-0.0286">
        <ele>1788.876</ele>
        <time>2023-05-31T13:35:36Z</time>
      </trkpt>
      <trkpt lat="42.79183" lon="-0.02866">
        <ele>1786.128</ele>
        <time>2023-05-31T13:35:51Z</time>
      </trkpt>
      <trkpt lat="42.79181" lon="-0.02873">
        <ele>1783.931</ele>
        <time>2023-05-31T13:36:00Z</time>
      </trkpt>
      <trkpt lat="42.79179" lon="-0.02878">
        <ele>1783.368</ele>
        <time>2023-05-31T13:36:08Z</time>
      </trkpt>
      <trkpt lat="42.79179" lon="-0.02885">
        <ele>1781.728</ele>
        <time>2023-05-31T13:36:17Z</time>
      </trkpt>
      <trkpt lat="42.79183" lon="-0.02885">
        <ele>1780.142</ele>
        <time>2023-05-31T13:36:34Z</time>
      </trkpt>
      <trkpt lat="42.79185" lon="-0.02891">
        <ele>1778.931</ele>
        <time>2023-05-31T13:36:45Z</time>
      </trkpt>
      <trkpt lat="42.79185" lon="-0.02897">
        <ele>1777.088</ele>
        <time>2023-05-31T13:36:54Z</time>
      </trkpt>
      <trkpt lat="42.79188" lon="-0.02903">
        <ele>1774.917</ele>
        <time>2023-05-31T13:37:10Z</time>
      </trkpt>
      <trkpt lat="42.79188" lon="-0.02909">
        <ele>1772.027</ele>
        <time>2023-05-31T13:37:22Z</time>
      </trkpt>
      <trkpt lat="42.79189" lon="-0.02916">
        <ele>1769.768</ele>
        <time>2023-05-31T13:37:36Z</time>
      </trkpt>
      <trkpt lat="42.79187" lon="-0.02922">
        <ele>1768.714</ele>
        <time>2023-05-31T13:37:44Z</time>
      </trkpt>
      <trkpt lat="42.79184" lon="-0.02927">
        <ele>1767.509</ele>
        <time>2023-05-31T13:37:52Z</time>
      </trkpt>
      <trkpt lat="42.79181" lon="-0.02932">
        <ele>1766.913</ele>
        <time>2023-05-31T13:37:59Z</time>
      </trkpt>
      <trkpt lat="42.79179" lon="-0.02939">
        <ele>1765.925</ele>
        <time>2023-05-31T13:38:05Z</time>
      </trkpt>
      <trkpt lat="42.79178" lon="-0.02945">
        <ele>1764.678</ele>
        <time>2023-05-31T13:39:02Z</time>
      </trkpt>
      <trkpt lat="42.7918" lon="-0.02951">
        <ele>1763.385</ele>
        <time>2023-05-31T13:39:11Z</time>
      </trkpt>
      <trkpt lat="42.79179" lon="-0.02957">
        <ele>1761.665</ele>
        <time>2023-05-31T13:39:19Z</time>
      </trkpt>
      <trkpt lat="42.7918" lon="-0.02964">
        <ele>1759.819</ele>
        <time>2023-05-31T13:39:26Z</time>
      </trkpt>
      <trkpt lat="42.7918" lon="-0.02971">
        <ele>1757.068</ele>
        <time>2023-05-31T13:39:35Z</time>
      </trkpt>
      <trkpt lat="42.79184" lon="-0.02976">
        <ele>1754.585</ele>
        <time>2023-05-31T13:39:44Z</time>
      </trkpt>
      <trkpt lat="42.79186" lon="-0.02981">
        <ele>1751.464</ele>
        <time>2023-05-31T13:39:50Z</time>
      </trkpt>
      <trkpt lat="42.79187" lon="-0.02988">
        <ele>1748.752</ele>
        <time>2023-05-31T13:39:56Z</time>
      </trkpt>
      <trkpt lat="42.79187" lon="-0.02995">
        <ele>1747.553</ele>
        <time>2023-05-31T13:40:22Z</time>
      </trkpt>
      <trkpt lat="42.79192" lon="-0.02997">
        <ele>1746.608</ele>
        <time>2023-05-31T13:40:31Z</time>
      </trkpt>
      <trkpt lat="42.79193" lon="-0.03003">
        <ele>1745.109</ele>
        <time>2023-05-31T13:40:37Z</time>
      </trkpt>
      <trkpt lat="42.79196" lon="-0.03009">
        <ele>1743.256</ele>
        <time>2023-05-31T13:40:42Z</time>
      </trkpt>
      <trkpt lat="42.79199" lon="-0.03014">
        <ele>1741.558</ele>
        <time>2023-05-31T13:40:48Z</time>
      </trkpt>
      <trkpt lat="42.79202" lon="-0.0302">
        <ele>1739.941</ele>
        <time>2023-05-31T13:40:53Z</time>
      </trkpt>
      <trkpt lat="42.79206" lon="-0.03023">
        <ele>1738.448</ele>
        <time>2023-05-31T13:40:57Z</time>
      </trkpt>
      <trkpt lat="42.7921" lon="-0.03027">
        <ele>1736.338</ele>
        <time>2023-05-31T13:41:02Z</time>
      </trkpt>
      <trkpt lat="42.79214" lon="-0.03023">
        <ele>1734.842</ele>
        <time>2023-05-31T13:41:09Z</time>
      </trkpt>
      <trkpt lat="42.79218" lon="-0.03019">
        <ele>1733.611</ele>
        <time>2023-05-31T13:41:17Z</time>
      </trkpt>
      <trkpt lat="42.7922" lon="-0.03013">
        <ele>1731.298</ele>
        <time>2023-05-31T13:41:22Z</time>
      </trkpt>
      <trkpt lat="42.79224" lon="-0.03007">
        <ele>1728.097</ele>
        <time>2023-05-31T13:41:29Z</time>
      </trkpt>
      <trkpt lat="42.79227" lon="-0.03002">
        <ele>1726.479</ele>
        <time>2023-05-31T13:41:35Z</time>
      </trkpt>
      <trkpt lat="42.7923" lon="-0.02997">
        <ele>1726.405</ele>
        <time>2023-05-31T13:41:41Z</time>
      </trkpt>
      <trkpt lat="42.79234" lon="-0.02993">
        <ele>1726.325</ele>
        <time>2023-05-31T13:41:47Z</time>
      </trkpt>
      <trkpt lat="42.79236" lon="-0.02987">
        <ele>1726.309</ele>
        <time>2023-05-31T13:41:54Z</time>
      </trkpt>
      <trkpt lat="42.79241" lon="-0.02984">
        <ele>1725.318</ele>
        <time>2023-05-31T13:41:59Z</time>
      </trkpt>
      <trkpt lat="42.79245" lon="-0.02981">
        <ele>1724.35</ele>
        <time>2023-05-31T13:42:06Z</time>
      </trkpt>
      <trkpt lat="42.79248" lon="-0.02976">
        <ele>1723.983</ele>
        <time>2023-05-31T13:42:15Z</time>
      </trkpt>
      <trkpt lat="42.79253" lon="-0.02975">
        <ele>1722.82</ele>
        <time>2023-05-31T13:42:22Z</time>
      </trkpt>
      <trkpt lat="42.79256" lon="-0.02969">
        <ele>1721.43</ele>
        <time>2023-05-31T13:42:29Z</time>
      </trkpt>
      <trkpt lat="42.79258" lon="-0.02963">
        <ele>1719.394</ele>
        <time>2023-05-31T13:42:35Z</time>
      </trkpt>
      <trkpt lat="42.79258" lon="-0.02957">
        <ele>1717.573</ele>
        <time>2023-05-31T13:42:43Z</time>
      </trkpt>
      <trkpt lat="42.79263" lon="-0.02954">
        <ele>1717.04</ele>
        <time>2023-05-31T13:42:55Z</time>
      </trkpt>
      <trkpt lat="42.79267" lon="-0.02953">
        <ele>1716.839</ele>
        <time>2023-05-31T13:43:09Z</time>
      </trkpt>
      <trkpt lat="42.79272" lon="-0.02952">
        <ele>1716.652</ele>
        <time>2023-05-31T13:43:15Z</time>
      </trkpt>
      <trkpt lat="42.79276" lon="-0.02949">
        <ele>1714.953</ele>
        <time>2023-05-31T13:43:23Z</time>
      </trkpt>
      <trkpt lat="42.79278" lon="-0.02943">
        <ele>1712.608</ele>
        <time>2023-05-31T13:43:29Z</time>
      </trkpt>
      <trkpt lat="42.79282" lon="-0.02939">
        <ele>1711.409</ele>
        <time>2023-05-31T13:43:34Z</time>
      </trkpt>
      <trkpt lat="42.79287" lon="-0.02937">
        <ele>1710.856</ele>
        <time>2023-05-31T13:43:40Z</time>
      </trkpt>
      <trkpt lat="42.79291" lon="-0.02935">
        <ele>1710.298</ele>
        <time>2023-05-31T13:43:46Z</time>
      </trkpt>
      <trkpt lat="42.79296" lon="-0.02932">
        <ele>1709.631</ele>
        <time>2023-05-31T13:43:52Z</time>
      </trkpt>
      <trkpt lat="42.79301" lon="-0.02931">
        <ele>1709.178</ele>
        <time>2023-05-31T13:43:58Z</time>
      </trkpt>
      <trkpt lat="42.79305" lon="-0.02932">
        <ele>1708.538</ele>
        <time>2023-05-31T13:44:02Z</time>
      </trkpt>
      <trkpt lat="42.7931" lon="-0.02932">
        <ele>1707.522</ele>
        <time>2023-05-31T13:44:09Z</time>
      </trkpt>
      <trkpt lat="42.79315" lon="-0.0293">
        <ele>1706.871</ele>
        <time>2023-05-31T13:44:15Z</time>
      </trkpt>
      <trkpt lat="42.79317" lon="-0.02924">
        <ele>1703.528</ele>
        <time>2023-05-31T13:44:19Z</time>
      </trkpt>
      <trkpt lat="42.79322" lon="-0.02921">
        <ele>1698.217</ele>
        <time>2023-05-31T13:44:25Z</time>
      </trkpt>
      <trkpt lat="42.79326" lon="-0.02916">
        <ele>1697.256</ele>
        <time>2023-05-31T13:44:33Z</time>
      </trkpt>
      <trkpt lat="42.7933" lon="-0.02912">
        <ele>1696.959</ele>
        <time>2023-05-31T13:44:40Z</time>
      </trkpt>
      <trkpt lat="42.79335" lon="-0.02909">
        <ele>1696.214</ele>
        <time>2023-05-31T13:44:49Z</time>
      </trkpt>
      <trkpt lat="42.79339" lon="-0.02907">
        <ele>1696.109</ele>
        <time>2023-05-31T13:44:57Z</time>
      </trkpt>
      <trkpt lat="42.79344" lon="-0.02903">
        <ele>1696.016</ele>
        <time>2023-05-31T13:45:02Z</time>
      </trkpt>
      <trkpt lat="42.79348" lon="-0.02904">
        <ele>1695.468</ele>
        <time>2023-05-31T13:45:10Z</time>
      </trkpt>
      <trkpt lat="42.79352" lon="-0.02901">
        <ele>1694.551</ele>
        <time>2023-05-31T13:45:19Z</time>
      </trkpt>
      <trkpt lat="42.79357" lon="-0.02901">
        <ele>1694.038</ele>
        <time>2023-05-31T13:45:28Z</time>
      </trkpt>
      <trkpt lat="42.79359" lon="-0.02894">
        <ele>1693.228</ele>
        <time>2023-05-31T13:45:38Z</time>
      </trkpt>
      <trkpt lat="42.79363" lon="-0.02891">
        <ele>1691.462</ele>
        <time>2023-05-31T13:45:45Z</time>
      </trkpt>
      <trkpt lat="42.79366" lon="-0.02886">
        <ele>1689.931</ele>
        <time>2023-05-31T13:45:53Z</time>
      </trkpt>
      <trkpt lat="42.79371" lon="-0.02883">
        <ele>1688.968</ele>
        <time>2023-05-31T13:45:59Z</time>
      </trkpt>
      <trkpt lat="42.79375" lon="-0.0288">
        <ele>1687.117</ele>
        <time>2023-05-31T13:46:03Z</time>
      </trkpt>
      <trkpt lat="42.7938" lon="-0.02881">
        <ele>1685.838</ele>
        <time>2023-05-31T13:46:11Z</time>
      </trkpt>
      <trkpt lat="42.79385" lon="-0.0288">
        <ele>1685.57</ele>
        <time>2023-05-31T13:46:21Z</time>
      </trkpt>
      <trkpt lat="42.79388" lon="-0.02876">
        <ele>1685.317</ele>
        <time>2023-05-31T13:46:28Z</time>
      </trkpt>
      <trkpt lat="42.79393" lon="-0.02873">
        <ele>1684.309</ele>
        <time>2023-05-31T13:46:38Z</time>
      </trkpt>
      <trkpt lat="42.79396" lon="-0.02869">
        <ele>1681.914</ele>
        <time>2023-05-31T13:46:48Z</time>
      </trkpt>
      <trkpt lat="42.79399" lon="-0.02863">
        <ele>1679.766</ele>
        <time>2023-05-31T13:46:56Z</time>
      </trkpt>
      <trkpt lat="42.794" lon="-0.02857">
        <ele>1677.869</ele>
        <time>2023-05-31T13:47:08Z</time>
      </trkpt>
      <trkpt lat="42.79405" lon="-0.02858">
        <ele>1675.736</ele>
        <time>2023-05-31T13:47:19Z</time>
      </trkpt>
      <trkpt lat="42.79409" lon="-0.02853">
        <ele>1674.326</ele>
        <time>2023-05-31T13:47:28Z</time>
      </trkpt>
      <trkpt lat="42.79413" lon="-0.0285">
        <ele>1672.56</ele>
        <time>2023-05-31T13:47:40Z</time>
      </trkpt>
      <trkpt lat="42.79415" lon="-0.02843">
        <ele>1669.549</ele>
        <time>2023-05-31T13:47:49Z</time>
      </trkpt>
      <trkpt lat="42.79417" lon="-0.02837">
        <ele>1666.416</ele>
        <time>2023-05-31T13:47:57Z</time>
      </trkpt>
      <trkpt lat="42.79422" lon="-0.02834">
        <ele>1664.185</ele>
        <time>2023-05-31T13:48:07Z</time>
      </trkpt>
      <trkpt lat="42.79426" lon="-0.02832">
        <ele>1662.041</ele>
        <time>2023-05-31T13:48:14Z</time>
      </trkpt>
      <trkpt lat="42.7943" lon="-0.02829">
        <ele>1660.981</ele>
        <time>2023-05-31T13:48:22Z</time>
      </trkpt>
      <trkpt lat="42.79435" lon="-0.02827">
        <ele>1659.809</ele>
        <time>2023-05-31T13:48:30Z</time>
      </trkpt>
      <trkpt lat="42.79435" lon="-0.0282">
        <ele>1658.709</ele>
        <time>2023-05-31T13:48:45Z</time>
      </trkpt>
      <trkpt lat="42.79432" lon="-0.02816">
        <ele>1658.345</ele>
        <time>2023-05-31T13:48:54Z</time>
      </trkpt>
      <trkpt lat="42.79438" lon="-0.02815">
        <ele>1654.877</ele>
        <time>2023-05-31T13:49:03Z</time>
      </trkpt>
      <trkpt lat="42.79438" lon="-0.02807">
        <ele>1651.66</ele>
        <time>2023-05-31T13:49:15Z</time>
      </trkpt>
      <trkpt lat="42.79443" lon="-0.02809">
        <ele>1650.457</ele>
        <time>2023-05-31T13:49:23Z</time>
      </trkpt>
      <trkpt lat="42.79447" lon="-0.02806">
        <ele>1648.397</ele>
        <time>2023-05-31T13:49:42Z</time>
      </trkpt>
      <trkpt lat="42.79446" lon="-0.02799">
        <ele>1646.731</ele>
        <time>2023-05-31T13:49:50Z</time>
      </trkpt>
      <trkpt lat="42.79448" lon="-0.02794">
        <ele>1644.06</ele>
        <time>2023-05-31T13:49:57Z</time>
      </trkpt>
      <trkpt lat="42.79451" lon="-0.0279">
        <ele>1641.467</ele>
        <time>2023-05-31T13:50:02Z</time>
      </trkpt>
      <trkpt lat="42.79452" lon="-0.02783">
        <ele>1639.666</ele>
        <time>2023-05-31T13:50:09Z</time>
      </trkpt>
      <trkpt lat="42.79455" lon="-0.02778">
        <ele>1638.199</ele>
        <time>2023-05-31T13:50:18Z</time>
      </trkpt>
      <trkpt lat="42.79458" lon="-0.02773">
        <ele>1637.407</ele>
        <time>2023-05-31T13:50:26Z</time>
      </trkpt>
      <trkpt lat="42.79459" lon="-0.02767">
        <ele>1636.527</ele>
        <time>2023-05-31T13:50:33Z</time>
      </trkpt>
      <trkpt lat="42.79461" lon="-0.02761">
        <ele>1635.809</ele>
        <time>2023-05-31T13:50:46Z</time>
      </trkpt>
      <trkpt lat="42.79464" lon="-0.02757">
        <ele>1635.35</ele>
        <time>2023-05-31T13:50:53Z</time>
      </trkpt>
      <trkpt lat="42.79467" lon="-0.02751">
        <ele>1633.022</ele>
        <time>2023-05-31T13:51:05Z</time>
      </trkpt>
      <trkpt lat="42.79471" lon="-0.02748">
        <ele>1630.115</ele>
        <time>2023-05-31T13:51:15Z</time>
      </trkpt>
      <trkpt lat="42.79475" lon="-0.02745">
        <ele>1627.412</ele>
        <time>2023-05-31T13:51:22Z</time>
      </trkpt>
      <trkpt lat="42.79479" lon="-0.02743">
        <ele>1624.872</ele>
        <time>2023-05-31T13:51:29Z</time>
      </trkpt>
      <trkpt lat="42.79482" lon="-0.02737">
        <ele>1623.636</ele>
        <time>2023-05-31T13:51:41Z</time>
      </trkpt>
      <trkpt lat="42.79482" lon="-0.02731">
        <ele>1622.595</ele>
        <time>2023-05-31T13:51:56Z</time>
      </trkpt>
      <trkpt lat="42.79484" lon="-0.02737">
        <ele>1620.612</ele>
        <time>2023-05-31T13:52:02Z</time>
      </trkpt>
      <trkpt lat="42.79488" lon="-0.02734">
        <ele>1619.191</ele>
        <time>2023-05-31T13:54:29Z</time>
      </trkpt>
      <trkpt lat="42.79492" lon="-0.02729">
        <ele>1618.861</ele>
        <time>2023-05-31T13:54:47Z</time>
      </trkpt>
      <trkpt lat="42.79494" lon="-0.02724">
        <ele>1617.721</ele>
        <time>2023-05-31T13:54:58Z</time>
      </trkpt>
      <trkpt lat="42.79495" lon="-0.02716">
        <ele>1615.013</ele>
        <time>2023-05-31T13:55:07Z</time>
      </trkpt>
      <trkpt lat="42.79497" lon="-0.0271">
        <ele>1612.609</ele>
        <time>2023-05-31T13:55:13Z</time>
      </trkpt>
      <trkpt lat="42.79497" lon="-0.02703">
        <ele>1611.667</ele>
        <time>2023-05-31T13:55:22Z</time>
      </trkpt>
      <trkpt lat="42.795" lon="-0.02698">
        <ele>1610.789</ele>
        <time>2023-05-31T13:55:28Z</time>
      </trkpt>
      <trkpt lat="42.79503" lon="-0.02693">
        <ele>1609.672</ele>
        <time>2023-05-31T13:55:35Z</time>
      </trkpt>
      <trkpt lat="42.79503" lon="-0.02687">
        <ele>1607.939</ele>
        <time>2023-05-31T13:55:44Z</time>
      </trkpt>
      <trkpt lat="42.79504" lon="-0.0268">
        <ele>1605.769</ele>
        <time>2023-05-31T13:55:52Z</time>
      </trkpt>
      <trkpt lat="42.79506" lon="-0.02674">
        <ele>1604.043</ele>
        <time>2023-05-31T13:56:02Z</time>
      </trkpt>
      <trkpt lat="42.79508" lon="-0.02668">
        <ele>1602.262</ele>
        <time>2023-05-31T13:56:12Z</time>
      </trkpt>
      <trkpt lat="42.79509" lon="-0.02661">
        <ele>1601.049</ele>
        <time>2023-05-31T13:56:22Z</time>
      </trkpt>
      <trkpt lat="42.79514" lon="-0.02662">
        <ele>1600.648</ele>
        <time>2023-05-31T13:56:32Z</time>
      </trkpt>
      <trkpt lat="42.79519" lon="-0.02659">
        <ele>1598.182</ele>
        <time>2023-05-31T13:56:37Z</time>
      </trkpt>
      <trkpt lat="42.79521" lon="-0.02665">
        <ele>1595.943</ele>
        <time>2023-05-31T13:56:45Z</time>
      </trkpt>
      <trkpt lat="42.79525" lon="-0.02663">
        <ele>1595.617</ele>
        <time>2023-05-31T13:57:03Z</time>
      </trkpt>
      <trkpt lat="42.79526" lon="-0.02656">
        <ele>1593.909</ele>
        <time>2023-05-31T13:57:10Z</time>
      </trkpt>
      <trkpt lat="42.79523" lon="-0.0265">
        <ele>1591.879</ele>
        <time>2023-05-31T13:57:17Z</time>
      </trkpt>
      <trkpt lat="42.79523" lon="-0.02643">
        <ele>1589.711</ele>
        <time>2023-05-31T13:57:23Z</time>
      </trkpt>
      <trkpt lat="42.79523" lon="-0.02636">
        <ele>1586.744</ele>
        <time>2023-05-31T13:57:29Z</time>
      </trkpt>
      <trkpt lat="42.79525" lon="-0.0263">
        <ele>1584.421</ele>
        <time>2023-05-31T13:57:34Z</time>
      </trkpt>
      <trkpt lat="42.79527" lon="-0.02624">
        <ele>1583.071</ele>
        <time>2023-05-31T13:57:39Z</time>
      </trkpt>
      <trkpt lat="42.79525" lon="-0.02618">
        <ele>1581.795</ele>
        <time>2023-05-31T13:57:45Z</time>
      </trkpt>
      <trkpt lat="42.79528" lon="-0.02612">
        <ele>1580.254</ele>
        <time>2023-05-31T13:57:53Z</time>
      </trkpt>
      <trkpt lat="42.79527" lon="-0.02605">
        <ele>1579.391</ele>
        <time>2023-05-31T13:57:58Z</time>
      </trkpt>
      <trkpt lat="42.79526" lon="-0.02599">
        <ele>1578.72</ele>
        <time>2023-05-31T13:58:04Z</time>
      </trkpt>
      <trkpt lat="42.79528" lon="-0.02592">
        <ele>1577.476</ele>
        <time>2023-05-31T13:58:10Z</time>
      </trkpt>
      <trkpt lat="42.79527" lon="-0.02585">
        <ele>1576.49</ele>
        <time>2023-05-31T13:58:16Z</time>
      </trkpt>
      <trkpt lat="42.79523" lon="-0.02582">
        <ele>1575.619</ele>
        <time>2023-05-31T13:58:24Z</time>
      </trkpt>
      <trkpt lat="42.79519" lon="-0.02576">
        <ele>1574.809</ele>
        <time>2023-05-31T13:58:32Z</time>
      </trkpt>
      <trkpt lat="42.7952" lon="-0.02569">
        <ele>1573.928</ele>
        <time>2023-05-31T13:58:39Z</time>
      </trkpt>
      <trkpt lat="42.79519" lon="-0.02562">
        <ele>1573.04</ele>
        <time>2023-05-31T13:58:45Z</time>
      </trkpt>
      <trkpt lat="42.79517" lon="-0.02556">
        <ele>1572.213</ele>
        <time>2023-05-31T13:58:50Z</time>
      </trkpt>
      <trkpt lat="42.79517" lon="-0.02549">
        <ele>1570.14</ele>
        <time>2023-05-31T13:58:55Z</time>
      </trkpt>
      <trkpt lat="42.79518" lon="-0.02543">
        <ele>1568.91</ele>
        <time>2023-05-31T13:58:59Z</time>
      </trkpt>
      <trkpt lat="42.79522" lon="-0.02537">
        <ele>1568.094</ele>
        <time>2023-05-31T13:59:04Z</time>
      </trkpt>
      <trkpt lat="42.79521" lon="-0.02531">
        <ele>1567.263</ele>
        <time>2023-05-31T13:59:13Z</time>
      </trkpt>
      <trkpt lat="42.79521" lon="-0.02524">
        <ele>1566.61</ele>
        <time>2023-05-31T13:59:20Z</time>
      </trkpt>
      <trkpt lat="42.79523" lon="-0.02519">
        <ele>1566.349</ele>
        <time>2023-05-31T13:59:27Z</time>
      </trkpt>
      <trkpt lat="42.79524" lon="-0.02512">
        <ele>1564.829</ele>
        <time>2023-05-31T13:59:34Z</time>
      </trkpt>
      <trkpt lat="42.79523" lon="-0.02506">
        <ele>1562.6</ele>
        <time>2023-05-31T13:59:40Z</time>
      </trkpt>
      <trkpt lat="42.79523" lon="-0.02499">
        <ele>1561.42</ele>
        <time>2023-05-31T13:59:46Z</time>
      </trkpt>
      <trkpt lat="42.79527" lon="-0.02494">
        <ele>1560.209</ele>
        <time>2023-05-31T13:59:52Z</time>
      </trkpt>
      <trkpt lat="42.79526" lon="-0.02487">
        <ele>1559.113</ele>
        <time>2023-05-31T13:59:59Z</time>
      </trkpt>
      <trkpt lat="42.79526" lon="-0.02481">
        <ele>1558.445</ele>
        <time>2023-05-31T14:00:05Z</time>
      </trkpt>
      <trkpt lat="42.79526" lon="-0.02474">
        <ele>1557.368</ele>
        <time>2023-05-31T14:00:12Z</time>
      </trkpt>
      <trkpt lat="42.79525" lon="-0.02466">
        <ele>1555.715</ele>
        <time>2023-05-31T14:00:18Z</time>
      </trkpt>
      <trkpt lat="42.79522" lon="-0.02461">
        <ele>1554.385</ele>
        <time>2023-05-31T14:00:25Z</time>
      </trkpt>
      <trkpt lat="42.79525" lon="-0.02456">
        <ele>1553.059</ele>
        <time>2023-05-31T14:00:30Z</time>
      </trkpt>
      <trkpt lat="42.79528" lon="-0.0245">
        <ele>1551.558</ele>
        <time>2023-05-31T14:00:36Z</time>
      </trkpt>
      <trkpt lat="42.79525" lon="-0.02445">
        <ele>1550.575</ele>
        <time>2023-05-31T14:00:40Z</time>
      </trkpt>
      <trkpt lat="42.79526" lon="-0.02439">
        <ele>1549.334</ele>
        <time>2023-05-31T14:00:45Z</time>
      </trkpt>
      <trkpt lat="42.79525" lon="-0.02432">
        <ele>1548.352</ele>
        <time>2023-05-31T14:00:52Z</time>
      </trkpt>
      <trkpt lat="42.79524" lon="-0.02426">
        <ele>1547.353</ele>
        <time>2023-05-31T14:00:59Z</time>
      </trkpt>
      <trkpt lat="42.79522" lon="-0.0242">
        <ele>1546.308</ele>
        <time>2023-05-31T14:01:06Z</time>
      </trkpt>
      <trkpt lat="42.79525" lon="-0.02414">
        <ele>1545.609</ele>
        <time>2023-05-31T14:01:11Z</time>
      </trkpt>
      <trkpt lat="42.79527" lon="-0.02409">
        <ele>1544.266</ele>
        <time>2023-05-31T14:01:18Z</time>
      </trkpt>
      <trkpt lat="42.7953" lon="-0.02403">
        <ele>1543.088</ele>
        <time>2023-05-31T14:01:26Z</time>
      </trkpt>
      <trkpt lat="42.79533" lon="-0.02398">
        <ele>1542.531</ele>
        <time>2023-05-31T14:01:32Z</time>
      </trkpt>
      <trkpt lat="42.79533" lon="-0.0239">
        <ele>1542.048</ele>
        <time>2023-05-31T14:01:37Z</time>
      </trkpt>
      <trkpt lat="42.79531" lon="-0.02384">
        <ele>1541.518</ele>
        <time>2023-05-31T14:01:42Z</time>
      </trkpt>
      <trkpt lat="42.7953" lon="-0.02378">
        <ele>1541.392</ele>
        <time>2023-05-31T14:01:48Z</time>
      </trkpt>
      <trkpt lat="42.79529" lon="-0.02371">
        <ele>1541.011</ele>
        <time>2023-05-31T14:01:54Z</time>
      </trkpt>
      <trkpt lat="42.79529" lon="-0.02365">
        <ele>1540.798</ele>
        <time>2023-05-31T14:01:59Z</time>
      </trkpt>
      <trkpt lat="42.7953" lon="-0.02358">
        <ele>1540.477</ele>
        <time>2023-05-31T14:02:05Z</time>
      </trkpt>
      <trkpt lat="42.79531" lon="-0.02351">
        <ele>1540.187</ele>
        <time>2023-05-31T14:02:09Z</time>
      </trkpt>
      <trkpt lat="42.79531" lon="-0.02345">
        <ele>1539.142</ele>
        <time>2023-05-31T14:02:14Z</time>
      </trkpt>
      <trkpt lat="42.79531" lon="-0.02338">
        <ele>1538.026</ele>
        <time>2023-05-31T14:02:20Z</time>
      </trkpt>
      <trkpt lat="42.79535" lon="-0.02334">
        <ele>1537.809</ele>
        <time>2023-05-31T14:02:27Z</time>
      </trkpt>
      <trkpt lat="42.79537" lon="-0.02327">
        <ele>1537.439</ele>
        <time>2023-05-31T14:02:33Z</time>
      </trkpt>
      <trkpt lat="42.79535" lon="-0.02321">
        <ele>1536.471</ele>
        <time>2023-05-31T14:02:38Z</time>
      </trkpt>
      <trkpt lat="42.79537" lon="-0.02314">
        <ele>1535.574</ele>
        <time>2023-05-31T14:02:44Z</time>
      </trkpt>
      <trkpt lat="42.79542" lon="-0.02312">
        <ele>1534.821</ele>
        <time>2023-05-31T14:02:48Z</time>
      </trkpt>
      <trkpt lat="42.79546" lon="-0.02308">
        <ele>1534.251</ele>
        <time>2023-05-31T14:02:54Z</time>
      </trkpt>
      <trkpt lat="42.79547" lon="-0.02301">
        <ele>1534.255</ele>
        <time>2023-05-31T14:03:01Z</time>
      </trkpt>
      <trkpt lat="42.79548" lon="-0.02295">
        <ele>1534.564</ele>
        <time>2023-05-31T14:03:07Z</time>
      </trkpt>
      <trkpt lat="42.79547" lon="-0.02288">
        <ele>1534.121</ele>
        <time>2023-05-31T14:03:12Z</time>
      </trkpt>
      <trkpt lat="42.79548" lon="-0.02281">
        <ele>1533.99</ele>
        <time>2023-05-31T14:03:17Z</time>
      </trkpt>
      <trkpt lat="42.79549" lon="-0.02275">
        <ele>1533.924</ele>
        <time>2023-05-31T14:03:22Z</time>
      </trkpt>
      <trkpt lat="42.7955" lon="-0.02269">
        <ele>1533.904</ele>
        <time>2023-05-31T14:03:27Z</time>
      </trkpt>
      <trkpt lat="42.79549" lon="-0.02262">
        <ele>1533.714</ele>
        <time>2023-05-31T14:03:34Z</time>
      </trkpt>
      <trkpt lat="42.7955" lon="-0.02256">
        <ele>1533.509</ele>
        <time>2023-05-31T14:03:39Z</time>
      </trkpt>
      <trkpt lat="42.7955" lon="-0.02249">
        <ele>1533.523</ele>
        <time>2023-05-31T14:03:45Z</time>
      </trkpt>
      <trkpt lat="42.79551" lon="-0.02243">
        <ele>1532.535</ele>
        <time>2023-05-31T14:03:51Z</time>
      </trkpt>
      <trkpt lat="42.7955" lon="-0.02236">
        <ele>1531.198</ele>
        <time>2023-05-31T14:03:57Z</time>
      </trkpt>
      <trkpt lat="42.79552" lon="-0.02229">
        <ele>1529.925</ele>
        <time>2023-05-31T14:04:03Z</time>
      </trkpt>
      <trkpt lat="42.7955" lon="-0.02222">
        <ele>1529.045</ele>
        <time>2023-05-31T14:04:09Z</time>
      </trkpt>
      <trkpt lat="42.79552" lon="-0.02215">
        <ele>1528.489</ele>
        <time>2023-05-31T14:04:14Z</time>
      </trkpt>
      <trkpt lat="42.79554" lon="-0.02209">
        <ele>1527.948</ele>
        <time>2023-05-31T14:04:20Z</time>
      </trkpt>
      <trkpt lat="42.79556" lon="-0.02203">
        <ele>1525.925</ele>
        <time>2023-05-31T14:04:27Z</time>
      </trkpt>
      <trkpt lat="42.79558" lon="-0.02196">
        <ele>1523.944</ele>
        <time>2023-05-31T14:04:34Z</time>
      </trkpt>
      <trkpt lat="42.79559" lon="-0.02189">
        <ele>1522.542</ele>
        <time>2023-05-31T14:04:41Z</time>
      </trkpt>
      <trkpt lat="42.79561" lon="-0.02182">
        <ele>1520.822</ele>
        <time>2023-05-31T14:04:48Z</time>
      </trkpt>
      <trkpt lat="42.79564" lon="-0.02176">
        <ele>1520.214</ele>
        <time>2023-05-31T14:04:55Z</time>
      </trkpt>
      <trkpt lat="42.79565" lon="-0.02169">
        <ele>1518.309</ele>
        <time>2023-05-31T14:05:01Z</time>
      </trkpt>
      <trkpt lat="42.79564" lon="-0.02163">
        <ele>1516.015</ele>
        <time>2023-05-31T14:05:05Z</time>
      </trkpt>
      <trkpt lat="42.79564" lon="-0.02157">
        <ele>1515.087</ele>
        <time>2023-05-31T14:05:11Z</time>
      </trkpt>
      <trkpt lat="42.79568" lon="-0.02152">
        <ele>1514.59</ele>
        <time>2023-05-31T14:05:17Z</time>
      </trkpt>
      <trkpt lat="42.7957" lon="-0.02146">
        <ele>1514.047</ele>
        <time>2023-05-31T14:05:23Z</time>
      </trkpt>
      <trkpt lat="42.79573" lon="-0.0214">
        <ele>1513.557</ele>
        <time>2023-05-31T14:05:31Z</time>
      </trkpt>
      <trkpt lat="42.79575" lon="-0.02134">
        <ele>1512.271</ele>
        <time>2023-05-31T14:05:36Z</time>
      </trkpt>
      <trkpt lat="42.79577" lon="-0.02129">
        <ele>1510.97</ele>
        <time>2023-05-31T14:05:41Z</time>
      </trkpt>
      <trkpt lat="42.79578" lon="-0.02121">
        <ele>1510.187</ele>
        <time>2023-05-31T14:05:46Z</time>
      </trkpt>
      <trkpt lat="42.79579" lon="-0.02115">
        <ele>1509.446</ele>
        <time>2023-05-31T14:05:51Z</time>
      </trkpt>
      <trkpt lat="42.7958" lon="-0.02108">
        <ele>1509.379</ele>
        <time>2023-05-31T14:05:56Z</time>
      </trkpt>
      <trkpt lat="42.79583" lon="-0.02101">
        <ele>1508.905</ele>
        <time>2023-05-31T14:06:01Z</time>
      </trkpt>
      <trkpt lat="42.79586" lon="-0.02095">
        <ele>1508.425</ele>
        <time>2023-05-31T14:06:06Z</time>
      </trkpt>
      <trkpt lat="42.79589" lon="-0.02091">
        <ele>1507.409</ele>
        <time>2023-05-31T14:06:11Z</time>
      </trkpt>
      <trkpt lat="42.7959" lon="-0.02084">
        <ele>1506.688</ele>
        <time>2023-05-31T14:06:15Z</time>
      </trkpt>
      <trkpt lat="42.79591" lon="-0.02078">
        <ele>1506.65</ele>
        <time>2023-05-31T14:06:20Z</time>
      </trkpt>
      <trkpt lat="42.79591" lon="-0.02071">
        <ele>1506.633</ele>
        <time>2023-05-31T14:06:25Z</time>
      </trkpt>
      <trkpt lat="42.79592" lon="-0.02064">
        <ele>1506.79</ele>
        <time>2023-05-31T14:06:31Z</time>
      </trkpt>
      <trkpt lat="42.7959" lon="-0.02057">
        <ele>1506.87</ele>
        <time>2023-05-31T14:06:37Z</time>
      </trkpt>
      <trkpt lat="42.79589" lon="-0.0205">
        <ele>1506.864</ele>
        <time>2023-05-31T14:06:41Z</time>
      </trkpt>
      <trkpt lat="42.79589" lon="-0.02043">
        <ele>1506.853</ele>
        <time>2023-05-31T14:06:46Z</time>
      </trkpt>
      <trkpt lat="42.79589" lon="-0.02036">
        <ele>1505.89</ele>
        <time>2023-05-31T14:06:50Z</time>
      </trkpt>
      <trkpt lat="42.79592" lon="-0.02031">
        <ele>1504.519</ele>
        <time>2023-05-31T14:06:58Z</time>
      </trkpt>
      <trkpt lat="42.79598" lon="-0.0203">
        <ele>1504.185</ele>
        <time>2023-05-31T14:07:11Z</time>
      </trkpt>
      <trkpt lat="42.79598" lon="-0.02024">
        <ele>1503.689</ele>
        <time>2023-05-31T14:07:22Z</time>
      </trkpt>
      <trkpt lat="42.796" lon="-0.02018">
        <ele>1502.917</ele>
        <time>2023-05-31T14:07:29Z</time>
      </trkpt>
      <trkpt lat="42.79602" lon="-0.02012">
        <ele>1501.709</ele>
        <time>2023-05-31T14:07:35Z</time>
      </trkpt>
      <trkpt lat="42.79603" lon="-0.02005">
        <ele>1500.619</ele>
        <time>2023-05-31T14:07:43Z</time>
      </trkpt>
      <trkpt lat="42.79603" lon="-0.01998">
        <ele>1500.261</ele>
        <time>2023-05-31T14:07:53Z</time>
      </trkpt>
      <trkpt lat="42.79606" lon="-0.01993">
        <ele>1499.584</ele>
        <time>2023-05-31T14:07:59Z</time>
      </trkpt>
      <trkpt lat="42.79608" lon="-0.01987">
        <ele>1497.981</ele>
        <time>2023-05-31T14:08:06Z</time>
      </trkpt>
      <trkpt lat="42.7961" lon="-0.01981">
        <ele>1496.511</ele>
        <time>2023-05-31T14:08:13Z</time>
      </trkpt>
      <trkpt lat="42.79612" lon="-0.01973">
        <ele>1496.065</ele>
        <time>2023-05-31T14:08:22Z</time>
      </trkpt>
      <trkpt lat="42.79616" lon="-0.01971">
        <ele>1495.294</ele>
        <time>2023-05-31T14:08:29Z</time>
      </trkpt>
      <trkpt lat="42.7962" lon="-0.01966">
        <ele>1493.921</ele>
        <time>2023-05-31T14:08:38Z</time>
      </trkpt>
      <trkpt lat="42.79622" lon="-0.0196">
        <ele>1491.05</ele>
        <time>2023-05-31T14:08:46Z</time>
      </trkpt>
      <trkpt lat="42.79624" lon="-0.01953">
        <ele>1488.831</ele>
        <time>2023-05-31T14:08:54Z</time>
      </trkpt>
      <trkpt lat="42.79628" lon="-0.01948">
        <ele>1488.261</ele>
        <time>2023-05-31T14:09:02Z</time>
      </trkpt>
      <trkpt lat="42.79631" lon="-0.01944">
        <ele>1486.507</ele>
        <time>2023-05-31T14:09:08Z</time>
      </trkpt>
      <trkpt lat="42.79633" lon="-0.01937">
        <ele>1485.209</ele>
        <time>2023-05-31T14:09:16Z</time>
      </trkpt>
      <trkpt lat="42.79637" lon="-0.01933">
        <ele>1484.624</ele>
        <time>2023-05-31T14:09:22Z</time>
      </trkpt>
      <trkpt lat="42.79642" lon="-0.01934">
        <ele>1483.346</ele>
        <time>2023-05-31T14:09:28Z</time>
      </trkpt>
      <trkpt lat="42.79646" lon="-0.01928">
        <ele>1482.139</ele>
        <time>2023-05-31T14:09:33Z</time>
      </trkpt>
      <trkpt lat="42.79648" lon="-0.01923">
        <ele>1480.636</ele>
        <time>2023-05-31T14:09:38Z</time>
      </trkpt>
      <trkpt lat="42.79651" lon="-0.01918">
        <ele>1479.556</ele>
        <time>2023-05-31T14:09:44Z</time>
      </trkpt>
      <trkpt lat="42.79653" lon="-0.01911">
        <ele>1477.82</ele>
        <time>2023-05-31T14:09:49Z</time>
      </trkpt>
      <trkpt lat="42.79654" lon="-0.01905">
        <ele>1476.029</ele>
        <time>2023-05-31T14:09:55Z</time>
      </trkpt>
      <trkpt lat="42.79656" lon="-0.01898">
        <ele>1475.826</ele>
        <time>2023-05-31T14:10:01Z</time>
      </trkpt>
      <trkpt lat="42.79658" lon="-0.01891">
        <ele>1475.325</ele>
        <time>2023-05-31T14:10:07Z</time>
      </trkpt>
      <trkpt lat="42.79658" lon="-0.01884">
        <ele>1474.841</ele>
        <time>2023-05-31T14:10:13Z</time>
      </trkpt>
      <trkpt lat="42.79657" lon="-0.01877">
        <ele>1474.281</ele>
        <time>2023-05-31T14:10:19Z</time>
      </trkpt>
      <trkpt lat="42.79658" lon="-0.01871">
        <ele>1473.509</ele>
        <time>2023-05-31T14:10:24Z</time>
      </trkpt>
      <trkpt lat="42.79657" lon="-0.01864">
        <ele>1472.509</ele>
        <time>2023-05-31T14:10:28Z</time>
      </trkpt>
      <trkpt lat="42.79656" lon="-0.01858">
        <ele>1471.145</ele>
        <time>2023-05-31T14:10:32Z</time>
      </trkpt>
      <trkpt lat="42.79657" lon="-0.01851">
        <ele>1469.987</ele>
        <time>2023-05-31T14:10:36Z</time>
      </trkpt>
      <trkpt lat="42.79653" lon="-0.01847">
        <ele>1468.47</ele>
        <time>2023-05-31T14:10:40Z</time>
      </trkpt>
      <trkpt lat="42.79653" lon="-0.0184">
        <ele>1466.617</ele>
        <time>2023-05-31T14:10:44Z</time>
      </trkpt>
      <trkpt lat="42.79655" lon="-0.01833">
        <ele>1465.617</ele>
        <time>2023-05-31T14:10:50Z</time>
      </trkpt>
      <trkpt lat="42.79659" lon="-0.01829">
        <ele>1465.091</ele>
        <time>2023-05-31T14:10:55Z</time>
      </trkpt>
      <trkpt lat="42.79661" lon="-0.01823">
        <ele>1464.88</ele>
        <time>2023-05-31T14:10:59Z</time>
      </trkpt>
      <trkpt lat="42.79663" lon="-0.01817">
        <ele>1464.857</ele>
        <time>2023-05-31T14:11:04Z</time>
      </trkpt>
      <trkpt lat="42.79665" lon="-0.01811">
        <ele>1464.686</ele>
        <time>2023-05-31T14:11:08Z</time>
      </trkpt>
      <trkpt lat="42.79667" lon="-0.01805">
        <ele>1464.762</ele>
        <time>2023-05-31T14:11:13Z</time>
      </trkpt>
      <trkpt lat="42.79669" lon="-0.01799">
        <ele>1464.383</ele>
        <time>2023-05-31T14:11:17Z</time>
      </trkpt>
      <trkpt lat="42.7967" lon="-0.01793">
        <ele>1464.111</ele>
        <time>2023-05-31T14:11:21Z</time>
      </trkpt>
      <trkpt lat="42.7967" lon="-0.01785">
        <ele>1463.709</ele>
        <time>2023-05-31T14:11:26Z</time>
      </trkpt>
      <trkpt lat="42.79671" lon="-0.01778">
        <ele>1463.737</ele>
        <time>2023-05-31T14:11:30Z</time>
      </trkpt>
      <trkpt lat="42.79673" lon="-0.01772">
        <ele>1464.199</ele>
        <time>2023-05-31T14:11:35Z</time>
      </trkpt>
      <trkpt lat="42.79675" lon="-0.01765">
        <ele>1464.142</ele>
        <time>2023-05-31T14:11:39Z</time>
      </trkpt>
      <trkpt lat="42.79676" lon="-0.01757">
        <ele>1464.449</ele>
        <time>2023-05-31T14:11:44Z</time>
      </trkpt>
      <trkpt lat="42.79679" lon="-0.0175">
        <ele>1464.469</ele>
        <time>2023-05-31T14:11:48Z</time>
      </trkpt>
      <trkpt lat="42.7968" lon="-0.01743">
        <ele>1463.743</ele>
        <time>2023-05-31T14:11:53Z</time>
      </trkpt>
      <trkpt lat="42.79681" lon="-0.01737">
        <ele>1463.422</ele>
        <time>2023-05-31T14:11:58Z</time>
      </trkpt>
      <trkpt lat="42.79681" lon="-0.01729">
        <ele>1463.199</ele>
        <time>2023-05-31T14:12:04Z</time>
      </trkpt>
      <trkpt lat="42.79681" lon="-0.01723">
        <ele>1462.988</ele>
        <time>2023-05-31T14:12:08Z</time>
      </trkpt>
      <trkpt lat="42.79681" lon="-0.01717">
        <ele>1462.316</ele>
        <time>2023-05-31T14:12:13Z</time>
      </trkpt>
      <trkpt lat="42.7968" lon="-0.01711">
        <ele>1461.276</ele>
        <time>2023-05-31T14:12:18Z</time>
      </trkpt>
      <trkpt lat="42.79681" lon="-0.01704">
        <ele>1460.513</ele>
        <time>2023-05-31T14:12:22Z</time>
      </trkpt>
      <trkpt lat="42.79681" lon="-0.01697">
        <ele>1460.009</ele>
        <time>2023-05-31T14:12:26Z</time>
      </trkpt>
      <trkpt lat="42.79684" lon="-0.01691">
        <ele>1459.532</ele>
        <time>2023-05-31T14:12:30Z</time>
      </trkpt>
      <trkpt lat="42.79685" lon="-0.01684">
        <ele>1459.454</ele>
        <time>2023-05-31T14:12:38Z</time>
      </trkpt>
      <trkpt lat="42.79686" lon="-0.01678">
        <ele>1459.317</ele>
        <time>2023-05-31T14:12:43Z</time>
      </trkpt>
      <trkpt lat="42.79686" lon="-0.01671">
        <ele>1459.174</ele>
        <time>2023-05-31T14:12:48Z</time>
      </trkpt>
      <trkpt lat="42.79687" lon="-0.01664">
        <ele>1458.474</ele>
        <time>2023-05-31T14:12:56Z</time>
      </trkpt>
      <trkpt lat="42.79689" lon="-0.01658">
        <ele>1457.078</ele>
        <time>2023-05-31T14:13:03Z</time>
      </trkpt>
      <trkpt lat="42.7969" lon="-0.01652">
        <ele>1455.537</ele>
        <time>2023-05-31T14:13:08Z</time>
      </trkpt>
      <trkpt lat="42.79692" lon="-0.01646">
        <ele>1454.524</ele>
        <time>2023-05-31T14:13:14Z</time>
      </trkpt>
      <trkpt lat="42.79693" lon="-0.01639">
        <ele>1454.263</ele>
        <time>2023-05-31T14:13:20Z</time>
      </trkpt>
      <trkpt lat="42.79698" lon="-0.01637">
        <ele>1453.722</ele>
        <time>2023-05-31T14:13:26Z</time>
      </trkpt>
      <trkpt lat="42.79701" lon="-0.01633">
        <ele>1452.562</ele>
        <time>2023-05-31T14:13:35Z</time>
      </trkpt>
      <trkpt lat="42.79706" lon="-0.01633">
        <ele>1451.208</ele>
        <time>2023-05-31T14:13:49Z</time>
      </trkpt>
      <trkpt lat="42.79708" lon="-0.01639">
        <ele>1449.809</ele>
        <time>2023-05-31T14:13:55Z</time>
      </trkpt>
      <trkpt lat="42.79711" lon="-0.01645">
        <ele>1448.063</ele>
        <time>2023-05-31T14:14:01Z</time>
      </trkpt>
      <trkpt lat="42.79714" lon="-0.01651">
        <ele>1446.175</ele>
        <time>2023-05-31T14:14:09Z</time>
      </trkpt>
      <trkpt lat="42.79718" lon="-0.01653">
        <ele>1444.898</ele>
        <time>2023-05-31T14:14:15Z</time>
      </trkpt>
      <trkpt lat="42.79722" lon="-0.0166">
        <ele>1443.985</ele>
        <time>2023-05-31T14:14:20Z</time>
      </trkpt>
      <trkpt lat="42.79722" lon="-0.01667">
        <ele>1442.495</ele>
        <time>2023-05-31T14:14:25Z</time>
      </trkpt>
      <trkpt lat="42.79725" lon="-0.01671">
        <ele>1441.249</ele>
        <time>2023-05-31T14:14:34Z</time>
      </trkpt>
      <trkpt lat="42.79729" lon="-0.01676">
        <ele>1440.918</ele>
        <time>2023-05-31T14:14:40Z</time>
      </trkpt>
      <trkpt lat="42.79733" lon="-0.01682">
        <ele>1440.315</ele>
        <time>2023-05-31T14:14:47Z</time>
      </trkpt>
      <trkpt lat="42.79737" lon="-0.01687">
        <ele>1439.634</ele>
        <time>2023-05-31T14:14:54Z</time>
      </trkpt>
      <trkpt lat="42.79741" lon="-0.0169">
        <ele>1438.938</ele>
        <time>2023-05-31T14:14:58Z</time>
      </trkpt>
      <trkpt lat="42.79745" lon="-0.01694">
        <ele>1437.87</ele>
        <time>2023-05-31T14:15:05Z</time>
      </trkpt>
      <trkpt lat="42.79749" lon="-0.01699">
        <ele>1437.317</ele>
        <time>2023-05-31T14:15:09Z</time>
      </trkpt>
      <trkpt lat="42.7975" lon="-0.01706">
        <ele>1437.009</ele>
        <time>2023-05-31T14:15:14Z</time>
      </trkpt>
      <trkpt lat="42.79749" lon="-0.01713">
        <ele>1436.114</ele>
        <time>2023-05-31T14:15:18Z</time>
      </trkpt>
      <trkpt lat="42.79744" lon="-0.01717">
        <ele>1435.516</ele>
        <time>2023-05-31T14:15:27Z</time>
      </trkpt>
    </trkseg>
  </trk>
</gpx>